<?xml version="1.0" encoding="UTF-8" standalone="no" ?>
<gpx xmlns="http://www.topografix.com/GPX/1/1" xmlns:xsi="http://www.w3.org/2001/XMLSchema-instance" xsi:schemaLocation="http://www.topografix.com/GPX/1/1 http://www.topografix.com/GPX/1/1/gpx.xsd" version="1.1" creator="VisuGPX - https://www.visugpx.com">
  <metadata>
    <name>Sillans la Cascade</name>
    <desc><![CDATA[Un petit tour sans difficulté en grande partie dans les bois.]]></desc>
  </metadata>
  <trk>
    <name><![CDATA[Sillans]]></name>
    <extensions>
      <line xmlns="http://www.topografix.com/GPX/gpx_style/0/2">
        <color>0000FF</color>
        <opacity>1</opacity>
        <width>4</width>
      </line>
    </extensions>
    <trkseg>
      <trkpt lat="43.56773" lon="6.1538">
        <ele>398.7</ele>
        <time>2025-07-06T06:50:28.000Z</time>
      </trkpt>
      <trkpt lat="43.56769" lon="6.1538">
        <ele>398.4</ele>
        <time>2025-07-06T06:50:31.913Z</time>
      </trkpt>
      <trkpt lat="43.56764" lon="6.1538">
        <ele>398</ele>
        <time>2025-07-06T06:50:36.804Z</time>
      </trkpt>
      <trkpt lat="43.5676" lon="6.1538">
        <ele>397.7</ele>
        <time>2025-07-06T06:50:40.717Z</time>
      </trkpt>
      <trkpt lat="43.56755" lon="6.1538">
        <ele>397.4</ele>
        <time>2025-07-06T06:50:45.608Z</time>
      </trkpt>
      <trkpt lat="43.56755" lon="6.15369">
        <ele>397.4</ele>
        <time>2025-07-06T06:50:53.405Z</time>
      </trkpt>
      <trkpt lat="43.56755" lon="6.15357">
        <ele>397.4</ele>
        <time>2025-07-06T06:51:01.911Z</time>
      </trkpt>
      <trkpt lat="43.56755" lon="6.15345">
        <ele>397.4</ele>
        <time>2025-07-06T06:51:10.417Z</time>
      </trkpt>
      <trkpt lat="43.56755" lon="6.15334">
        <ele>397.4</ele>
        <time>2025-07-06T06:51:18.214Z</time>
      </trkpt>
      <trkpt lat="43.56756" lon="6.15322">
        <ele>397.4</ele>
        <time>2025-07-06T06:51:26.776Z</time>
      </trkpt>
      <trkpt lat="43.56756" lon="6.15311">
        <ele>397.4</ele>
        <time>2025-07-06T06:51:34.573Z</time>
      </trkpt>
      <trkpt lat="43.56756" lon="6.15299">
        <ele>397.4</ele>
        <time>2025-07-06T06:51:43.079Z</time>
      </trkpt>
      <trkpt lat="43.56756" lon="6.15288">
        <ele>397.3</ele>
        <time>2025-07-06T06:51:50.876Z</time>
      </trkpt>
      <trkpt lat="43.56756" lon="6.15276">
        <ele>397.2</ele>
        <time>2025-07-06T06:51:59.382Z</time>
      </trkpt>
      <trkpt lat="43.56756" lon="6.15265">
        <ele>397.1</ele>
        <time>2025-07-06T06:52:07.179Z</time>
      </trkpt>
      <trkpt lat="43.56756" lon="6.15253">
        <ele>397</ele>
        <time>2025-07-06T06:52:15.685Z</time>
      </trkpt>
      <trkpt lat="43.56756" lon="6.15242">
        <ele>397.1</ele>
        <time>2025-07-06T06:52:23.482Z</time>
      </trkpt>
      <trkpt lat="43.56756" lon="6.1523">
        <ele>397.2</ele>
        <time>2025-07-06T06:52:31.988Z</time>
      </trkpt>
      <trkpt lat="43.56756" lon="6.15219">
        <ele>397.2</ele>
        <time>2025-07-06T06:52:39.785Z</time>
      </trkpt>
      <trkpt lat="43.56756" lon="6.15207">
        <ele>397.2</ele>
        <time>2025-07-06T06:52:48.291Z</time>
      </trkpt>
      <trkpt lat="43.56757" lon="6.15196">
        <ele>397.3</ele>
        <time>2025-07-06T06:52:56.149Z</time>
      </trkpt>
      <trkpt lat="43.56757" lon="6.15184">
        <ele>397.5</ele>
        <time>2025-07-06T06:53:04.655Z</time>
      </trkpt>
      <trkpt lat="43.56757" lon="6.15172">
        <ele>397.9</ele>
        <time>2025-07-06T06:53:13.161Z</time>
      </trkpt>
      <trkpt lat="43.56757" lon="6.15161">
        <ele>398.1</ele>
        <time>2025-07-06T06:53:20.958Z</time>
      </trkpt>
      <trkpt lat="43.56757" lon="6.15149">
        <ele>398.2</ele>
        <time>2025-07-06T06:53:29.464Z</time>
      </trkpt>
      <trkpt lat="43.56757" lon="6.15138">
        <ele>398.3</ele>
        <time>2025-07-06T06:53:37.261Z</time>
      </trkpt>
      <trkpt lat="43.56757" lon="6.15126">
        <ele>398.3</ele>
        <time>2025-07-06T06:53:45.767Z</time>
      </trkpt>
      <trkpt lat="43.56757" lon="6.15115">
        <ele>398.3</ele>
        <time>2025-07-06T06:53:53.564Z</time>
      </trkpt>
      <trkpt lat="43.56757" lon="6.15103">
        <ele>398.4</ele>
        <time>2025-07-06T06:54:02.070Z</time>
      </trkpt>
      <trkpt lat="43.56757" lon="6.15092">
        <ele>398.6</ele>
        <time>2025-07-06T06:54:09.867Z</time>
      </trkpt>
      <trkpt lat="43.56757" lon="6.1508">
        <ele>398.9</ele>
        <time>2025-07-06T06:54:18.373Z</time>
      </trkpt>
      <trkpt lat="43.56758" lon="6.15069">
        <ele>399.7</ele>
        <time>2025-07-06T06:54:26.231Z</time>
      </trkpt>
      <trkpt lat="43.56758" lon="6.15057">
        <ele>400.4</ele>
        <time>2025-07-06T06:54:34.737Z</time>
      </trkpt>
      <trkpt lat="43.56758" lon="6.15046">
        <ele>400.8</ele>
        <time>2025-07-06T06:54:42.534Z</time>
      </trkpt>
      <trkpt lat="43.56758" lon="6.15034">
        <ele>401.3</ele>
        <time>2025-07-06T06:54:51.040Z</time>
      </trkpt>
      <trkpt lat="43.56758" lon="6.15023">
        <ele>401.4</ele>
        <time>2025-07-06T06:54:58.837Z</time>
      </trkpt>
      <trkpt lat="43.56758" lon="6.15011">
        <ele>400.8</ele>
        <time>2025-07-06T06:55:07.343Z</time>
      </trkpt>
      <trkpt lat="43.56758" lon="6.15">
        <ele>400.3</ele>
        <time>2025-07-06T06:55:15.140Z</time>
      </trkpt>
      <trkpt lat="43.56758" lon="6.14988">
        <ele>400.3</ele>
        <time>2025-07-06T06:55:23.646Z</time>
      </trkpt>
      <trkpt lat="43.56758" lon="6.14976">
        <ele>400.3</ele>
        <time>2025-07-06T06:55:32.152Z</time>
      </trkpt>
      <trkpt lat="43.56758" lon="6.14965">
        <ele>400.3</ele>
        <time>2025-07-06T06:55:39.949Z</time>
      </trkpt>
      <trkpt lat="43.56759" lon="6.14953">
        <ele>400.3</ele>
        <time>2025-07-06T06:55:48.511Z</time>
      </trkpt>
      <trkpt lat="43.56759" lon="6.14942">
        <ele>400.3</ele>
        <time>2025-07-06T06:55:56.308Z</time>
      </trkpt>
      <trkpt lat="43.56759" lon="6.1493">
        <ele>400.3</ele>
        <time>2025-07-06T06:56:04.814Z</time>
      </trkpt>
      <trkpt lat="43.56759" lon="6.14919">
        <ele>400.3</ele>
        <time>2025-07-06T06:56:12.611Z</time>
      </trkpt>
      <trkpt lat="43.56759" lon="6.14907">
        <ele>400.4</ele>
        <time>2025-07-06T06:56:21.117Z</time>
      </trkpt>
      <trkpt lat="43.56759" lon="6.14896">
        <ele>400.6</ele>
        <time>2025-07-06T06:56:28.914Z</time>
      </trkpt>
      <trkpt lat="43.56759" lon="6.14884">
        <ele>400.7</ele>
        <time>2025-07-06T06:56:37.420Z</time>
      </trkpt>
      <trkpt lat="43.56759" lon="6.14873">
        <ele>400.8</ele>
        <time>2025-07-06T06:56:45.217Z</time>
      </trkpt>
      <trkpt lat="43.56759" lon="6.14861">
        <ele>401</ele>
        <time>2025-07-06T06:56:53.723Z</time>
      </trkpt>
      <trkpt lat="43.56759" lon="6.1485">
        <ele>401.1</ele>
        <time>2025-07-06T06:57:01.520Z</time>
      </trkpt>
      <trkpt lat="43.56759" lon="6.14838">
        <ele>401.2</ele>
        <time>2025-07-06T06:57:10.026Z</time>
      </trkpt>
      <trkpt lat="43.5676" lon="6.14827">
        <ele>401.4</ele>
        <time>2025-07-06T06:57:17.884Z</time>
      </trkpt>
      <trkpt lat="43.5676" lon="6.14815">
        <ele>401.4</ele>
        <time>2025-07-06T06:57:26.390Z</time>
      </trkpt>
      <trkpt lat="43.5676" lon="6.14803">
        <ele>401.5</ele>
        <time>2025-07-06T06:57:34.896Z</time>
      </trkpt>
      <trkpt lat="43.5676" lon="6.14792">
        <ele>401.6</ele>
        <time>2025-07-06T06:57:42.693Z</time>
      </trkpt>
      <trkpt lat="43.5676" lon="6.1478">
        <ele>401.7</ele>
        <time>2025-07-06T06:57:51.199Z</time>
      </trkpt>
      <trkpt lat="43.5676" lon="6.14769">
        <ele>401.7</ele>
        <time>2025-07-06T06:57:58.996Z</time>
      </trkpt>
      <trkpt lat="43.5676" lon="6.14757">
        <ele>401.7</ele>
        <time>2025-07-06T06:58:07.502Z</time>
      </trkpt>
      <trkpt lat="43.5676" lon="6.14746">
        <ele>401.8</ele>
        <time>2025-07-06T06:58:15.299Z</time>
      </trkpt>
      <trkpt lat="43.5676" lon="6.14734">
        <ele>401.9</ele>
        <time>2025-07-06T06:58:23.805Z</time>
      </trkpt>
      <trkpt lat="43.5676" lon="6.14723">
        <ele>402.1</ele>
        <time>2025-07-06T06:58:31.602Z</time>
      </trkpt>
      <trkpt lat="43.5676" lon="6.14711">
        <ele>402.5</ele>
        <time>2025-07-06T06:58:40.108Z</time>
      </trkpt>
      <trkpt lat="43.56761" lon="6.147">
        <ele>403</ele>
        <time>2025-07-06T06:58:47.966Z</time>
      </trkpt>
      <trkpt lat="43.56761" lon="6.14688">
        <ele>403</ele>
        <time>2025-07-06T06:58:56.472Z</time>
      </trkpt>
      <trkpt lat="43.56761" lon="6.14677">
        <ele>402.7</ele>
        <time>2025-07-06T06:59:04.269Z</time>
      </trkpt>
      <trkpt lat="43.56761" lon="6.14665">
        <ele>402.5</ele>
        <time>2025-07-06T06:59:12.775Z</time>
      </trkpt>
      <trkpt lat="43.56761" lon="6.14654">
        <ele>403</ele>
        <time>2025-07-06T06:59:20.572Z</time>
      </trkpt>
      <trkpt lat="43.56761" lon="6.14642">
        <ele>403.6</ele>
        <time>2025-07-06T06:59:29.078Z</time>
      </trkpt>
      <trkpt lat="43.56761" lon="6.1463">
        <ele>403.9</ele>
        <time>2025-07-06T06:59:37.584Z</time>
      </trkpt>
      <trkpt lat="43.5676" lon="6.14618">
        <ele>404</ele>
        <time>2025-07-06T06:59:46.146Z</time>
      </trkpt>
      <trkpt lat="43.5676" lon="6.14606">
        <ele>404.1</ele>
        <time>2025-07-06T06:59:54.652Z</time>
      </trkpt>
      <trkpt lat="43.56759" lon="6.14594">
        <ele>404.2</ele>
        <time>2025-07-06T07:00:03.214Z</time>
      </trkpt>
      <trkpt lat="43.56759" lon="6.14582">
        <ele>404.2</ele>
        <time>2025-07-06T07:00:11.720Z</time>
      </trkpt>
      <trkpt lat="43.56758" lon="6.1457">
        <ele>403.7</ele>
        <time>2025-07-06T07:00:20.282Z</time>
      </trkpt>
      <trkpt lat="43.56758" lon="6.14558">
        <ele>403.2</ele>
        <time>2025-07-06T07:00:28.788Z</time>
      </trkpt>
      <trkpt lat="43.56757" lon="6.14546">
        <ele>403</ele>
        <time>2025-07-06T07:00:37.350Z</time>
      </trkpt>
      <trkpt lat="43.56756" lon="6.14539">
        <ele>402.9</ele>
        <time>2025-07-06T07:00:42.407Z</time>
      </trkpt>
      <trkpt lat="43.56755" lon="6.14531">
        <ele>402.7</ele>
        <time>2025-07-06T07:00:48.161Z</time>
      </trkpt>
      <trkpt lat="43.56754" lon="6.14524">
        <ele>402.6</ele>
        <time>2025-07-06T07:00:53.218Z</time>
      </trkpt>
      <trkpt lat="43.56753" lon="6.14516">
        <ele>402.4</ele>
        <time>2025-07-06T07:00:58.972Z</time>
      </trkpt>
      <trkpt lat="43.56752" lon="6.14509">
        <ele>402.2</ele>
        <time>2025-07-06T07:01:04.029Z</time>
      </trkpt>
      <trkpt lat="43.56751" lon="6.14501">
        <ele>402.1</ele>
        <time>2025-07-06T07:01:09.783Z</time>
      </trkpt>
      <trkpt lat="43.5675" lon="6.14494">
        <ele>402</ele>
        <time>2025-07-06T07:01:14.840Z</time>
      </trkpt>
      <trkpt lat="43.5675" lon="6.14487">
        <ele>402</ele>
        <time>2025-07-06T07:01:19.802Z</time>
      </trkpt>
      <trkpt lat="43.56749" lon="6.14479">
        <ele>401.9</ele>
        <time>2025-07-06T07:01:25.556Z</time>
      </trkpt>
      <trkpt lat="43.56748" lon="6.14472">
        <ele>401.8</ele>
        <time>2025-07-06T07:01:30.613Z</time>
      </trkpt>
      <trkpt lat="43.56747" lon="6.14464">
        <ele>401.5</ele>
        <time>2025-07-06T07:01:36.367Z</time>
      </trkpt>
      <trkpt lat="43.56746" lon="6.14457">
        <ele>401.2</ele>
        <time>2025-07-06T07:01:41.424Z</time>
      </trkpt>
      <trkpt lat="43.56745" lon="6.14449">
        <ele>400.8</ele>
        <time>2025-07-06T07:01:47.178Z</time>
      </trkpt>
      <trkpt lat="43.56744" lon="6.14442">
        <ele>400.5</ele>
        <time>2025-07-06T07:01:52.235Z</time>
      </trkpt>
      <trkpt lat="43.56743" lon="6.14434">
        <ele>400</ele>
        <time>2025-07-06T07:01:57.989Z</time>
      </trkpt>
      <trkpt lat="43.56742" lon="6.14427">
        <ele>399.6</ele>
        <time>2025-07-06T07:02:03.046Z</time>
      </trkpt>
      <trkpt lat="43.56743" lon="6.14421">
        <ele>399.4</ele>
        <time>2025-07-06T07:02:07.410Z</time>
      </trkpt>
      <trkpt lat="43.56744" lon="6.14414">
        <ele>399.3</ele>
        <time>2025-07-06T07:02:12.467Z</time>
      </trkpt>
      <trkpt lat="43.56745" lon="6.14408">
        <ele>399.1</ele>
        <time>2025-07-06T07:02:16.831Z</time>
      </trkpt>
      <trkpt lat="43.56746" lon="6.14401">
        <ele>399</ele>
        <time>2025-07-06T07:02:21.888Z</time>
      </trkpt>
      <trkpt lat="43.56747" lon="6.14395">
        <ele>398.9</ele>
        <time>2025-07-06T07:02:26.252Z</time>
      </trkpt>
      <trkpt lat="43.56748" lon="6.14388">
        <ele>398.8</ele>
        <time>2025-07-06T07:02:31.309Z</time>
      </trkpt>
      <trkpt lat="43.56749" lon="6.14382">
        <ele>398.9</ele>
        <time>2025-07-06T07:02:35.673Z</time>
      </trkpt>
      <trkpt lat="43.5675" lon="6.14376">
        <ele>399</ele>
        <time>2025-07-06T07:02:40.037Z</time>
      </trkpt>
      <trkpt lat="43.56751" lon="6.14369">
        <ele>398.9</ele>
        <time>2025-07-06T07:02:45.094Z</time>
      </trkpt>
      <trkpt lat="43.56752" lon="6.14363">
        <ele>398.9</ele>
        <time>2025-07-06T07:02:49.458Z</time>
      </trkpt>
      <trkpt lat="43.56753" lon="6.14356">
        <ele>398.6</ele>
        <time>2025-07-06T07:02:54.515Z</time>
      </trkpt>
      <trkpt lat="43.56754" lon="6.1435">
        <ele>398.4</ele>
        <time>2025-07-06T07:02:58.879Z</time>
      </trkpt>
      <trkpt lat="43.56755" lon="6.14343">
        <ele>398.1</ele>
        <time>2025-07-06T07:03:03.936Z</time>
      </trkpt>
      <trkpt lat="43.56756" lon="6.14337">
        <ele>397.9</ele>
        <time>2025-07-06T07:03:08.300Z</time>
      </trkpt>
      <trkpt lat="43.56757" lon="6.1433">
        <ele>397.7</ele>
        <time>2025-07-06T07:03:13.357Z</time>
      </trkpt>
      <trkpt lat="43.56758" lon="6.14324">
        <ele>397.5</ele>
        <time>2025-07-06T07:03:17.721Z</time>
      </trkpt>
      <trkpt lat="43.56761" lon="6.14318">
        <ele>397.3</ele>
        <time>2025-07-06T07:03:22.888Z</time>
      </trkpt>
      <trkpt lat="43.56763" lon="6.14313">
        <ele>397.1</ele>
        <time>2025-07-06T07:03:26.936Z</time>
      </trkpt>
      <trkpt lat="43.56766" lon="6.14307">
        <ele>397</ele>
        <time>2025-07-06T07:03:32.103Z</time>
      </trkpt>
      <trkpt lat="43.56768" lon="6.14301">
        <ele>397</ele>
        <time>2025-07-06T07:03:36.784Z</time>
      </trkpt>
      <trkpt lat="43.56771" lon="6.14296">
        <ele>397.2</ele>
        <time>2025-07-06T07:03:41.385Z</time>
      </trkpt>
      <trkpt lat="43.56773" lon="6.1429">
        <ele>397.4</ele>
        <time>2025-07-06T07:03:46.066Z</time>
      </trkpt>
      <trkpt lat="43.56776" lon="6.14284">
        <ele>397.7</ele>
        <time>2025-07-06T07:03:51.233Z</time>
      </trkpt>
      <trkpt lat="43.56778" lon="6.14279">
        <ele>397.9</ele>
        <time>2025-07-06T07:03:55.281Z</time>
      </trkpt>
      <trkpt lat="43.56781" lon="6.14273">
        <ele>397.7</ele>
        <time>2025-07-06T07:04:00.448Z</time>
      </trkpt>
      <trkpt lat="43.56783" lon="6.14267">
        <ele>397.5</ele>
        <time>2025-07-06T07:04:05.129Z</time>
      </trkpt>
      <trkpt lat="43.56786" lon="6.14262">
        <ele>397.3</ele>
        <time>2025-07-06T07:04:09.730Z</time>
      </trkpt>
      <trkpt lat="43.56788" lon="6.14256">
        <ele>397.1</ele>
        <time>2025-07-06T07:04:14.411Z</time>
      </trkpt>
      <trkpt lat="43.56791" lon="6.14251">
        <ele>397</ele>
        <time>2025-07-06T07:04:19.012Z</time>
      </trkpt>
      <trkpt lat="43.56793" lon="6.14245">
        <ele>397.1</ele>
        <time>2025-07-06T07:04:23.693Z</time>
      </trkpt>
      <trkpt lat="43.56796" lon="6.14239">
        <ele>397.3</ele>
        <time>2025-07-06T07:04:28.860Z</time>
      </trkpt>
      <trkpt lat="43.56798" lon="6.14234">
        <ele>397.4</ele>
        <time>2025-07-06T07:04:32.908Z</time>
      </trkpt>
      <trkpt lat="43.56801" lon="6.14228">
        <ele>397.7</ele>
        <time>2025-07-06T07:04:38.075Z</time>
      </trkpt>
      <trkpt lat="43.56803" lon="6.14222">
        <ele>397.9</ele>
        <time>2025-07-06T07:04:42.756Z</time>
      </trkpt>
      <trkpt lat="43.56806" lon="6.14217">
        <ele>398</ele>
        <time>2025-07-06T07:04:47.357Z</time>
      </trkpt>
      <trkpt lat="43.56808" lon="6.14211">
        <ele>398</ele>
        <time>2025-07-06T07:04:52.038Z</time>
      </trkpt>
      <trkpt lat="43.56811" lon="6.14205">
        <ele>398</ele>
        <time>2025-07-06T07:04:57.205Z</time>
      </trkpt>
      <trkpt lat="43.56813" lon="6.142">
        <ele>398</ele>
        <time>2025-07-06T07:05:01.253Z</time>
      </trkpt>
      <trkpt lat="43.56816" lon="6.14194">
        <ele>398</ele>
        <time>2025-07-06T07:05:06.420Z</time>
      </trkpt>
      <trkpt lat="43.56818" lon="6.14188">
        <ele>398</ele>
        <time>2025-07-06T07:05:11.101Z</time>
      </trkpt>
      <trkpt lat="43.56821" lon="6.14183">
        <ele>398</ele>
        <time>2025-07-06T07:05:15.702Z</time>
      </trkpt>
      <trkpt lat="43.56823" lon="6.14177">
        <ele>398</ele>
        <time>2025-07-06T07:05:20.383Z</time>
      </trkpt>
      <trkpt lat="43.56826" lon="6.14171">
        <ele>398</ele>
        <time>2025-07-06T07:05:25.550Z</time>
      </trkpt>
      <trkpt lat="43.56828" lon="6.14166">
        <ele>398</ele>
        <time>2025-07-06T07:05:29.598Z</time>
      </trkpt>
      <trkpt lat="43.56831" lon="6.1416">
        <ele>398.2</ele>
        <time>2025-07-06T07:05:34.765Z</time>
      </trkpt>
      <trkpt lat="43.56833" lon="6.14154">
        <ele>398.5</ele>
        <time>2025-07-06T07:05:39.446Z</time>
      </trkpt>
      <trkpt lat="43.56836" lon="6.14149">
        <ele>398.6</ele>
        <time>2025-07-06T07:05:44.047Z</time>
      </trkpt>
      <trkpt lat="43.56838" lon="6.14143">
        <ele>398.9</ele>
        <time>2025-07-06T07:05:48.728Z</time>
      </trkpt>
      <trkpt lat="43.56841" lon="6.14136">
        <ele>399</ele>
        <time>2025-07-06T07:05:54.493Z</time>
      </trkpt>
      <trkpt lat="43.56845" lon="6.14128">
        <ele>399</ele>
        <time>2025-07-06T07:06:01.383Z</time>
      </trkpt>
      <trkpt lat="43.56848" lon="6.14121">
        <ele>399</ele>
        <time>2025-07-06T07:06:07.148Z</time>
      </trkpt>
      <trkpt lat="43.56851" lon="6.14113">
        <ele>399</ele>
        <time>2025-07-06T07:06:13.533Z</time>
      </trkpt>
      <trkpt lat="43.56853" lon="6.14106">
        <ele>399</ele>
        <time>2025-07-06T07:06:18.867Z</time>
      </trkpt>
      <trkpt lat="43.56856" lon="6.14099">
        <ele>399</ele>
        <time>2025-07-06T07:06:24.632Z</time>
      </trkpt>
      <trkpt lat="43.56858" lon="6.14091">
        <ele>399</ele>
        <time>2025-07-06T07:06:30.631Z</time>
      </trkpt>
      <trkpt lat="43.5686" lon="6.14084">
        <ele>399</ele>
        <time>2025-07-06T07:06:35.965Z</time>
      </trkpt>
      <trkpt lat="43.56862" lon="6.14077">
        <ele>399.2</ele>
        <time>2025-07-06T07:06:41.299Z</time>
      </trkpt>
      <trkpt lat="43.56865" lon="6.1407">
        <ele>399.5</ele>
        <time>2025-07-06T07:06:47.064Z</time>
      </trkpt>
      <trkpt lat="43.56867" lon="6.14062">
        <ele>399.8</ele>
        <time>2025-07-06T07:06:53.063Z</time>
      </trkpt>
      <trkpt lat="43.56869" lon="6.14055">
        <ele>400</ele>
        <time>2025-07-06T07:06:58.397Z</time>
      </trkpt>
      <trkpt lat="43.56871" lon="6.14046">
        <ele>400</ele>
        <time>2025-07-06T07:07:05.070Z</time>
      </trkpt>
      <trkpt lat="43.56872" lon="6.14037">
        <ele>400</ele>
        <time>2025-07-06T07:07:11.524Z</time>
      </trkpt>
      <trkpt lat="43.56874" lon="6.14028">
        <ele>400</ele>
        <time>2025-07-06T07:07:18.197Z</time>
      </trkpt>
      <trkpt lat="43.56876" lon="6.1402">
        <ele>400.3</ele>
        <time>2025-07-06T07:07:24.196Z</time>
      </trkpt>
      <trkpt lat="43.56877" lon="6.14011">
        <ele>400.6</ele>
        <time>2025-07-06T07:07:30.650Z</time>
      </trkpt>
      <trkpt lat="43.56879" lon="6.14002">
        <ele>400.9</ele>
        <time>2025-07-06T07:07:37.323Z</time>
      </trkpt>
      <trkpt lat="43.56881" lon="6.13993">
        <ele>401.1</ele>
        <time>2025-07-06T07:07:43.996Z</time>
      </trkpt>
      <trkpt lat="43.56883" lon="6.13984">
        <ele>401.1</ele>
        <time>2025-07-06T07:07:50.669Z</time>
      </trkpt>
      <trkpt lat="43.56884" lon="6.13975">
        <ele>401.2</ele>
        <time>2025-07-06T07:07:57.123Z</time>
      </trkpt>
      <trkpt lat="43.56886" lon="6.13966">
        <ele>401.3</ele>
        <time>2025-07-06T07:08:03.796Z</time>
      </trkpt>
      <trkpt lat="43.56888" lon="6.13957">
        <ele>401.6</ele>
        <time>2025-07-06T07:08:10.469Z</time>
      </trkpt>
      <trkpt lat="43.56889" lon="6.13949">
        <ele>401.8</ele>
        <time>2025-07-06T07:08:16.223Z</time>
      </trkpt>
      <trkpt lat="43.56891" lon="6.1394">
        <ele>402.2</ele>
        <time>2025-07-06T07:08:22.896Z</time>
      </trkpt>
      <trkpt lat="43.56893" lon="6.13931">
        <ele>402.5</ele>
        <time>2025-07-06T07:08:29.569Z</time>
      </trkpt>
      <trkpt lat="43.56894" lon="6.13922">
        <ele>402.8</ele>
        <time>2025-07-06T07:08:36.023Z</time>
      </trkpt>
      <trkpt lat="43.56896" lon="6.13913">
        <ele>403.1</ele>
        <time>2025-07-06T07:08:42.696Z</time>
      </trkpt>
      <trkpt lat="43.56898" lon="6.13903">
        <ele>403.3</ele>
        <time>2025-07-06T07:08:50.049Z</time>
      </trkpt>
      <trkpt lat="43.56899" lon="6.13894">
        <ele>403.5</ele>
        <time>2025-07-06T07:08:56.503Z</time>
      </trkpt>
      <trkpt lat="43.56901" lon="6.13884">
        <ele>403.7</ele>
        <time>2025-07-06T07:09:03.857Z</time>
      </trkpt>
      <trkpt lat="43.56903" lon="6.13875">
        <ele>403.7</ele>
        <time>2025-07-06T07:09:10.530Z</time>
      </trkpt>
      <trkpt lat="43.56904" lon="6.13865">
        <ele>403.8</ele>
        <time>2025-07-06T07:09:17.686Z</time>
      </trkpt>
      <trkpt lat="43.56906" lon="6.13855">
        <ele>404.1</ele>
        <time>2025-07-06T07:09:25.039Z</time>
      </trkpt>
      <trkpt lat="43.56908" lon="6.13846">
        <ele>404.3</ele>
        <time>2025-07-06T07:09:31.712Z</time>
      </trkpt>
      <trkpt lat="43.5691" lon="6.13836">
        <ele>404.6</ele>
        <time>2025-07-06T07:09:39.065Z</time>
      </trkpt>
      <trkpt lat="43.56911" lon="6.13826">
        <ele>404.9</ele>
        <time>2025-07-06T07:09:46.221Z</time>
      </trkpt>
      <trkpt lat="43.56913" lon="6.13817">
        <ele>405.1</ele>
        <time>2025-07-06T07:09:52.894Z</time>
      </trkpt>
      <trkpt lat="43.56915" lon="6.13807">
        <ele>405.2</ele>
        <time>2025-07-06T07:10:00.247Z</time>
      </trkpt>
      <trkpt lat="43.56916" lon="6.13798">
        <ele>405.4</ele>
        <time>2025-07-06T07:10:06.701Z</time>
      </trkpt>
      <trkpt lat="43.56918" lon="6.13788">
        <ele>405.6</ele>
        <time>2025-07-06T07:10:14.054Z</time>
      </trkpt>
      <trkpt lat="43.5692" lon="6.13778">
        <ele>405.9</ele>
        <time>2025-07-06T07:10:21.408Z</time>
      </trkpt>
      <trkpt lat="43.56921" lon="6.13769">
        <ele>406.4</ele>
        <time>2025-07-06T07:10:27.862Z</time>
      </trkpt>
      <trkpt lat="43.56923" lon="6.13759">
        <ele>406.8</ele>
        <time>2025-07-06T07:10:35.215Z</time>
      </trkpt>
      <trkpt lat="43.56923" lon="6.13753">
        <ele>407.1</ele>
        <time>2025-07-06T07:10:39.468Z</time>
      </trkpt>
      <trkpt lat="43.56923" lon="6.13747">
        <ele>407.4</ele>
        <time>2025-07-06T07:10:43.721Z</time>
      </trkpt>
      <trkpt lat="43.56923" lon="6.1374">
        <ele>407.7</ele>
        <time>2025-07-06T07:10:48.683Z</time>
      </trkpt>
      <trkpt lat="43.56924" lon="6.13734">
        <ele>407.8</ele>
        <time>2025-07-06T07:10:53.047Z</time>
      </trkpt>
      <trkpt lat="43.56924" lon="6.13728">
        <ele>408</ele>
        <time>2025-07-06T07:10:57.300Z</time>
      </trkpt>
      <trkpt lat="43.56924" lon="6.13722">
        <ele>408.2</ele>
        <time>2025-07-06T07:11:01.553Z</time>
      </trkpt>
      <trkpt lat="43.56924" lon="6.13715">
        <ele>408.3</ele>
        <time>2025-07-06T07:11:06.515Z</time>
      </trkpt>
      <trkpt lat="43.56924" lon="6.13709">
        <ele>408.3</ele>
        <time>2025-07-06T07:11:10.768Z</time>
      </trkpt>
      <trkpt lat="43.56924" lon="6.13701">
        <ele>408.4</ele>
        <time>2025-07-06T07:11:16.439Z</time>
      </trkpt>
      <trkpt lat="43.56923" lon="6.13692">
        <ele>408.6</ele>
        <time>2025-07-06T07:11:22.893Z</time>
      </trkpt>
      <trkpt lat="43.56923" lon="6.13684">
        <ele>408.6</ele>
        <time>2025-07-06T07:11:28.564Z</time>
      </trkpt>
      <trkpt lat="43.56922" lon="6.13676">
        <ele>408.7</ele>
        <time>2025-07-06T07:11:34.318Z</time>
      </trkpt>
      <trkpt lat="43.56922" lon="6.13667">
        <ele>408.8</ele>
        <time>2025-07-06T07:11:40.698Z</time>
      </trkpt>
      <trkpt lat="43.56921" lon="6.13659">
        <ele>408.8</ele>
        <time>2025-07-06T07:11:46.452Z</time>
      </trkpt>
      <trkpt lat="43.56921" lon="6.13651">
        <ele>408.8</ele>
        <time>2025-07-06T07:11:52.123Z</time>
      </trkpt>
      <trkpt lat="43.5692" lon="6.13643">
        <ele>408.9</ele>
        <time>2025-07-06T07:11:57.877Z</time>
      </trkpt>
      <trkpt lat="43.5692" lon="6.13634">
        <ele>408.9</ele>
        <time>2025-07-06T07:12:04.257Z</time>
      </trkpt>
      <trkpt lat="43.56919" lon="6.13626">
        <ele>409</ele>
        <time>2025-07-06T07:12:10.011Z</time>
      </trkpt>
      <trkpt lat="43.56919" lon="6.13618">
        <ele>409</ele>
        <time>2025-07-06T07:12:15.682Z</time>
      </trkpt>
      <trkpt lat="43.56918" lon="6.13609">
        <ele>409.1</ele>
        <time>2025-07-06T07:12:22.136Z</time>
      </trkpt>
      <trkpt lat="43.56918" lon="6.13601">
        <ele>409.3</ele>
        <time>2025-07-06T07:12:27.807Z</time>
      </trkpt>
      <trkpt lat="43.56917" lon="6.13593">
        <ele>409.6</ele>
        <time>2025-07-06T07:12:33.561Z</time>
      </trkpt>
      <trkpt lat="43.56917" lon="6.13584">
        <ele>410</ele>
        <time>2025-07-06T07:12:39.941Z</time>
      </trkpt>
      <trkpt lat="43.56916" lon="6.13576">
        <ele>410</ele>
        <time>2025-07-06T07:12:45.695Z</time>
      </trkpt>
      <trkpt lat="43.56921" lon="6.13575">
        <ele>409.9</ele>
        <time>2025-07-06T07:12:50.638Z</time>
      </trkpt>
      <trkpt lat="43.56925" lon="6.13574">
        <ele>409.8</ele>
        <time>2025-07-06T07:12:54.615Z</time>
      </trkpt>
      <trkpt lat="43.56926" lon="6.13574">
        <ele>409.8</ele>
        <time>2025-07-06T07:12:55.593Z</time>
      </trkpt>
      <trkpt lat="43.56934" lon="6.1357">
        <ele>409.7</ele>
        <time>2025-07-06T07:13:03.918Z</time>
      </trkpt>
      <trkpt lat="43.56942" lon="6.13565">
        <ele>409.7</ele>
        <time>2025-07-06T07:13:12.510Z</time>
      </trkpt>
      <trkpt lat="43.56949" lon="6.13561">
        <ele>409.8</ele>
        <time>2025-07-06T07:13:19.922Z</time>
      </trkpt>
      <trkpt lat="43.56957" lon="6.13556">
        <ele>410</ele>
        <time>2025-07-06T07:13:28.514Z</time>
      </trkpt>
      <trkpt lat="43.56965" lon="6.13552">
        <ele>410.1</ele>
        <time>2025-07-06T07:13:36.839Z</time>
      </trkpt>
      <trkpt lat="43.56973" lon="6.13547">
        <ele>410.3</ele>
        <time>2025-07-06T07:13:45.431Z</time>
      </trkpt>
      <trkpt lat="43.5698" lon="6.13543">
        <ele>410.6</ele>
        <time>2025-07-06T07:13:52.843Z</time>
      </trkpt>
      <trkpt lat="43.56988" lon="6.13539">
        <ele>410.8</ele>
        <time>2025-07-06T07:14:01.168Z</time>
      </trkpt>
      <trkpt lat="43.56996" lon="6.13534">
        <ele>411</ele>
        <time>2025-07-06T07:14:09.760Z</time>
      </trkpt>
      <trkpt lat="43.57004" lon="6.1353">
        <ele>411.1</ele>
        <time>2025-07-06T07:14:18.085Z</time>
      </trkpt>
      <trkpt lat="43.57011" lon="6.13525">
        <ele>411.5</ele>
        <time>2025-07-06T07:14:25.796Z</time>
      </trkpt>
      <trkpt lat="43.57019" lon="6.13521">
        <ele>411.9</ele>
        <time>2025-07-06T07:14:34.121Z</time>
      </trkpt>
      <trkpt lat="43.57027" lon="6.13516">
        <ele>412.4</ele>
        <time>2025-07-06T07:14:42.713Z</time>
      </trkpt>
      <trkpt lat="43.57035" lon="6.13512">
        <ele>413.3</ele>
        <time>2025-07-06T07:14:51.038Z</time>
      </trkpt>
      <trkpt lat="43.57042" lon="6.13507">
        <ele>414.3</ele>
        <time>2025-07-06T07:14:58.749Z</time>
      </trkpt>
      <trkpt lat="43.5705" lon="6.13503">
        <ele>415.3</ele>
        <time>2025-07-06T07:15:07.074Z</time>
      </trkpt>
      <trkpt lat="43.57057" lon="6.135">
        <ele>416.2</ele>
        <time>2025-07-06T07:15:14.245Z</time>
      </trkpt>
      <trkpt lat="43.57065" lon="6.13498">
        <ele>417.1</ele>
        <time>2025-07-06T07:15:22.199Z</time>
      </trkpt>
      <trkpt lat="43.57072" lon="6.13495">
        <ele>418.1</ele>
        <time>2025-07-06T07:15:29.370Z</time>
      </trkpt>
      <trkpt lat="43.57079" lon="6.13492">
        <ele>419.1</ele>
        <time>2025-07-06T07:15:36.541Z</time>
      </trkpt>
      <trkpt lat="43.57083" lon="6.13485">
        <ele>420</ele>
        <time>2025-07-06T07:15:42.860Z</time>
      </trkpt>
      <trkpt lat="43.57087" lon="6.13477">
        <ele>420.9</ele>
        <time>2025-07-06T07:15:49.750Z</time>
      </trkpt>
      <trkpt lat="43.5709" lon="6.1347">
        <ele>421.7</ele>
        <time>2025-07-06T07:15:55.515Z</time>
      </trkpt>
      <trkpt lat="43.57094" lon="6.13462">
        <ele>422.9</ele>
        <time>2025-07-06T07:16:02.405Z</time>
      </trkpt>
      <trkpt lat="43.571" lon="6.1346">
        <ele>423.5</ele>
        <time>2025-07-06T07:16:08.444Z</time>
      </trkpt>
      <trkpt lat="43.57105" lon="6.13457">
        <ele>424.2</ele>
        <time>2025-07-06T07:16:13.778Z</time>
      </trkpt>
      <trkpt lat="43.5711" lon="6.1346">
        <ele>424.2</ele>
        <time>2025-07-06T07:16:19.112Z</time>
      </trkpt>
      <trkpt lat="43.57114" lon="6.13463">
        <ele>424.5</ele>
        <time>2025-07-06T07:16:23.566Z</time>
      </trkpt>
      <trkpt lat="43.57119" lon="6.13466">
        <ele>425.1</ele>
        <time>2025-07-06T07:16:28.900Z</time>
      </trkpt>
      <trkpt lat="43.57124" lon="6.1347">
        <ele>425.6</ele>
        <time>2025-07-06T07:16:34.554Z</time>
      </trkpt>
      <trkpt lat="43.57128" lon="6.13473">
        <ele>426</ele>
        <time>2025-07-06T07:16:39.008Z</time>
      </trkpt>
      <trkpt lat="43.57133" lon="6.13476">
        <ele>426.6</ele>
        <time>2025-07-06T07:16:44.342Z</time>
      </trkpt>
      <trkpt lat="43.57137" lon="6.13479">
        <ele>426.9</ele>
        <time>2025-07-06T07:16:48.796Z</time>
      </trkpt>
      <trkpt lat="43.57142" lon="6.13482">
        <ele>427.5</ele>
        <time>2025-07-06T07:16:54.130Z</time>
      </trkpt>
      <trkpt lat="43.57147" lon="6.13483">
        <ele>428.4</ele>
        <time>2025-07-06T07:16:58.547Z</time>
      </trkpt>
      <trkpt lat="43.57151" lon="6.13483">
        <ele>429.2</ele>
        <time>2025-07-06T07:17:02.964Z</time>
      </trkpt>
      <trkpt lat="43.57159" lon="6.13483">
        <ele>430.7</ele>
        <time>2025-07-06T07:17:10.791Z</time>
      </trkpt>
      <trkpt lat="43.57162" lon="6.13488">
        <ele>430.9</ele>
        <time>2025-07-06T07:17:15.392Z</time>
      </trkpt>
      <trkpt lat="43.57165" lon="6.13493">
        <ele>431.2</ele>
        <time>2025-07-06T07:17:19.993Z</time>
      </trkpt>
      <trkpt lat="43.57168" lon="6.13498">
        <ele>431.4</ele>
        <time>2025-07-06T07:17:24.594Z</time>
      </trkpt>
      <trkpt lat="43.57172" lon="6.13504">
        <ele>431.8</ele>
        <time>2025-07-06T07:17:30.373Z</time>
      </trkpt>
      <trkpt lat="43.57175" lon="6.13509">
        <ele>432.3</ele>
        <time>2025-07-06T07:17:34.974Z</time>
      </trkpt>
      <trkpt lat="43.57178" lon="6.13514">
        <ele>432.7</ele>
        <time>2025-07-06T07:17:39.575Z</time>
      </trkpt>
      <trkpt lat="43.57181" lon="6.13519">
        <ele>433.2</ele>
        <time>2025-07-06T07:17:44.176Z</time>
      </trkpt>
      <trkpt lat="43.57184" lon="6.13524">
        <ele>433.8</ele>
        <time>2025-07-06T07:17:48.777Z</time>
      </trkpt>
      <trkpt lat="43.57188" lon="6.13528">
        <ele>434.6</ele>
        <time>2025-07-06T07:17:53.609Z</time>
      </trkpt>
      <trkpt lat="43.57191" lon="6.13532">
        <ele>434.8</ele>
        <time>2025-07-06T07:17:57.690Z</time>
      </trkpt>
      <trkpt lat="43.57195" lon="6.13536">
        <ele>435.2</ele>
        <time>2025-07-06T07:18:02.522Z</time>
      </trkpt>
      <trkpt lat="43.57198" lon="6.1354">
        <ele>435</ele>
        <time>2025-07-06T07:18:06.603Z</time>
      </trkpt>
      <trkpt lat="43.57204" lon="6.13544">
        <ele>435.1</ele>
        <time>2025-07-06T07:18:13.122Z</time>
      </trkpt>
      <trkpt lat="43.57211" lon="6.13548">
        <ele>435.4</ele>
        <time>2025-07-06T07:18:20.534Z</time>
      </trkpt>
      <trkpt lat="43.57217" lon="6.13552">
        <ele>435.7</ele>
        <time>2025-07-06T07:18:27.053Z</time>
      </trkpt>
      <trkpt lat="43.57223" lon="6.13556">
        <ele>436</ele>
        <time>2025-07-06T07:18:33.572Z</time>
      </trkpt>
      <trkpt lat="43.57228" lon="6.13558">
        <ele>436.2</ele>
        <time>2025-07-06T07:18:38.101Z</time>
      </trkpt>
      <trkpt lat="43.57232" lon="6.13559">
        <ele>436.4</ele>
        <time>2025-07-06T07:18:42.630Z</time>
      </trkpt>
      <trkpt lat="43.57237" lon="6.1356">
        <ele>436.6</ele>
        <time>2025-07-06T07:18:47.089Z</time>
      </trkpt>
      <trkpt lat="43.57241" lon="6.13561">
        <ele>436.8</ele>
        <time>2025-07-06T07:18:51.548Z</time>
      </trkpt>
      <trkpt lat="43.57249" lon="6.13564">
        <ele>437</ele>
        <time>2025-07-06T07:18:59.659Z</time>
      </trkpt>
      <trkpt lat="43.57254" lon="6.13565">
        <ele>437</ele>
        <time>2025-07-06T07:19:04.118Z</time>
      </trkpt>
      <trkpt lat="43.57258" lon="6.13566">
        <ele>436.9</ele>
        <time>2025-07-06T07:19:08.577Z</time>
      </trkpt>
      <trkpt lat="43.57266" lon="6.13562">
        <ele>437.6</ele>
        <time>2025-07-06T07:19:16.902Z</time>
      </trkpt>
      <trkpt lat="43.57271" lon="6.13561">
        <ele>437.9</ele>
        <time>2025-07-06T07:19:21.431Z</time>
      </trkpt>
      <trkpt lat="43.57275" lon="6.13559">
        <ele>438.3</ele>
        <time>2025-07-06T07:19:25.960Z</time>
      </trkpt>
      <trkpt lat="43.57283" lon="6.13555">
        <ele>438.7</ele>
        <time>2025-07-06T07:19:34.285Z</time>
      </trkpt>
      <trkpt lat="43.57291" lon="6.13551">
        <ele>438.6</ele>
        <time>2025-07-06T07:19:42.610Z</time>
      </trkpt>
      <trkpt lat="43.57298" lon="6.13553">
        <ele>437.8</ele>
        <time>2025-07-06T07:19:49.604Z</time>
      </trkpt>
      <trkpt lat="43.57305" lon="6.13554">
        <ele>437.2</ele>
        <time>2025-07-06T07:19:56.489Z</time>
      </trkpt>
      <trkpt lat="43.57311" lon="6.13553">
        <ele>438</ele>
        <time>2025-07-06T07:20:02.402Z</time>
      </trkpt>
      <trkpt lat="43.57317" lon="6.13552">
        <ele>438.9</ele>
        <time>2025-07-06T07:20:08.315Z</time>
      </trkpt>
      <trkpt lat="43.57322" lon="6.1355">
        <ele>439.6</ele>
        <time>2025-07-06T07:20:13.408Z</time>
      </trkpt>
      <trkpt lat="43.57328" lon="6.13549">
        <ele>440.4</ele>
        <time>2025-07-06T07:20:19.321Z</time>
      </trkpt>
      <trkpt lat="43.57333" lon="6.13545">
        <ele>441</ele>
        <time>2025-07-06T07:20:24.975Z</time>
      </trkpt>
      <trkpt lat="43.57337" lon="6.13542">
        <ele>441.4</ele>
        <time>2025-07-06T07:20:29.429Z</time>
      </trkpt>
      <trkpt lat="43.57342" lon="6.13538">
        <ele>441.9</ele>
        <time>2025-07-06T07:20:35.083Z</time>
      </trkpt>
      <trkpt lat="43.57346" lon="6.13535">
        <ele>442.4</ele>
        <time>2025-07-06T07:20:39.537Z</time>
      </trkpt>
      <trkpt lat="43.57351" lon="6.13531">
        <ele>442.9</ele>
        <time>2025-07-06T07:20:45.191Z</time>
      </trkpt>
      <trkpt lat="43.57355" lon="6.13527">
        <ele>443.3</ele>
        <time>2025-07-06T07:20:50.023Z</time>
      </trkpt>
      <trkpt lat="43.5736" lon="6.13524">
        <ele>443.7</ele>
        <time>2025-07-06T07:20:55.357Z</time>
      </trkpt>
      <trkpt lat="43.57364" lon="6.1352">
        <ele>444</ele>
        <time>2025-07-06T07:21:00.189Z</time>
      </trkpt>
      <trkpt lat="43.5737" lon="6.13522">
        <ele>444.6</ele>
        <time>2025-07-06T07:21:06.228Z</time>
      </trkpt>
      <trkpt lat="43.57376" lon="6.13523">
        <ele>445.1</ele>
        <time>2025-07-06T07:21:12.141Z</time>
      </trkpt>
      <trkpt lat="43.57379" lon="6.13529">
        <ele>445.3</ele>
        <time>2025-07-06T07:21:17.308Z</time>
      </trkpt>
      <trkpt lat="43.57381" lon="6.13534">
        <ele>445.4</ele>
        <time>2025-07-06T07:21:21.356Z</time>
      </trkpt>
      <trkpt lat="43.57387" lon="6.13539">
        <ele>445.9</ele>
        <time>2025-07-06T07:21:28.213Z</time>
      </trkpt>
      <trkpt lat="43.57394" lon="6.13543">
        <ele>446.4</ele>
        <time>2025-07-06T07:21:35.625Z</time>
      </trkpt>
      <trkpt lat="43.574" lon="6.13548">
        <ele>446.6</ele>
        <time>2025-07-06T07:21:42.482Z</time>
      </trkpt>
      <trkpt lat="43.57407" lon="6.13553">
        <ele>446.8</ele>
        <time>2025-07-06T07:21:50.193Z</time>
      </trkpt>
      <trkpt lat="43.57413" lon="6.13557">
        <ele>446.8</ele>
        <time>2025-07-06T07:21:56.712Z</time>
      </trkpt>
      <trkpt lat="43.57419" lon="6.13562">
        <ele>446.7</ele>
        <time>2025-07-06T07:22:03.569Z</time>
      </trkpt>
      <trkpt lat="43.57426" lon="6.13566">
        <ele>447.2</ele>
        <time>2025-07-06T07:22:10.981Z</time>
      </trkpt>
      <trkpt lat="43.57432" lon="6.13571">
        <ele>447.6</ele>
        <time>2025-07-06T07:22:17.838Z</time>
      </trkpt>
      <trkpt lat="43.57436" lon="6.13576">
        <ele>447.9</ele>
        <time>2025-07-06T07:22:23.118Z</time>
      </trkpt>
      <trkpt lat="43.5744" lon="6.13582">
        <ele>448.4</ele>
        <time>2025-07-06T07:22:28.897Z</time>
      </trkpt>
      <trkpt lat="43.57444" lon="6.13587">
        <ele>448.9</ele>
        <time>2025-07-06T07:22:34.177Z</time>
      </trkpt>
      <trkpt lat="43.57448" lon="6.13592">
        <ele>449.6</ele>
        <time>2025-07-06T07:22:39.457Z</time>
      </trkpt>
      <trkpt lat="43.57451" lon="6.13597">
        <ele>450.1</ele>
        <time>2025-07-06T07:22:44.058Z</time>
      </trkpt>
      <trkpt lat="43.57454" lon="6.13602">
        <ele>450.6</ele>
        <time>2025-07-06T07:22:48.659Z</time>
      </trkpt>
      <trkpt lat="43.5746" lon="6.13611">
        <ele>451.8</ele>
        <time>2025-07-06T07:22:57.328Z</time>
      </trkpt>
      <trkpt lat="43.57465" lon="6.13621">
        <ele>453</ele>
        <time>2025-07-06T07:23:05.940Z</time>
      </trkpt>
      <trkpt lat="43.57471" lon="6.1363">
        <ele>454.4</ele>
        <time>2025-07-06T07:23:14.609Z</time>
      </trkpt>
      <trkpt lat="43.57474" lon="6.13635">
        <ele>455.1</ele>
        <time>2025-07-06T07:23:19.210Z</time>
      </trkpt>
      <trkpt lat="43.57477" lon="6.1364">
        <ele>455.7</ele>
        <time>2025-07-06T07:23:23.811Z</time>
      </trkpt>
      <trkpt lat="43.57483" lon="6.13649">
        <ele>456.7</ele>
        <time>2025-07-06T07:23:32.480Z</time>
      </trkpt>
      <trkpt lat="43.57488" lon="6.13659">
        <ele>457.7</ele>
        <time>2025-07-06T07:23:41.092Z</time>
      </trkpt>
      <trkpt lat="43.57494" lon="6.13668">
        <ele>458.9</ele>
        <time>2025-07-06T07:23:49.761Z</time>
      </trkpt>
      <trkpt lat="43.57498" lon="6.13672">
        <ele>459.6</ele>
        <time>2025-07-06T07:23:54.593Z</time>
      </trkpt>
      <trkpt lat="43.57504" lon="6.13681">
        <ele>460.4</ele>
        <time>2025-07-06T07:24:03.262Z</time>
      </trkpt>
      <trkpt lat="43.57509" lon="6.13689">
        <ele>461</ele>
        <time>2025-07-06T07:24:10.751Z</time>
      </trkpt>
      <trkpt lat="43.57515" lon="6.13698">
        <ele>461.6</ele>
        <time>2025-07-06T07:24:19.420Z</time>
      </trkpt>
      <trkpt lat="43.5752" lon="6.13706">
        <ele>461.9</ele>
        <time>2025-07-06T07:24:26.909Z</time>
      </trkpt>
      <trkpt lat="43.57524" lon="6.13709">
        <ele>462.1</ele>
        <time>2025-07-06T07:24:31.363Z</time>
      </trkpt>
      <trkpt lat="43.57529" lon="6.13712">
        <ele>462.5</ele>
        <time>2025-07-06T07:24:36.697Z</time>
      </trkpt>
      <trkpt lat="43.57533" lon="6.13715">
        <ele>462.8</ele>
        <time>2025-07-06T07:24:41.151Z</time>
      </trkpt>
      <trkpt lat="43.57538" lon="6.13719">
        <ele>463.2</ele>
        <time>2025-07-06T07:24:46.805Z</time>
      </trkpt>
      <trkpt lat="43.57542" lon="6.13722">
        <ele>463.5</ele>
        <time>2025-07-06T07:24:51.259Z</time>
      </trkpt>
      <trkpt lat="43.57546" lon="6.13725">
        <ele>463.9</ele>
        <time>2025-07-06T07:24:55.713Z</time>
      </trkpt>
      <trkpt lat="43.57551" lon="6.13728">
        <ele>464.3</ele>
        <time>2025-07-06T07:25:01.047Z</time>
      </trkpt>
      <trkpt lat="43.57555" lon="6.13731">
        <ele>464.6</ele>
        <time>2025-07-06T07:25:05.501Z</time>
      </trkpt>
      <trkpt lat="43.57562" lon="6.13734">
        <ele>464.8</ele>
        <time>2025-07-06T07:25:12.672Z</time>
      </trkpt>
      <trkpt lat="43.57569" lon="6.13736">
        <ele>465</ele>
        <time>2025-07-06T07:25:19.666Z</time>
      </trkpt>
      <trkpt lat="43.57569" lon="6.13737">
        <ele>465</ele>
        <time>2025-07-06T07:25:20.374Z</time>
      </trkpt>
      <trkpt lat="43.57569" lon="6.13736">
        <ele>465</ele>
        <time>2025-07-06T07:25:21.082Z</time>
      </trkpt>
      <trkpt lat="43.57574" lon="6.13738">
        <ele>465.1</ele>
        <time>2025-07-06T07:25:26.175Z</time>
      </trkpt>
      <trkpt lat="43.57582" lon="6.13736">
        <ele>465.5</ele>
        <time>2025-07-06T07:25:34.129Z</time>
      </trkpt>
      <trkpt lat="43.57589" lon="6.13734">
        <ele>465.3</ele>
        <time>2025-07-06T07:25:41.123Z</time>
      </trkpt>
      <trkpt lat="43.57597" lon="6.13736">
        <ele>465</ele>
        <time>2025-07-06T07:25:49.077Z</time>
      </trkpt>
      <trkpt lat="43.57604" lon="6.13737">
        <ele>464.8</ele>
        <time>2025-07-06T07:25:55.962Z</time>
      </trkpt>
      <trkpt lat="43.57602" lon="6.13731">
        <ele>464.8</ele>
        <time>2025-07-06T07:26:00.643Z</time>
      </trkpt>
      <trkpt lat="43.57601" lon="6.13725">
        <ele>464.8</ele>
        <time>2025-07-06T07:26:05.007Z</time>
      </trkpt>
      <trkpt lat="43.57599" lon="6.13719">
        <ele>464.8</ele>
        <time>2025-07-06T07:26:09.688Z</time>
      </trkpt>
      <trkpt lat="43.57597" lon="6.13714">
        <ele>464.9</ele>
        <time>2025-07-06T07:26:13.736Z</time>
      </trkpt>
      <trkpt lat="43.57595" lon="6.13708">
        <ele>464.9</ele>
        <time>2025-07-06T07:26:18.417Z</time>
      </trkpt>
      <trkpt lat="43.57594" lon="6.13702">
        <ele>465</ele>
        <time>2025-07-06T07:26:22.781Z</time>
      </trkpt>
      <trkpt lat="43.57592" lon="6.13696">
        <ele>465.1</ele>
        <time>2025-07-06T07:26:27.462Z</time>
      </trkpt>
      <trkpt lat="43.5759" lon="6.1369">
        <ele>465.3</ele>
        <time>2025-07-06T07:26:32.143Z</time>
      </trkpt>
      <trkpt lat="43.5759" lon="6.13684">
        <ele>465.3</ele>
        <time>2025-07-06T07:26:36.396Z</time>
      </trkpt>
      <trkpt lat="43.57589" lon="6.13678">
        <ele>465.4</ele>
        <time>2025-07-06T07:26:40.760Z</time>
      </trkpt>
      <trkpt lat="43.57589" lon="6.13671">
        <ele>465.4</ele>
        <time>2025-07-06T07:26:45.721Z</time>
      </trkpt>
      <trkpt lat="43.57589" lon="6.13665">
        <ele>465.4</ele>
        <time>2025-07-06T07:26:49.974Z</time>
      </trkpt>
      <trkpt lat="43.57588" lon="6.13659">
        <ele>465.5</ele>
        <time>2025-07-06T07:26:54.338Z</time>
      </trkpt>
      <trkpt lat="43.57588" lon="6.13653">
        <ele>465.6</ele>
        <time>2025-07-06T07:26:58.591Z</time>
      </trkpt>
      <trkpt lat="43.57587" lon="6.13646">
        <ele>465.7</ele>
        <time>2025-07-06T07:27:03.648Z</time>
      </trkpt>
      <trkpt lat="43.57587" lon="6.1364">
        <ele>465.7</ele>
        <time>2025-07-06T07:27:07.901Z</time>
      </trkpt>
      <trkpt lat="43.57587" lon="6.13633">
        <ele>465.6</ele>
        <time>2025-07-06T07:27:12.862Z</time>
      </trkpt>
      <trkpt lat="43.57588" lon="6.13626">
        <ele>465.3</ele>
        <time>2025-07-06T07:27:17.919Z</time>
      </trkpt>
      <trkpt lat="43.57588" lon="6.13619">
        <ele>465.1</ele>
        <time>2025-07-06T07:27:22.880Z</time>
      </trkpt>
      <trkpt lat="43.57588" lon="6.13612">
        <ele>464.9</ele>
        <time>2025-07-06T07:27:27.841Z</time>
      </trkpt>
      <trkpt lat="43.57588" lon="6.13605">
        <ele>464.6</ele>
        <time>2025-07-06T07:27:32.802Z</time>
      </trkpt>
      <trkpt lat="43.57589" lon="6.13598">
        <ele>464.3</ele>
        <time>2025-07-06T07:27:37.859Z</time>
      </trkpt>
      <trkpt lat="43.57589" lon="6.13591">
        <ele>464.1</ele>
        <time>2025-07-06T07:27:42.820Z</time>
      </trkpt>
      <trkpt lat="43.57589" lon="6.13584">
        <ele>463.8</ele>
        <time>2025-07-06T07:27:47.781Z</time>
      </trkpt>
      <trkpt lat="43.5759" lon="6.13575">
        <ele>463.7</ele>
        <time>2025-07-06T07:27:54.235Z</time>
      </trkpt>
      <trkpt lat="43.57591" lon="6.13567">
        <ele>463.6</ele>
        <time>2025-07-06T07:27:59.989Z</time>
      </trkpt>
      <trkpt lat="43.57592" lon="6.13558">
        <ele>463.4</ele>
        <time>2025-07-06T07:28:06.443Z</time>
      </trkpt>
      <trkpt lat="43.57594" lon="6.13549">
        <ele>462.9</ele>
        <time>2025-07-06T07:28:13.116Z</time>
      </trkpt>
      <trkpt lat="43.57595" lon="6.1354">
        <ele>462.5</ele>
        <time>2025-07-06T07:28:19.570Z</time>
      </trkpt>
      <trkpt lat="43.57596" lon="6.13532">
        <ele>462.2</ele>
        <time>2025-07-06T07:28:25.324Z</time>
      </trkpt>
      <trkpt lat="43.57597" lon="6.13523">
        <ele>461.8</ele>
        <time>2025-07-06T07:28:31.778Z</time>
      </trkpt>
      <trkpt lat="43.57598" lon="6.13514">
        <ele>461.5</ele>
        <time>2025-07-06T07:28:38.232Z</time>
      </trkpt>
      <trkpt lat="43.57598" lon="6.13507">
        <ele>461.3</ele>
        <time>2025-07-06T07:28:43.194Z</time>
      </trkpt>
      <trkpt lat="43.57598" lon="6.135">
        <ele>461</ele>
        <time>2025-07-06T07:28:48.156Z</time>
      </trkpt>
      <trkpt lat="43.57598" lon="6.13493">
        <ele>460.6</ele>
        <time>2025-07-06T07:28:53.118Z</time>
      </trkpt>
      <trkpt lat="43.57598" lon="6.13486">
        <ele>460.2</ele>
        <time>2025-07-06T07:28:58.080Z</time>
      </trkpt>
      <trkpt lat="43.57594" lon="6.13479">
        <ele>460</ele>
        <time>2025-07-06T07:29:04.399Z</time>
      </trkpt>
      <trkpt lat="43.57589" lon="6.13472">
        <ele>459.8</ele>
        <time>2025-07-06T07:29:11.367Z</time>
      </trkpt>
      <trkpt lat="43.57587" lon="6.13466">
        <ele>459.4</ele>
        <time>2025-07-06T07:29:16.048Z</time>
      </trkpt>
      <trkpt lat="43.57585" lon="6.13461">
        <ele>459.1</ele>
        <time>2025-07-06T07:29:20.096Z</time>
      </trkpt>
      <trkpt lat="43.57583" lon="6.13455">
        <ele>458.8</ele>
        <time>2025-07-06T07:29:24.777Z</time>
      </trkpt>
      <trkpt lat="43.57581" lon="6.13449">
        <ele>458.4</ele>
        <time>2025-07-06T07:29:29.458Z</time>
      </trkpt>
      <trkpt lat="43.57582" lon="6.13439">
        <ele>457.9</ele>
        <time>2025-07-06T07:29:36.613Z</time>
      </trkpt>
      <trkpt lat="43.57582" lon="6.13429">
        <ele>457.5</ele>
        <time>2025-07-06T07:29:43.701Z</time>
      </trkpt>
      <trkpt lat="43.57581" lon="6.1342">
        <ele>457.3</ele>
        <time>2025-07-06T07:29:50.155Z</time>
      </trkpt>
      <trkpt lat="43.57581" lon="6.13412">
        <ele>457</ele>
        <time>2025-07-06T07:29:55.825Z</time>
      </trkpt>
      <trkpt lat="43.5758" lon="6.13403">
        <ele>456.8</ele>
        <time>2025-07-06T07:30:02.279Z</time>
      </trkpt>
      <trkpt lat="43.57579" lon="6.13394">
        <ele>456.6</ele>
        <time>2025-07-06T07:30:08.733Z</time>
      </trkpt>
      <trkpt lat="43.57576" lon="6.13386">
        <ele>456.8</ele>
        <time>2025-07-06T07:30:15.118Z</time>
      </trkpt>
      <trkpt lat="43.57574" lon="6.13378">
        <ele>456.9</ele>
        <time>2025-07-06T07:30:21.117Z</time>
      </trkpt>
      <trkpt lat="43.57571" lon="6.13369">
        <ele>457</ele>
        <time>2025-07-06T07:30:28.139Z</time>
      </trkpt>
      <trkpt lat="43.57568" lon="6.13361">
        <ele>457.1</ele>
        <time>2025-07-06T07:30:34.524Z</time>
      </trkpt>
      <trkpt lat="43.57565" lon="6.13355">
        <ele>457.5</ele>
        <time>2025-07-06T07:30:39.691Z</time>
      </trkpt>
      <trkpt lat="43.57562" lon="6.1335">
        <ele>457.8</ele>
        <time>2025-07-06T07:30:44.293Z</time>
      </trkpt>
      <trkpt lat="43.57559" lon="6.13344">
        <ele>458.3</ele>
        <time>2025-07-06T07:30:49.460Z</time>
      </trkpt>
      <trkpt lat="43.57556" lon="6.13338">
        <ele>458.8</ele>
        <time>2025-07-06T07:30:54.627Z</time>
      </trkpt>
      <trkpt lat="43.57556" lon="6.13328">
        <ele>459</ele>
        <time>2025-07-06T07:31:01.715Z</time>
      </trkpt>
      <trkpt lat="43.57555" lon="6.13318">
        <ele>459.1</ele>
        <time>2025-07-06T07:31:08.870Z</time>
      </trkpt>
      <trkpt lat="43.57555" lon="6.13307">
        <ele>459.1</ele>
        <time>2025-07-06T07:31:16.667Z</time>
      </trkpt>
      <trkpt lat="43.57554" lon="6.13297">
        <ele>459.5</ele>
        <time>2025-07-06T07:31:23.822Z</time>
      </trkpt>
      <trkpt lat="43.57555" lon="6.13289">
        <ele>459.6</ele>
        <time>2025-07-06T07:31:29.576Z</time>
      </trkpt>
      <trkpt lat="43.57556" lon="6.1328">
        <ele>459.9</ele>
        <time>2025-07-06T07:31:36.030Z</time>
      </trkpt>
      <trkpt lat="43.57556" lon="6.13272">
        <ele>460.2</ele>
        <time>2025-07-06T07:31:41.701Z</time>
      </trkpt>
      <trkpt lat="43.57557" lon="6.13263">
        <ele>460.4</ele>
        <time>2025-07-06T07:31:48.155Z</time>
      </trkpt>
      <trkpt lat="43.5756" lon="6.13256">
        <ele>460.3</ele>
        <time>2025-07-06T07:31:53.920Z</time>
      </trkpt>
      <trkpt lat="43.57563" lon="6.13248">
        <ele>460.3</ele>
        <time>2025-07-06T07:32:00.305Z</time>
      </trkpt>
      <trkpt lat="43.57565" lon="6.13241">
        <ele>460.3</ele>
        <time>2025-07-06T07:32:05.639Z</time>
      </trkpt>
      <trkpt lat="43.57568" lon="6.13233">
        <ele>460.3</ele>
        <time>2025-07-06T07:32:12.024Z</time>
      </trkpt>
      <trkpt lat="43.57569" lon="6.13227">
        <ele>460.4</ele>
        <time>2025-07-06T07:32:16.388Z</time>
      </trkpt>
      <trkpt lat="43.57569" lon="6.13221">
        <ele>460.6</ele>
        <time>2025-07-06T07:32:20.641Z</time>
      </trkpt>
      <trkpt lat="43.5757" lon="6.13214">
        <ele>460.6</ele>
        <time>2025-07-06T07:32:25.698Z</time>
      </trkpt>
      <trkpt lat="43.5757" lon="6.13208">
        <ele>460.7</ele>
        <time>2025-07-06T07:32:29.951Z</time>
      </trkpt>
      <trkpt lat="43.57568" lon="6.13201">
        <ele>461.1</ele>
        <time>2025-07-06T07:32:35.285Z</time>
      </trkpt>
      <trkpt lat="43.57566" lon="6.13194">
        <ele>461.5</ele>
        <time>2025-07-06T07:32:40.619Z</time>
      </trkpt>
      <trkpt lat="43.57564" lon="6.13187">
        <ele>461.7</ele>
        <time>2025-07-06T07:32:45.953Z</time>
      </trkpt>
      <trkpt lat="43.57562" lon="6.1318">
        <ele>461.8</ele>
        <time>2025-07-06T07:32:51.287Z</time>
      </trkpt>
      <trkpt lat="43.57559" lon="6.13172">
        <ele>461.9</ele>
        <time>2025-07-06T07:32:57.672Z</time>
      </trkpt>
      <trkpt lat="43.57557" lon="6.13165">
        <ele>462</ele>
        <time>2025-07-06T07:33:03.006Z</time>
      </trkpt>
      <trkpt lat="43.57555" lon="6.13158">
        <ele>462.4</ele>
        <time>2025-07-06T07:33:08.340Z</time>
      </trkpt>
      <trkpt lat="43.57553" lon="6.13151">
        <ele>462.7</ele>
        <time>2025-07-06T07:33:13.674Z</time>
      </trkpt>
      <trkpt lat="43.5755" lon="6.13144">
        <ele>463.2</ele>
        <time>2025-07-06T07:33:19.439Z</time>
      </trkpt>
      <trkpt lat="43.57548" lon="6.13136">
        <ele>463.5</ele>
        <time>2025-07-06T07:33:25.438Z</time>
      </trkpt>
      <trkpt lat="43.57545" lon="6.13129">
        <ele>463.6</ele>
        <time>2025-07-06T07:33:31.203Z</time>
      </trkpt>
      <trkpt lat="43.57542" lon="6.13121">
        <ele>463.7</ele>
        <time>2025-07-06T07:33:37.588Z</time>
      </trkpt>
      <trkpt lat="43.5754" lon="6.13111">
        <ele>463.6</ele>
        <time>2025-07-06T07:33:44.942Z</time>
      </trkpt>
      <trkpt lat="43.57537" lon="6.13102">
        <ele>463.7</ele>
        <time>2025-07-06T07:33:51.964Z</time>
      </trkpt>
      <trkpt lat="43.57535" lon="6.13092">
        <ele>463.7</ele>
        <time>2025-07-06T07:33:59.318Z</time>
      </trkpt>
      <trkpt lat="43.57532" lon="6.13082">
        <ele>463.8</ele>
        <time>2025-07-06T07:34:06.990Z</time>
      </trkpt>
      <trkpt lat="43.5753" lon="6.13071">
        <ele>463.9</ele>
        <time>2025-07-06T07:34:15.029Z</time>
      </trkpt>
      <trkpt lat="43.57528" lon="6.13059">
        <ele>464</ele>
        <time>2025-07-06T07:34:23.757Z</time>
      </trkpt>
      <trkpt lat="43.57526" lon="6.13053">
        <ele>464.1</ele>
        <time>2025-07-06T07:34:28.438Z</time>
      </trkpt>
      <trkpt lat="43.57524" lon="6.13048">
        <ele>464.1</ele>
        <time>2025-07-06T07:34:32.486Z</time>
      </trkpt>
      <trkpt lat="43.57522" lon="6.13042">
        <ele>464.2</ele>
        <time>2025-07-06T07:34:37.168Z</time>
      </trkpt>
      <trkpt lat="43.5752" lon="6.13036">
        <ele>464.3</ele>
        <time>2025-07-06T07:34:41.850Z</time>
      </trkpt>
      <trkpt lat="43.5752" lon="6.13029">
        <ele>464.3</ele>
        <time>2025-07-06T07:34:46.812Z</time>
      </trkpt>
      <trkpt lat="43.5752" lon="6.13022">
        <ele>464.1</ele>
        <time>2025-07-06T07:34:51.774Z</time>
      </trkpt>
      <trkpt lat="43.57519" lon="6.13015">
        <ele>464</ele>
        <time>2025-07-06T07:34:56.831Z</time>
      </trkpt>
      <trkpt lat="43.57519" lon="6.13008">
        <ele>463.8</ele>
        <time>2025-07-06T07:35:01.793Z</time>
      </trkpt>
      <trkpt lat="43.57519" lon="6.13001">
        <ele>463.7</ele>
        <time>2025-07-06T07:35:06.755Z</time>
      </trkpt>
      <trkpt lat="43.57519" lon="6.12994">
        <ele>463.4</ele>
        <time>2025-07-06T07:35:11.717Z</time>
      </trkpt>
      <trkpt lat="43.57518" lon="6.12987">
        <ele>463.2</ele>
        <time>2025-07-06T07:35:16.774Z</time>
      </trkpt>
      <trkpt lat="43.57518" lon="6.1298">
        <ele>463</ele>
        <time>2025-07-06T07:35:21.736Z</time>
      </trkpt>
      <trkpt lat="43.57514" lon="6.12973">
        <ele>463</ele>
        <time>2025-07-06T07:35:28.056Z</time>
      </trkpt>
      <trkpt lat="43.5751" lon="6.12966">
        <ele>462.8</ele>
        <time>2025-07-06T07:35:34.376Z</time>
      </trkpt>
      <trkpt lat="43.57509" lon="6.12957">
        <ele>462.3</ele>
        <time>2025-07-06T07:35:40.830Z</time>
      </trkpt>
      <trkpt lat="43.57508" lon="6.12947">
        <ele>461.6</ele>
        <time>2025-07-06T07:35:47.986Z</time>
      </trkpt>
      <trkpt lat="43.57507" lon="6.12938">
        <ele>461</ele>
        <time>2025-07-06T07:35:54.440Z</time>
      </trkpt>
      <trkpt lat="43.57506" lon="6.12928">
        <ele>460.4</ele>
        <time>2025-07-06T07:36:01.596Z</time>
      </trkpt>
      <trkpt lat="43.57506" lon="6.12918">
        <ele>459.7</ele>
        <time>2025-07-06T07:36:08.685Z</time>
      </trkpt>
      <trkpt lat="43.57507" lon="6.12911">
        <ele>459.8</ele>
        <time>2025-07-06T07:36:13.742Z</time>
      </trkpt>
      <trkpt lat="43.57509" lon="6.12905">
        <ele>459.9</ele>
        <time>2025-07-06T07:36:18.424Z</time>
      </trkpt>
      <trkpt lat="43.5751" lon="6.12898">
        <ele>460.1</ele>
        <time>2025-07-06T07:36:23.481Z</time>
      </trkpt>
      <trkpt lat="43.57511" lon="6.12891">
        <ele>460.3</ele>
        <time>2025-07-06T07:36:28.538Z</time>
      </trkpt>
      <trkpt lat="43.57511" lon="6.12885">
        <ele>460.4</ele>
        <time>2025-07-06T07:36:32.791Z</time>
      </trkpt>
      <trkpt lat="43.57511" lon="6.12879">
        <ele>460.4</ele>
        <time>2025-07-06T07:36:37.044Z</time>
      </trkpt>
      <trkpt lat="43.57511" lon="6.12872">
        <ele>460.4</ele>
        <time>2025-07-06T07:36:42.006Z</time>
      </trkpt>
      <trkpt lat="43.57511" lon="6.12866">
        <ele>460.4</ele>
        <time>2025-07-06T07:36:46.259Z</time>
      </trkpt>
      <trkpt lat="43.5751" lon="6.1286">
        <ele>460.6</ele>
        <time>2025-07-06T07:36:50.623Z</time>
      </trkpt>
      <trkpt lat="43.5751" lon="6.12854">
        <ele>460.9</ele>
        <time>2025-07-06T07:36:54.876Z</time>
      </trkpt>
      <trkpt lat="43.5751" lon="6.12847">
        <ele>461.3</ele>
        <time>2025-07-06T07:36:59.838Z</time>
      </trkpt>
      <trkpt lat="43.5751" lon="6.12841">
        <ele>461.5</ele>
        <time>2025-07-06T07:37:04.091Z</time>
      </trkpt>
      <trkpt lat="43.57511" lon="6.12834">
        <ele>461.8</ele>
        <time>2025-07-06T07:37:09.149Z</time>
      </trkpt>
      <trkpt lat="43.57512" lon="6.12826">
        <ele>462.2</ele>
        <time>2025-07-06T07:37:14.904Z</time>
      </trkpt>
      <trkpt lat="43.57512" lon="6.12819">
        <ele>462.7</ele>
        <time>2025-07-06T07:37:19.866Z</time>
      </trkpt>
      <trkpt lat="43.57513" lon="6.12811">
        <ele>463.2</ele>
        <time>2025-07-06T07:37:25.621Z</time>
      </trkpt>
      <trkpt lat="43.57514" lon="6.12804">
        <ele>463.5</ele>
        <time>2025-07-06T07:37:30.679Z</time>
      </trkpt>
      <trkpt lat="43.57515" lon="6.12796">
        <ele>463.6</ele>
        <time>2025-07-06T07:37:36.434Z</time>
      </trkpt>
      <trkpt lat="43.57515" lon="6.12789">
        <ele>463.8</ele>
        <time>2025-07-06T07:37:41.396Z</time>
      </trkpt>
      <trkpt lat="43.57516" lon="6.12781">
        <ele>463.9</ele>
        <time>2025-07-06T07:37:47.151Z</time>
      </trkpt>
      <trkpt lat="43.57513" lon="6.1277">
        <ele>464</ele>
        <time>2025-07-06T07:37:55.483Z</time>
      </trkpt>
      <trkpt lat="43.5751" lon="6.1276">
        <ele>464</ele>
        <time>2025-07-06T07:38:03.156Z</time>
      </trkpt>
      <trkpt lat="43.57506" lon="6.12749">
        <ele>464</ele>
        <time>2025-07-06T07:38:11.881Z</time>
      </trkpt>
      <trkpt lat="43.57503" lon="6.12738">
        <ele>464</ele>
        <time>2025-07-06T07:38:20.213Z</time>
      </trkpt>
      <trkpt lat="43.57498" lon="6.12732">
        <ele>464.1</ele>
        <time>2025-07-06T07:38:26.696Z</time>
      </trkpt>
      <trkpt lat="43.57493" lon="6.12726">
        <ele>464.3</ele>
        <time>2025-07-06T07:38:33.179Z</time>
      </trkpt>
      <trkpt lat="43.57492" lon="6.12719">
        <ele>464.2</ele>
        <time>2025-07-06T07:38:38.237Z</time>
      </trkpt>
      <trkpt lat="43.57492" lon="6.12712">
        <ele>463.9</ele>
        <time>2025-07-06T07:38:43.199Z</time>
      </trkpt>
      <trkpt lat="43.57491" lon="6.12705">
        <ele>463.7</ele>
        <time>2025-07-06T07:38:48.257Z</time>
      </trkpt>
      <trkpt lat="43.57491" lon="6.12698">
        <ele>463.5</ele>
        <time>2025-07-06T07:38:53.219Z</time>
      </trkpt>
      <trkpt lat="43.5749" lon="6.12691">
        <ele>463.2</ele>
        <time>2025-07-06T07:38:58.277Z</time>
      </trkpt>
      <trkpt lat="43.57489" lon="6.12684">
        <ele>463</ele>
        <time>2025-07-06T07:39:03.335Z</time>
      </trkpt>
      <trkpt lat="43.57489" lon="6.12677">
        <ele>462.8</ele>
        <time>2025-07-06T07:39:08.297Z</time>
      </trkpt>
      <trkpt lat="43.57488" lon="6.1267">
        <ele>462.6</ele>
        <time>2025-07-06T07:39:13.355Z</time>
      </trkpt>
      <trkpt lat="43.57487" lon="6.12661">
        <ele>462.2</ele>
        <time>2025-07-06T07:39:19.810Z</time>
      </trkpt>
      <trkpt lat="43.57485" lon="6.12652">
        <ele>461.8</ele>
        <time>2025-07-06T07:39:26.483Z</time>
      </trkpt>
      <trkpt lat="43.57484" lon="6.12643">
        <ele>461.4</ele>
        <time>2025-07-06T07:39:32.938Z</time>
      </trkpt>
      <trkpt lat="43.57482" lon="6.12634">
        <ele>461</ele>
        <time>2025-07-06T07:39:39.612Z</time>
      </trkpt>
      <trkpt lat="43.57481" lon="6.12628">
        <ele>460.7</ele>
        <time>2025-07-06T07:39:43.976Z</time>
      </trkpt>
      <trkpt lat="43.57479" lon="6.12621">
        <ele>460.4</ele>
        <time>2025-07-06T07:39:49.310Z</time>
      </trkpt>
      <trkpt lat="43.57478" lon="6.12615">
        <ele>460</ele>
        <time>2025-07-06T07:39:53.674Z</time>
      </trkpt>
      <trkpt lat="43.57476" lon="6.12608">
        <ele>459.8</ele>
        <time>2025-07-06T07:39:59.008Z</time>
      </trkpt>
      <trkpt lat="43.57475" lon="6.12602">
        <ele>459.9</ele>
        <time>2025-07-06T07:40:03.372Z</time>
      </trkpt>
      <trkpt lat="43.57473" lon="6.12595">
        <ele>460</ele>
        <time>2025-07-06T07:40:08.706Z</time>
      </trkpt>
      <trkpt lat="43.57472" lon="6.12589">
        <ele>460</ele>
        <time>2025-07-06T07:40:13.070Z</time>
      </trkpt>
      <trkpt lat="43.5747" lon="6.12582">
        <ele>460</ele>
        <time>2025-07-06T07:40:18.404Z</time>
      </trkpt>
      <trkpt lat="43.57467" lon="6.12577">
        <ele>460</ele>
        <time>2025-07-06T07:40:23.006Z</time>
      </trkpt>
      <trkpt lat="43.57464" lon="6.12572">
        <ele>459.9</ele>
        <time>2025-07-06T07:40:27.608Z</time>
      </trkpt>
      <trkpt lat="43.57461" lon="6.12567">
        <ele>459.8</ele>
        <time>2025-07-06T07:40:32.210Z</time>
      </trkpt>
      <trkpt lat="43.57458" lon="6.12562">
        <ele>459.7</ele>
        <time>2025-07-06T07:40:36.812Z</time>
      </trkpt>
      <trkpt lat="43.57454" lon="6.12557">
        <ele>459.7</ele>
        <time>2025-07-06T07:40:42.093Z</time>
      </trkpt>
      <trkpt lat="43.57451" lon="6.12552">
        <ele>459.5</ele>
        <time>2025-07-06T07:40:46.695Z</time>
      </trkpt>
      <trkpt lat="43.57448" lon="6.12547">
        <ele>459.3</ele>
        <time>2025-07-06T07:40:51.298Z</time>
      </trkpt>
      <trkpt lat="43.57445" lon="6.12542">
        <ele>459</ele>
        <time>2025-07-06T07:40:55.901Z</time>
      </trkpt>
      <trkpt lat="43.57442" lon="6.12533">
        <ele>458.5</ele>
        <time>2025-07-06T07:41:02.925Z</time>
      </trkpt>
      <trkpt lat="43.57439" lon="6.12524">
        <ele>458.2</ele>
        <time>2025-07-06T07:41:09.949Z</time>
      </trkpt>
      <trkpt lat="43.57435" lon="6.12514">
        <ele>458.2</ele>
        <time>2025-07-06T07:41:18.048Z</time>
      </trkpt>
      <trkpt lat="43.57432" lon="6.12505">
        <ele>458.1</ele>
        <time>2025-07-06T07:41:25.072Z</time>
      </trkpt>
      <trkpt lat="43.57429" lon="6.12495">
        <ele>457.7</ele>
        <time>2025-07-06T07:41:32.746Z</time>
      </trkpt>
      <trkpt lat="43.57426" lon="6.12485">
        <ele>457.3</ele>
        <time>2025-07-06T07:41:40.420Z</time>
      </trkpt>
      <trkpt lat="43.57423" lon="6.12474">
        <ele>456.9</ele>
        <time>2025-07-06T07:41:48.753Z</time>
      </trkpt>
      <trkpt lat="43.5742" lon="6.12464">
        <ele>456.8</ele>
        <time>2025-07-06T07:41:56.427Z</time>
      </trkpt>
      <trkpt lat="43.57419" lon="6.12465">
        <ele>456.9</ele>
        <time>2025-07-06T07:41:57.635Z</time>
      </trkpt>
      <trkpt lat="43.57426" lon="6.12461">
        <ele>456.5</ele>
        <time>2025-07-06T07:42:05.050Z</time>
      </trkpt>
      <trkpt lat="43.57433" lon="6.12456">
        <ele>456.1</ele>
        <time>2025-07-06T07:42:12.764Z</time>
      </trkpt>
      <trkpt lat="43.57439" lon="6.12452">
        <ele>455.6</ele>
        <time>2025-07-06T07:42:19.285Z</time>
      </trkpt>
      <trkpt lat="43.57446" lon="6.12447">
        <ele>455</ele>
        <time>2025-07-06T07:42:27.000Z</time>
      </trkpt>
      <trkpt lat="43.57451" lon="6.12445">
        <ele>454.8</ele>
        <time>2025-07-06T07:42:31.001Z</time>
      </trkpt>
      <trkpt lat="43.57455" lon="6.12442">
        <ele>454.6</ele>
        <time>2025-07-06T07:42:34.499Z</time>
      </trkpt>
      <trkpt lat="43.5746" lon="6.1244">
        <ele>454.4</ele>
        <time>2025-07-06T07:42:38.500Z</time>
      </trkpt>
      <trkpt lat="43.57464" lon="6.12437">
        <ele>454.2</ele>
        <time>2025-07-06T07:42:41.999Z</time>
      </trkpt>
      <trkpt lat="43.57469" lon="6.12435">
        <ele>453.9</ele>
        <time>2025-07-06T07:42:46.000Z</time>
      </trkpt>
      <trkpt lat="43.57473" lon="6.12432">
        <ele>453.5</ele>
        <time>2025-07-06T07:42:49.499Z</time>
      </trkpt>
      <trkpt lat="43.57478" lon="6.1243">
        <ele>453.3</ele>
        <time>2025-07-06T07:42:53.500Z</time>
      </trkpt>
      <trkpt lat="43.57482" lon="6.12427">
        <ele>453</ele>
        <time>2025-07-06T07:42:57.000Z</time>
      </trkpt>
      <trkpt lat="43.57485" lon="6.12422">
        <ele>452.7</ele>
        <time>2025-07-06T07:43:00.644Z</time>
      </trkpt>
      <trkpt lat="43.57489" lon="6.12418">
        <ele>452.4</ele>
        <time>2025-07-06T07:43:04.471Z</time>
      </trkpt>
      <trkpt lat="43.57492" lon="6.12413">
        <ele>452.2</ele>
        <time>2025-07-06T07:43:08.115Z</time>
      </trkpt>
      <trkpt lat="43.57496" lon="6.12408">
        <ele>451.9</ele>
        <time>2025-07-06T07:43:12.296Z</time>
      </trkpt>
      <trkpt lat="43.57499" lon="6.12403">
        <ele>451.6</ele>
        <time>2025-07-06T07:43:15.940Z</time>
      </trkpt>
      <trkpt lat="43.57502" lon="6.12399">
        <ele>451.4</ele>
        <time>2025-07-06T07:43:19.172Z</time>
      </trkpt>
      <trkpt lat="43.57506" lon="6.12394">
        <ele>451.2</ele>
        <time>2025-07-06T07:43:23.354Z</time>
      </trkpt>
      <trkpt lat="43.57509" lon="6.12389">
        <ele>451</ele>
        <time>2025-07-06T07:43:27.000Z</time>
      </trkpt>
      <trkpt lat="43.57515" lon="6.1238">
        <ele>450.8</ele>
        <time>2025-07-06T07:43:42.000Z</time>
      </trkpt>
      <trkpt lat="43.57521" lon="6.12371">
        <ele>450.5</ele>
        <time>2025-07-06T07:43:57.000Z</time>
      </trkpt>
      <trkpt lat="43.57524" lon="6.12366">
        <ele>450.3</ele>
        <time>2025-07-06T07:44:00.692Z</time>
      </trkpt>
      <trkpt lat="43.57527" lon="6.12361">
        <ele>450</ele>
        <time>2025-07-06T07:44:04.384Z</time>
      </trkpt>
      <trkpt lat="43.5753" lon="6.12355">
        <ele>450.1</ele>
        <time>2025-07-06T07:44:08.529Z</time>
      </trkpt>
      <trkpt lat="43.57533" lon="6.1235">
        <ele>450.1</ele>
        <time>2025-07-06T07:44:12.221Z</time>
      </trkpt>
      <trkpt lat="43.57535" lon="6.12345">
        <ele>450.1</ele>
        <time>2025-07-06T07:44:15.469Z</time>
      </trkpt>
      <trkpt lat="43.57538" lon="6.1234">
        <ele>450.1</ele>
        <time>2025-07-06T07:44:19.161Z</time>
      </trkpt>
      <trkpt lat="43.57541" lon="6.12334">
        <ele>450</ele>
        <time>2025-07-06T07:44:23.307Z</time>
      </trkpt>
      <trkpt lat="43.57544" lon="6.12329">
        <ele>449.8</ele>
        <time>2025-07-06T07:44:27.000Z</time>
      </trkpt>
      <trkpt lat="43.57547" lon="6.12324">
        <ele>449.7</ele>
        <time>2025-07-06T07:44:30.583Z</time>
      </trkpt>
      <trkpt lat="43.5755" lon="6.12318">
        <ele>449.4</ele>
        <time>2025-07-06T07:44:34.607Z</time>
      </trkpt>
      <trkpt lat="43.57553" lon="6.12313">
        <ele>449.3</ele>
        <time>2025-07-06T07:44:38.190Z</time>
      </trkpt>
      <trkpt lat="43.57556" lon="6.12307">
        <ele>449.1</ele>
        <time>2025-07-06T07:44:42.214Z</time>
      </trkpt>
      <trkpt lat="43.57558" lon="6.12302">
        <ele>448.9</ele>
        <time>2025-07-06T07:44:45.366Z</time>
      </trkpt>
      <trkpt lat="43.57561" lon="6.12296">
        <ele>448.7</ele>
        <time>2025-07-06T07:44:49.390Z</time>
      </trkpt>
      <trkpt lat="43.57564" lon="6.12291">
        <ele>448.5</ele>
        <time>2025-07-06T07:44:52.974Z</time>
      </trkpt>
      <trkpt lat="43.57567" lon="6.12285">
        <ele>448.3</ele>
        <time>2025-07-06T07:44:57.000Z</time>
      </trkpt>
      <trkpt lat="43.5757" lon="6.1228">
        <ele>448.1</ele>
        <time>2025-07-06T07:45:00.834Z</time>
      </trkpt>
      <trkpt lat="43.57573" lon="6.12276">
        <ele>448</ele>
        <time>2025-07-06T07:45:04.234Z</time>
      </trkpt>
      <trkpt lat="43.57576" lon="6.12271">
        <ele>447.8</ele>
        <time>2025-07-06T07:45:08.068Z</time>
      </trkpt>
      <trkpt lat="43.5758" lon="6.12267">
        <ele>447.7</ele>
        <time>2025-07-06T07:45:12.095Z</time>
      </trkpt>
      <trkpt lat="43.57583" lon="6.12262">
        <ele>447.4</ele>
        <time>2025-07-06T07:45:15.929Z</time>
      </trkpt>
      <trkpt lat="43.57586" lon="6.12257">
        <ele>447.2</ele>
        <time>2025-07-06T07:45:19.764Z</time>
      </trkpt>
      <trkpt lat="43.57589" lon="6.12253">
        <ele>446.9</ele>
        <time>2025-07-06T07:45:23.164Z</time>
      </trkpt>
      <trkpt lat="43.57592" lon="6.12248">
        <ele>446.7</ele>
        <time>2025-07-06T07:45:27.000Z</time>
      </trkpt>
      <trkpt lat="43.57597" lon="6.12244">
        <ele>446.4</ele>
        <time>2025-07-06T07:45:31.080Z</time>
      </trkpt>
      <trkpt lat="43.57601" lon="6.1224">
        <ele>446.1</ele>
        <time>2025-07-06T07:45:34.567Z</time>
      </trkpt>
      <trkpt lat="43.57606" lon="6.12236">
        <ele>445.8</ele>
        <time>2025-07-06T07:45:38.647Z</time>
      </trkpt>
      <trkpt lat="43.5761" lon="6.12233">
        <ele>445.5</ele>
        <time>2025-07-06T07:45:41.861Z</time>
      </trkpt>
      <trkpt lat="43.57615" lon="6.12229">
        <ele>445.1</ele>
        <time>2025-07-06T07:45:45.942Z</time>
      </trkpt>
      <trkpt lat="43.57619" lon="6.12225">
        <ele>444.8</ele>
        <time>2025-07-06T07:45:49.430Z</time>
      </trkpt>
      <trkpt lat="43.57624" lon="6.12221">
        <ele>444.5</ele>
        <time>2025-07-06T07:45:53.511Z</time>
      </trkpt>
      <trkpt lat="43.57628" lon="6.12217">
        <ele>444.4</ele>
        <time>2025-07-06T07:45:57.000Z</time>
      </trkpt>
      <trkpt lat="43.57632" lon="6.12214">
        <ele>444.2</ele>
        <time>2025-07-06T07:46:00.780Z</time>
      </trkpt>
      <trkpt lat="43.57636" lon="6.12211">
        <ele>444.1</ele>
        <time>2025-07-06T07:46:04.561Z</time>
      </trkpt>
      <trkpt lat="43.5764" lon="6.12208">
        <ele>444</ele>
        <time>2025-07-06T07:46:08.342Z</time>
      </trkpt>
      <trkpt lat="43.57644" lon="6.12206">
        <ele>444</ele>
        <time>2025-07-06T07:46:11.875Z</time>
      </trkpt>
      <trkpt lat="43.57648" lon="6.12203">
        <ele>444</ele>
        <time>2025-07-06T07:46:15.656Z</time>
      </trkpt>
      <trkpt lat="43.57652" lon="6.122">
        <ele>444</ele>
        <time>2025-07-06T07:46:19.437Z</time>
      </trkpt>
      <trkpt lat="43.57656" lon="6.12197">
        <ele>444</ele>
        <time>2025-07-06T07:46:23.218Z</time>
      </trkpt>
      <trkpt lat="43.5766" lon="6.12194">
        <ele>444</ele>
        <time>2025-07-06T07:46:27.000Z</time>
      </trkpt>
      <trkpt lat="43.57664" lon="6.12191">
        <ele>444.1</ele>
        <time>2025-07-06T07:46:30.798Z</time>
      </trkpt>
      <trkpt lat="43.57668" lon="6.12188">
        <ele>444.3</ele>
        <time>2025-07-06T07:46:34.596Z</time>
      </trkpt>
      <trkpt lat="43.57672" lon="6.12185">
        <ele>444.7</ele>
        <time>2025-07-06T07:46:38.394Z</time>
      </trkpt>
      <trkpt lat="43.57676" lon="6.12182">
        <ele>445.1</ele>
        <time>2025-07-06T07:46:42.192Z</time>
      </trkpt>
      <trkpt lat="43.57683" lon="6.12175">
        <ele>445.9</ele>
        <time>2025-07-06T07:46:49.403Z</time>
      </trkpt>
      <trkpt lat="43.57687" lon="6.12172">
        <ele>446.3</ele>
        <time>2025-07-06T07:46:53.201Z</time>
      </trkpt>
      <trkpt lat="43.57691" lon="6.12169">
        <ele>446.7</ele>
        <time>2025-07-06T07:46:57.000Z</time>
      </trkpt>
      <trkpt lat="43.57696" lon="6.12167">
        <ele>447.2</ele>
        <time>2025-07-06T07:47:05.148Z</time>
      </trkpt>
      <trkpt lat="43.577" lon="6.12165">
        <ele>447.6</ele>
        <time>2025-07-06T07:47:11.807Z</time>
      </trkpt>
      <trkpt lat="43.57705" lon="6.12162">
        <ele>448.1</ele>
        <time>2025-07-06T07:47:20.340Z</time>
      </trkpt>
      <trkpt lat="43.57709" lon="6.1216">
        <ele>448.6</ele>
        <time>2025-07-06T07:47:27.000Z</time>
      </trkpt>
      <trkpt lat="43.57714" lon="6.12158">
        <ele>449.1</ele>
        <time>2025-07-06T07:47:34.895Z</time>
      </trkpt>
      <trkpt lat="43.57718" lon="6.12156">
        <ele>449.5</ele>
        <time>2025-07-06T07:47:42.790Z</time>
      </trkpt>
      <trkpt lat="43.57726" lon="6.12152">
        <ele>450.3</ele>
        <time>2025-07-06T07:47:57.000Z</time>
      </trkpt>
      <trkpt lat="43.57732" lon="6.12151">
        <ele>450.7</ele>
        <time>2025-07-06T07:48:04.460Z</time>
      </trkpt>
      <trkpt lat="43.57738" lon="6.1215">
        <ele>451.1</ele>
        <time>2025-07-06T07:48:11.920Z</time>
      </trkpt>
      <trkpt lat="43.57744" lon="6.12148">
        <ele>451.6</ele>
        <time>2025-07-06T07:48:19.539Z</time>
      </trkpt>
      <trkpt lat="43.5775" lon="6.12147">
        <ele>452</ele>
        <time>2025-07-06T07:48:27.000Z</time>
      </trkpt>
      <trkpt lat="43.57756" lon="6.12145">
        <ele>452.4</ele>
        <time>2025-07-06T07:48:32.449Z</time>
      </trkpt>
      <trkpt lat="43.57762" lon="6.12143">
        <ele>452.8</ele>
        <time>2025-07-06T07:48:37.898Z</time>
      </trkpt>
      <trkpt lat="43.57767" lon="6.12141">
        <ele>453.2</ele>
        <time>2025-07-06T07:48:42.493Z</time>
      </trkpt>
      <trkpt lat="43.57773" lon="6.12139">
        <ele>453.7</ele>
        <time>2025-07-06T07:48:47.942Z</time>
      </trkpt>
      <trkpt lat="43.57778" lon="6.12138">
        <ele>454</ele>
        <time>2025-07-06T07:48:52.403Z</time>
      </trkpt>
      <trkpt lat="43.57783" lon="6.12136">
        <ele>454.2</ele>
        <time>2025-07-06T07:48:57.000Z</time>
      </trkpt>
      <trkpt lat="43.57787" lon="6.12145">
        <ele>454.1</ele>
        <time>2025-07-06T07:49:04.617Z</time>
      </trkpt>
      <trkpt lat="43.57791" lon="6.12154">
        <ele>453.9</ele>
        <time>2025-07-06T07:49:12.234Z</time>
      </trkpt>
      <trkpt lat="43.57794" lon="6.12163">
        <ele>453.7</ele>
        <time>2025-07-06T07:49:19.381Z</time>
      </trkpt>
      <trkpt lat="43.57798" lon="6.12172">
        <ele>453.4</ele>
        <time>2025-07-06T07:49:27.000Z</time>
      </trkpt>
      <trkpt lat="43.57799" lon="6.12179">
        <ele>453</ele>
        <time>2025-07-06T07:49:32.265Z</time>
      </trkpt>
      <trkpt lat="43.57799" lon="6.12187">
        <ele>452.5</ele>
        <time>2025-07-06T07:49:38.168Z</time>
      </trkpt>
      <trkpt lat="43.578" lon="6.12194">
        <ele>452</ele>
        <time>2025-07-06T07:49:43.433Z</time>
      </trkpt>
      <trkpt lat="43.578" lon="6.12201">
        <ele>451.7</ele>
        <time>2025-07-06T07:49:48.598Z</time>
      </trkpt>
      <trkpt lat="43.57801" lon="6.12211">
        <ele>451.3</ele>
        <time>2025-07-06T07:49:56.047Z</time>
      </trkpt>
      <trkpt lat="43.57801" lon="6.12221">
        <ele>450.9</ele>
        <time>2025-07-06T07:50:03.426Z</time>
      </trkpt>
      <trkpt lat="43.57802" lon="6.1223">
        <ele>450.9</ele>
        <time>2025-07-06T07:50:10.145Z</time>
      </trkpt>
      <trkpt lat="43.57802" lon="6.1224">
        <ele>450.9</ele>
        <time>2025-07-06T07:50:17.524Z</time>
      </trkpt>
      <trkpt lat="43.57803" lon="6.1225">
        <ele>450.9</ele>
        <time>2025-07-06T07:50:24.973Z</time>
      </trkpt>
      <trkpt lat="43.57803" lon="6.1226">
        <ele>451.2</ele>
        <time>2025-07-06T07:50:32.352Z</time>
      </trkpt>
      <trkpt lat="43.57804" lon="6.12269">
        <ele>451.6</ele>
        <time>2025-07-06T07:50:39.071Z</time>
      </trkpt>
      <trkpt lat="43.57804" lon="6.12279">
        <ele>451.9</ele>
        <time>2025-07-06T07:50:46.451Z</time>
      </trkpt>
      <trkpt lat="43.57805" lon="6.12289">
        <ele>452.4</ele>
        <time>2025-07-06T07:50:53.900Z</time>
      </trkpt>
      <trkpt lat="43.57805" lon="6.12299">
        <ele>452.7</ele>
        <time>2025-07-06T07:51:01.280Z</time>
      </trkpt>
      <trkpt lat="43.57806" lon="6.12308">
        <ele>453</ele>
        <time>2025-07-06T07:51:07.999Z</time>
      </trkpt>
      <trkpt lat="43.57806" lon="6.12318">
        <ele>453</ele>
        <time>2025-07-06T07:51:15.379Z</time>
      </trkpt>
      <trkpt lat="43.57807" lon="6.12328">
        <ele>453.1</ele>
        <time>2025-07-06T07:51:22.829Z</time>
      </trkpt>
      <trkpt lat="43.57807" lon="6.12338">
        <ele>453.1</ele>
        <time>2025-07-06T07:51:30.209Z</time>
      </trkpt>
      <trkpt lat="43.57808" lon="6.12347">
        <ele>453.2</ele>
        <time>2025-07-06T07:51:36.928Z</time>
      </trkpt>
      <trkpt lat="43.57808" lon="6.12357">
        <ele>453.2</ele>
        <time>2025-07-06T07:51:44.308Z</time>
      </trkpt>
      <trkpt lat="43.57809" lon="6.12364">
        <ele>453.2</ele>
        <time>2025-07-06T07:51:49.573Z</time>
      </trkpt>
      <trkpt lat="43.5781" lon="6.1237">
        <ele>453.3</ele>
        <time>2025-07-06T07:51:54.116Z</time>
      </trkpt>
      <trkpt lat="43.57811" lon="6.12377">
        <ele>453.4</ele>
        <time>2025-07-06T07:51:59.381Z</time>
      </trkpt>
      <trkpt lat="43.57812" lon="6.12384">
        <ele>453.5</ele>
        <time>2025-07-06T07:52:04.646Z</time>
      </trkpt>
      <trkpt lat="43.57813" lon="6.1239">
        <ele>453.5</ele>
        <time>2025-07-06T07:52:09.189Z</time>
      </trkpt>
      <trkpt lat="43.57814" lon="6.12397">
        <ele>453.5</ele>
        <time>2025-07-06T07:52:14.454Z</time>
      </trkpt>
      <trkpt lat="43.57815" lon="6.12404">
        <ele>453.5</ele>
        <time>2025-07-06T07:52:19.719Z</time>
      </trkpt>
      <trkpt lat="43.57817" lon="6.12411">
        <ele>453.5</ele>
        <time>2025-07-06T07:52:25.272Z</time>
      </trkpt>
      <trkpt lat="43.57818" lon="6.12417">
        <ele>453.4</ele>
        <time>2025-07-06T07:52:29.815Z</time>
      </trkpt>
      <trkpt lat="43.57819" lon="6.12424">
        <ele>453.2</ele>
        <time>2025-07-06T07:52:35.080Z</time>
      </trkpt>
      <trkpt lat="43.5782" lon="6.12431">
        <ele>453</ele>
        <time>2025-07-06T07:52:40.345Z</time>
      </trkpt>
      <trkpt lat="43.57821" lon="6.12437">
        <ele>452.8</ele>
        <time>2025-07-06T07:52:44.888Z</time>
      </trkpt>
      <trkpt lat="43.57822" lon="6.12444">
        <ele>452.6</ele>
        <time>2025-07-06T07:52:50.153Z</time>
      </trkpt>
      <trkpt lat="43.57823" lon="6.12451">
        <ele>452.4</ele>
        <time>2025-07-06T07:52:55.418Z</time>
      </trkpt>
      <trkpt lat="43.57824" lon="6.12457">
        <ele>452.2</ele>
        <time>2025-07-06T07:52:59.961Z</time>
      </trkpt>
      <trkpt lat="43.57825" lon="6.12464">
        <ele>452</ele>
        <time>2025-07-06T07:53:05.226Z</time>
      </trkpt>
      <trkpt lat="43.57827" lon="6.1247">
        <ele>451.9</ele>
        <time>2025-07-06T07:53:10.100Z</time>
      </trkpt>
      <trkpt lat="43.57829" lon="6.12476">
        <ele>451.7</ele>
        <time>2025-07-06T07:53:14.974Z</time>
      </trkpt>
      <trkpt lat="43.57831" lon="6.12482">
        <ele>451.5</ele>
        <time>2025-07-06T07:53:19.848Z</time>
      </trkpt>
      <trkpt lat="43.57834" lon="6.12489">
        <ele>451.5</ele>
        <time>2025-07-06T07:53:25.850Z</time>
      </trkpt>
      <trkpt lat="43.57836" lon="6.12495">
        <ele>451.6</ele>
        <time>2025-07-06T07:53:30.724Z</time>
      </trkpt>
      <trkpt lat="43.57838" lon="6.12501">
        <ele>451.6</ele>
        <time>2025-07-06T07:53:35.598Z</time>
      </trkpt>
      <trkpt lat="43.5784" lon="6.12507">
        <ele>451.6</ele>
        <time>2025-07-06T07:53:40.472Z</time>
      </trkpt>
      <trkpt lat="43.57842" lon="6.12513">
        <ele>451.6</ele>
        <time>2025-07-06T07:53:45.346Z</time>
      </trkpt>
      <trkpt lat="43.57844" lon="6.12523">
        <ele>451.4</ele>
        <time>2025-07-06T07:53:53.002Z</time>
      </trkpt>
      <trkpt lat="43.57847" lon="6.12532">
        <ele>451.2</ele>
        <time>2025-07-06T07:54:00.313Z</time>
      </trkpt>
      <trkpt lat="43.57849" lon="6.12542">
        <ele>450.7</ele>
        <time>2025-07-06T07:54:07.969Z</time>
      </trkpt>
      <trkpt lat="43.57851" lon="6.12551">
        <ele>450.2</ele>
        <time>2025-07-06T07:54:14.916Z</time>
      </trkpt>
      <trkpt lat="43.57852" lon="6.12557">
        <ele>450</ele>
        <time>2025-07-06T07:54:19.459Z</time>
      </trkpt>
      <trkpt lat="43.57853" lon="6.12564">
        <ele>449.8</ele>
        <time>2025-07-06T07:54:24.724Z</time>
      </trkpt>
      <trkpt lat="43.57854" lon="6.1257">
        <ele>449.7</ele>
        <time>2025-07-06T07:54:29.267Z</time>
      </trkpt>
      <trkpt lat="43.57855" lon="6.12576">
        <ele>449.6</ele>
        <time>2025-07-06T07:54:33.810Z</time>
      </trkpt>
      <trkpt lat="43.57857" lon="6.12583">
        <ele>449.6</ele>
        <time>2025-07-06T07:54:39.363Z</time>
      </trkpt>
      <trkpt lat="43.57859" lon="6.12589">
        <ele>449.4</ele>
        <time>2025-07-06T07:54:44.237Z</time>
      </trkpt>
      <trkpt lat="43.57863" lon="6.12599">
        <ele>449</ele>
        <time>2025-07-06T07:54:52.667Z</time>
      </trkpt>
      <trkpt lat="43.57867" lon="6.12609">
        <ele>448.8</ele>
        <time>2025-07-06T07:55:01.097Z</time>
      </trkpt>
      <trkpt lat="43.5787" lon="6.12618">
        <ele>448.7</ele>
        <time>2025-07-06T07:55:08.408Z</time>
      </trkpt>
      <trkpt lat="43.57873" lon="6.12627">
        <ele>448.7</ele>
        <time>2025-07-06T07:55:15.719Z</time>
      </trkpt>
      <trkpt lat="43.57875" lon="6.12636">
        <ele>448.6</ele>
        <time>2025-07-06T07:55:22.666Z</time>
      </trkpt>
      <trkpt lat="43.57878" lon="6.12645">
        <ele>448.8</ele>
        <time>2025-07-06T07:55:29.977Z</time>
      </trkpt>
      <trkpt lat="43.57878" lon="6.12653">
        <ele>448.8</ele>
        <time>2025-07-06T07:55:35.881Z</time>
      </trkpt>
      <trkpt lat="43.57878" lon="6.12661">
        <ele>448.8</ele>
        <time>2025-07-06T07:55:41.785Z</time>
      </trkpt>
      <trkpt lat="43.57877" lon="6.12668">
        <ele>448.6</ele>
        <time>2025-07-06T07:55:47.050Z</time>
      </trkpt>
      <trkpt lat="43.57877" lon="6.12676">
        <ele>448.2</ele>
        <time>2025-07-06T07:55:52.954Z</time>
      </trkpt>
      <trkpt lat="43.57878" lon="6.12685">
        <ele>447.8</ele>
        <time>2025-07-06T07:55:59.674Z</time>
      </trkpt>
      <trkpt lat="43.57879" lon="6.12693">
        <ele>447.4</ele>
        <time>2025-07-06T07:56:05.665Z</time>
      </trkpt>
      <trkpt lat="43.57879" lon="6.12702">
        <ele>447</ele>
        <time>2025-07-06T07:56:12.307Z</time>
      </trkpt>
      <trkpt lat="43.5788" lon="6.1271">
        <ele>446.8</ele>
        <time>2025-07-06T07:56:18.298Z</time>
      </trkpt>
      <trkpt lat="43.57879" lon="6.12718">
        <ele>446.4</ele>
        <time>2025-07-06T07:56:24.289Z</time>
      </trkpt>
      <trkpt lat="43.57877" lon="6.12725">
        <ele>446.1</ele>
        <time>2025-07-06T07:56:29.842Z</time>
      </trkpt>
      <trkpt lat="43.57876" lon="6.12734">
        <ele>445.9</ele>
        <time>2025-07-06T07:56:36.562Z</time>
      </trkpt>
      <trkpt lat="43.57875" lon="6.12742">
        <ele>445.6</ele>
        <time>2025-07-06T07:56:42.553Z</time>
      </trkpt>
      <trkpt lat="43.57875" lon="6.1275">
        <ele>445.5</ele>
        <time>2025-07-06T07:56:48.457Z</time>
      </trkpt>
      <trkpt lat="43.57875" lon="6.12758">
        <ele>445.5</ele>
        <time>2025-07-06T07:56:54.361Z</time>
      </trkpt>
      <trkpt lat="43.57875" lon="6.12765">
        <ele>445.5</ele>
        <time>2025-07-06T07:56:59.527Z</time>
      </trkpt>
      <trkpt lat="43.57875" lon="6.12773">
        <ele>445.5</ele>
        <time>2025-07-06T07:57:05.431Z</time>
      </trkpt>
      <trkpt lat="43.57873" lon="6.12785">
        <ele>445.3</ele>
        <time>2025-07-06T07:57:14.518Z</time>
      </trkpt>
      <trkpt lat="43.57871" lon="6.12796">
        <ele>445.1</ele>
        <time>2025-07-06T07:57:22.888Z</time>
      </trkpt>
      <trkpt lat="43.57869" lon="6.12802">
        <ele>444.9</ele>
        <time>2025-07-06T07:57:27.762Z</time>
      </trkpt>
      <trkpt lat="43.57867" lon="6.12809">
        <ele>444.6</ele>
        <time>2025-07-06T07:57:33.315Z</time>
      </trkpt>
      <trkpt lat="43.57865" lon="6.12815">
        <ele>444.4</ele>
        <time>2025-07-06T07:57:38.189Z</time>
      </trkpt>
      <trkpt lat="43.57864" lon="6.12822">
        <ele>444.3</ele>
        <time>2025-07-06T07:57:43.454Z</time>
      </trkpt>
      <trkpt lat="43.57862" lon="6.12828">
        <ele>444.1</ele>
        <time>2025-07-06T07:57:48.328Z</time>
      </trkpt>
      <trkpt lat="43.5786" lon="6.12834">
        <ele>443.9</ele>
        <time>2025-07-06T07:57:53.202Z</time>
      </trkpt>
      <trkpt lat="43.57858" lon="6.12841">
        <ele>443.7</ele>
        <time>2025-07-06T07:57:58.755Z</time>
      </trkpt>
      <trkpt lat="43.57856" lon="6.12847">
        <ele>443.4</ele>
        <time>2025-07-06T07:58:03.629Z</time>
      </trkpt>
      <trkpt lat="43.57855" lon="6.12855">
        <ele>443.3</ele>
        <time>2025-07-06T07:58:09.620Z</time>
      </trkpt>
      <trkpt lat="43.57855" lon="6.12863">
        <ele>443.3</ele>
        <time>2025-07-06T07:58:15.524Z</time>
      </trkpt>
      <trkpt lat="43.57854" lon="6.1287">
        <ele>443</ele>
        <time>2025-07-06T07:58:20.790Z</time>
      </trkpt>
      <trkpt lat="43.57853" lon="6.12878">
        <ele>442.7</ele>
        <time>2025-07-06T07:58:26.781Z</time>
      </trkpt>
      <trkpt lat="43.57855" lon="6.12886">
        <ele>442.6</ele>
        <time>2025-07-06T07:58:33.027Z</time>
      </trkpt>
      <trkpt lat="43.57857" lon="6.12893">
        <ele>442.7</ele>
        <time>2025-07-06T07:58:38.581Z</time>
      </trkpt>
      <trkpt lat="43.57861" lon="6.12899">
        <ele>443</ele>
        <time>2025-07-06T07:58:44.599Z</time>
      </trkpt>
      <trkpt lat="43.57865" lon="6.12904">
        <ele>443.6</ele>
        <time>2025-07-06T07:58:50.097Z</time>
      </trkpt>
      <trkpt lat="43.57866" lon="6.12911">
        <ele>443.7</ele>
        <time>2025-07-06T07:58:55.363Z</time>
      </trkpt>
      <trkpt lat="43.57867" lon="6.12918">
        <ele>443.8</ele>
        <time>2025-07-06T07:59:00.629Z</time>
      </trkpt>
      <trkpt lat="43.57868" lon="6.12925">
        <ele>443.9</ele>
        <time>2025-07-06T07:59:05.895Z</time>
      </trkpt>
      <trkpt lat="43.57869" lon="6.12933">
        <ele>444</ele>
        <time>2025-07-06T07:59:11.887Z</time>
      </trkpt>
      <trkpt lat="43.57869" lon="6.1294">
        <ele>443.9</ele>
        <time>2025-07-06T07:59:17.053Z</time>
      </trkpt>
      <trkpt lat="43.5787" lon="6.12947">
        <ele>443.9</ele>
        <time>2025-07-06T07:59:22.319Z</time>
      </trkpt>
      <trkpt lat="43.57871" lon="6.12954">
        <ele>443.7</ele>
        <time>2025-07-06T07:59:27.585Z</time>
      </trkpt>
      <trkpt lat="43.57872" lon="6.12961">
        <ele>443.6</ele>
        <time>2025-07-06T07:59:32.851Z</time>
      </trkpt>
      <trkpt lat="43.57873" lon="6.12971">
        <ele>443.3</ele>
        <time>2025-07-06T07:59:40.302Z</time>
      </trkpt>
      <trkpt lat="43.57873" lon="6.1298">
        <ele>442.9</ele>
        <time>2025-07-06T07:59:46.945Z</time>
      </trkpt>
      <trkpt lat="43.57874" lon="6.1299">
        <ele>442.5</ele>
        <time>2025-07-06T07:59:54.396Z</time>
      </trkpt>
      <trkpt lat="43.57874" lon="6.12999">
        <ele>442</ele>
        <time>2025-07-06T08:00:01.039Z</time>
      </trkpt>
      <trkpt lat="43.57875" lon="6.1301">
        <ele>441.5</ele>
        <time>2025-07-06T08:00:09.222Z</time>
      </trkpt>
      <trkpt lat="43.57877" lon="6.13021">
        <ele>441</ele>
        <time>2025-07-06T08:00:17.593Z</time>
      </trkpt>
      <trkpt lat="43.57878" lon="6.13031">
        <ele>440.5</ele>
        <time>2025-07-06T08:00:25.044Z</time>
      </trkpt>
      <trkpt lat="43.57879" lon="6.13042">
        <ele>440.1</ele>
        <time>2025-07-06T08:00:33.227Z</time>
      </trkpt>
      <trkpt lat="43.57884" lon="6.1304">
        <ele>440.4</ele>
        <time>2025-07-06T08:00:38.531Z</time>
      </trkpt>
      <trkpt lat="43.57892" lon="6.13042">
        <ele>440.3</ele>
        <time>2025-07-06T08:00:46.815Z</time>
      </trkpt>
      <trkpt lat="43.579" lon="6.13043">
        <ele>439.9</ele>
        <time>2025-07-06T08:00:55.000Z</time>
      </trkpt>
      <trkpt lat="43.579" lon="6.13047">
        <ele>439.8</ele>
        <time>2025-07-06T08:00:57.495Z</time>
      </trkpt>
      <trkpt lat="43.57901" lon="6.13047">
        <ele>439.7</ele>
        <time>2025-07-06T08:00:58.356Z</time>
      </trkpt>
      <trkpt lat="43.57899" lon="6.13054">
        <ele>439.7</ele>
        <time>2025-07-06T08:01:03.050Z</time>
      </trkpt>
      <trkpt lat="43.57898" lon="6.1306">
        <ele>439.7</ele>
        <time>2025-07-06T08:01:06.890Z</time>
      </trkpt>
      <trkpt lat="43.57896" lon="6.13067">
        <ele>439.8</ele>
        <time>2025-07-06T08:01:11.584Z</time>
      </trkpt>
      <trkpt lat="43.57894" lon="6.13073">
        <ele>439.7</ele>
        <time>2025-07-06T08:01:15.704Z</time>
      </trkpt>
      <trkpt lat="43.57892" lon="6.13082">
        <ele>439.4</ele>
        <time>2025-07-06T08:01:21.576Z</time>
      </trkpt>
      <trkpt lat="43.5789" lon="6.13092">
        <ele>440.1</ele>
        <time>2025-07-06T08:01:28.047Z</time>
      </trkpt>
      <trkpt lat="43.57888" lon="6.13101">
        <ele>440.8</ele>
        <time>2025-07-06T08:01:33.919Z</time>
      </trkpt>
      <trkpt lat="43.57887" lon="6.13111">
        <ele>441.8</ele>
        <time>2025-07-06T08:01:40.216Z</time>
      </trkpt>
      <trkpt lat="43.57885" lon="6.1312">
        <ele>442.2</ele>
        <time>2025-07-06T08:01:46.088Z</time>
      </trkpt>
      <trkpt lat="43.57883" lon="6.13129">
        <ele>442.7</ele>
        <time>2025-07-06T08:01:51.960Z</time>
      </trkpt>
      <trkpt lat="43.57881" lon="6.13139">
        <ele>443.2</ele>
        <time>2025-07-06T08:01:58.432Z</time>
      </trkpt>
      <trkpt lat="43.57879" lon="6.13148">
        <ele>443.3</ele>
        <time>2025-07-06T08:02:04.305Z</time>
      </trkpt>
      <trkpt lat="43.57879" lon="6.13156">
        <ele>443.5</ele>
        <time>2025-07-06T08:02:09.295Z</time>
      </trkpt>
      <trkpt lat="43.57879" lon="6.13165">
        <ele>443.9</ele>
        <time>2025-07-06T08:02:14.909Z</time>
      </trkpt>
      <trkpt lat="43.57879" lon="6.13173">
        <ele>443.9</ele>
        <time>2025-07-06T08:02:19.899Z</time>
      </trkpt>
      <trkpt lat="43.57879" lon="6.13181">
        <ele>443.9</ele>
        <time>2025-07-06T08:02:24.889Z</time>
      </trkpt>
      <trkpt lat="43.57879" lon="6.1319">
        <ele>443.9</ele>
        <time>2025-07-06T08:02:30.503Z</time>
      </trkpt>
      <trkpt lat="43.57879" lon="6.13198">
        <ele>443.8</ele>
        <time>2025-07-06T08:02:35.493Z</time>
      </trkpt>
      <trkpt lat="43.57879" lon="6.13206">
        <ele>443.7</ele>
        <time>2025-07-06T08:02:40.484Z</time>
      </trkpt>
      <trkpt lat="43.57879" lon="6.13215">
        <ele>443.5</ele>
        <time>2025-07-06T08:02:46.098Z</time>
      </trkpt>
      <trkpt lat="43.57878" lon="6.13223">
        <ele>443.2</ele>
        <time>2025-07-06T08:02:51.162Z</time>
      </trkpt>
      <trkpt lat="43.57878" lon="6.13231">
        <ele>443.1</ele>
        <time>2025-07-06T08:02:56.153Z</time>
      </trkpt>
      <trkpt lat="43.57878" lon="6.13239">
        <ele>443</ele>
        <time>2025-07-06T08:03:01.144Z</time>
      </trkpt>
      <trkpt lat="43.57878" lon="6.13248">
        <ele>442.9</ele>
        <time>2025-07-06T08:03:06.758Z</time>
      </trkpt>
      <trkpt lat="43.57878" lon="6.13256">
        <ele>442.8</ele>
        <time>2025-07-06T08:03:11.749Z</time>
      </trkpt>
      <trkpt lat="43.57878" lon="6.13264">
        <ele>442.8</ele>
        <time>2025-07-06T08:03:16.740Z</time>
      </trkpt>
      <trkpt lat="43.57878" lon="6.13273">
        <ele>442.8</ele>
        <time>2025-07-06T08:03:22.354Z</time>
      </trkpt>
      <trkpt lat="43.57878" lon="6.13281">
        <ele>442.8</ele>
        <time>2025-07-06T08:03:27.345Z</time>
      </trkpt>
      <trkpt lat="43.57877" lon="6.13293">
        <ele>442.7</ele>
        <time>2025-07-06T08:03:34.880Z</time>
      </trkpt>
      <trkpt lat="43.57877" lon="6.133">
        <ele>442.7</ele>
        <time>2025-07-06T08:03:38.935Z</time>
      </trkpt>
      <trkpt lat="43.57877" lon="6.13306">
        <ele>442.7</ele>
        <time>2025-07-06T08:03:42.990Z</time>
      </trkpt>
      <trkpt lat="43.57876" lon="6.13318">
        <ele>442.8</ele>
        <time>2025-07-06T08:03:50.526Z</time>
      </trkpt>
      <trkpt lat="43.57876" lon="6.1333">
        <ele>443.1</ele>
        <time>2025-07-06T08:03:58.012Z</time>
      </trkpt>
      <trkpt lat="43.57875" lon="6.13342">
        <ele>443.3</ele>
        <time>2025-07-06T08:04:05.548Z</time>
      </trkpt>
      <trkpt lat="43.57875" lon="6.13349">
        <ele>443.5</ele>
        <time>2025-07-06T08:04:09.626Z</time>
      </trkpt>
      <trkpt lat="43.57874" lon="6.13355">
        <ele>443.6</ele>
        <time>2025-07-06T08:04:13.704Z</time>
      </trkpt>
      <trkpt lat="43.57874" lon="6.13367">
        <ele>444.1</ele>
        <time>2025-07-06T08:04:21.190Z</time>
      </trkpt>
      <trkpt lat="43.57873" lon="6.13379">
        <ele>444.4</ele>
        <time>2025-07-06T08:04:28.726Z</time>
      </trkpt>
      <trkpt lat="43.5787" lon="6.13385">
        <ele>444.1</ele>
        <time>2025-07-06T08:04:33.274Z</time>
      </trkpt>
      <trkpt lat="43.57867" lon="6.1339">
        <ele>443.9</ele>
        <time>2025-07-06T08:04:37.324Z</time>
      </trkpt>
      <trkpt lat="43.57864" lon="6.13396">
        <ele>443.7</ele>
        <time>2025-07-06T08:04:41.872Z</time>
      </trkpt>
      <trkpt lat="43.57861" lon="6.13402">
        <ele>443.5</ele>
        <time>2025-07-06T08:04:46.420Z</time>
      </trkpt>
      <trkpt lat="43.57858" lon="6.13407">
        <ele>443.4</ele>
        <time>2025-07-06T08:04:50.470Z</time>
      </trkpt>
      <trkpt lat="43.57855" lon="6.13413">
        <ele>443.4</ele>
        <time>2025-07-06T08:04:55.018Z</time>
      </trkpt>
      <trkpt lat="43.57852" lon="6.13419">
        <ele>443.4</ele>
        <time>2025-07-06T08:04:59.566Z</time>
      </trkpt>
      <trkpt lat="43.5785" lon="6.13425">
        <ele>443.5</ele>
        <time>2025-07-06T08:05:03.686Z</time>
      </trkpt>
      <trkpt lat="43.57847" lon="6.1343">
        <ele>443.5</ele>
        <time>2025-07-06T08:05:07.736Z</time>
      </trkpt>
      <trkpt lat="43.57844" lon="6.13436">
        <ele>443.5</ele>
        <time>2025-07-06T08:05:12.284Z</time>
      </trkpt>
      <trkpt lat="43.57841" lon="6.13442">
        <ele>443.5</ele>
        <time>2025-07-06T08:05:16.832Z</time>
      </trkpt>
      <trkpt lat="43.57838" lon="6.13447">
        <ele>443.4</ele>
        <time>2025-07-06T08:05:20.882Z</time>
      </trkpt>
      <trkpt lat="43.57835" lon="6.13453">
        <ele>443.4</ele>
        <time>2025-07-06T08:05:25.430Z</time>
      </trkpt>
      <trkpt lat="43.57832" lon="6.13459">
        <ele>443.4</ele>
        <time>2025-07-06T08:05:29.978Z</time>
      </trkpt>
      <trkpt lat="43.57829" lon="6.13464">
        <ele>443.4</ele>
        <time>2025-07-06T08:05:34.028Z</time>
      </trkpt>
      <trkpt lat="43.57826" lon="6.1347">
        <ele>443.4</ele>
        <time>2025-07-06T08:05:38.576Z</time>
      </trkpt>
      <trkpt lat="43.57824" lon="6.13482">
        <ele>443.6</ele>
        <time>2025-07-06T08:05:46.258Z</time>
      </trkpt>
      <trkpt lat="43.57823" lon="6.1349">
        <ele>443.7</ele>
        <time>2025-07-06T08:05:51.323Z</time>
      </trkpt>
      <trkpt lat="43.57821" lon="6.13498">
        <ele>443.6</ele>
        <time>2025-07-06T08:05:56.603Z</time>
      </trkpt>
      <trkpt lat="43.5782" lon="6.13506">
        <ele>443.7</ele>
        <time>2025-07-06T08:06:01.668Z</time>
      </trkpt>
      <trkpt lat="43.57818" lon="6.13514">
        <ele>443.6</ele>
        <time>2025-07-06T08:06:06.948Z</time>
      </trkpt>
      <trkpt lat="43.57817" lon="6.13522">
        <ele>443.7</ele>
        <time>2025-07-06T08:06:12.013Z</time>
      </trkpt>
      <trkpt lat="43.57815" lon="6.1353">
        <ele>443.7</ele>
        <time>2025-07-06T08:06:17.293Z</time>
      </trkpt>
      <trkpt lat="43.57814" lon="6.13538">
        <ele>443.9</ele>
        <time>2025-07-06T08:06:22.358Z</time>
      </trkpt>
      <trkpt lat="43.57812" lon="6.13547">
        <ele>444</ele>
        <time>2025-07-06T08:06:28.232Z</time>
      </trkpt>
      <trkpt lat="43.57811" lon="6.13555">
        <ele>444.2</ele>
        <time>2025-07-06T08:06:33.297Z</time>
      </trkpt>
      <trkpt lat="43.57809" lon="6.13563">
        <ele>444.1</ele>
        <time>2025-07-06T08:06:38.577Z</time>
      </trkpt>
      <trkpt lat="43.57808" lon="6.13571">
        <ele>444.1</ele>
        <time>2025-07-06T08:06:43.642Z</time>
      </trkpt>
      <trkpt lat="43.57806" lon="6.13579">
        <ele>444</ele>
        <time>2025-07-06T08:06:48.923Z</time>
      </trkpt>
      <trkpt lat="43.57805" lon="6.13587">
        <ele>444.1</ele>
        <time>2025-07-06T08:06:53.988Z</time>
      </trkpt>
      <trkpt lat="43.57803" lon="6.13595">
        <ele>444.3</ele>
        <time>2025-07-06T08:06:59.269Z</time>
      </trkpt>
      <trkpt lat="43.57802" lon="6.13603">
        <ele>444.5</ele>
        <time>2025-07-06T08:07:04.335Z</time>
      </trkpt>
      <trkpt lat="43.578" lon="6.13611">
        <ele>444.6</ele>
        <time>2025-07-06T08:07:09.616Z</time>
      </trkpt>
      <trkpt lat="43.57802" lon="6.13612">
        <ele>444.8</ele>
        <time>2025-07-06T08:07:11.448Z</time>
      </trkpt>
      <trkpt lat="43.578" lon="6.13623">
        <ele>444.8</ele>
        <time>2025-07-06T08:07:18.525Z</time>
      </trkpt>
      <trkpt lat="43.57798" lon="6.13633">
        <ele>444.9</ele>
        <time>2025-07-06T08:07:25.000Z</time>
      </trkpt>
      <trkpt lat="43.57796" lon="6.13644">
        <ele>445.1</ele>
        <time>2025-07-06T08:07:32.218Z</time>
      </trkpt>
      <trkpt lat="43.57795" lon="6.1365">
        <ele>445.2</ele>
        <time>2025-07-06T08:07:36.258Z</time>
      </trkpt>
      <trkpt lat="43.57793" lon="6.13656">
        <ele>445.3</ele>
        <time>2025-07-06T08:07:40.298Z</time>
      </trkpt>
      <trkpt lat="43.57791" lon="6.13667">
        <ele>445.5</ele>
        <time>2025-07-06T08:07:47.517Z</time>
      </trkpt>
      <trkpt lat="43.57788" lon="6.13678">
        <ele>446.4</ele>
        <time>2025-07-06T08:07:55.000Z</time>
      </trkpt>
      <trkpt lat="43.57787" lon="6.13687">
        <ele>447.1</ele>
        <time>2025-07-06T08:08:02.634Z</time>
      </trkpt>
      <trkpt lat="43.57786" lon="6.13696">
        <ele>447.9</ele>
        <time>2025-07-06T08:08:10.268Z</time>
      </trkpt>
      <trkpt lat="43.57784" lon="6.13704">
        <ele>448.7</ele>
        <time>2025-07-06T08:08:17.364Z</time>
      </trkpt>
      <trkpt lat="43.57783" lon="6.13713">
        <ele>449.7</ele>
        <time>2025-07-06T08:08:25.000Z</time>
      </trkpt>
      <trkpt lat="43.57781" lon="6.13719">
        <ele>450.4</ele>
        <time>2025-07-06T08:08:41.021Z</time>
      </trkpt>
      <trkpt lat="43.5778" lon="6.13725">
        <ele>451</ele>
        <time>2025-07-06T08:08:55.956Z</time>
      </trkpt>
      <trkpt lat="43.57778" lon="6.13731">
        <ele>451.6</ele>
        <time>2025-07-06T08:09:11.977Z</time>
      </trkpt>
      <trkpt lat="43.57776" lon="6.13737">
        <ele>452.1</ele>
        <time>2025-07-06T08:09:28.000Z</time>
      </trkpt>
      <trkpt lat="43.57774" lon="6.13745">
        <ele>452.8</ele>
        <time>2025-07-06T08:09:35.940Z</time>
      </trkpt>
      <trkpt lat="43.57772" lon="6.13752">
        <ele>453.3</ele>
        <time>2025-07-06T08:09:42.999Z</time>
      </trkpt>
      <trkpt lat="43.5777" lon="6.1376">
        <ele>453.7</ele>
        <time>2025-07-06T08:09:50.939Z</time>
      </trkpt>
      <trkpt lat="43.57768" lon="6.13767">
        <ele>454.2</ele>
        <time>2025-07-06T08:09:58.000Z</time>
      </trkpt>
      <trkpt lat="43.57766" lon="6.13774">
        <ele>454.7</ele>
        <time>2025-07-06T08:10:01.794Z</time>
      </trkpt>
      <trkpt lat="43.57763" lon="6.1378">
        <ele>455.1</ele>
        <time>2025-07-06T08:10:05.470Z</time>
      </trkpt>
      <trkpt lat="43.57761" lon="6.13787">
        <ele>455.5</ele>
        <time>2025-07-06T08:10:09.264Z</time>
      </trkpt>
      <trkpt lat="43.57759" lon="6.13794">
        <ele>455.9</ele>
        <time>2025-07-06T08:10:13.058Z</time>
      </trkpt>
      <trkpt lat="43.57756" lon="6.138">
        <ele>456.4</ele>
        <time>2025-07-06T08:10:16.734Z</time>
      </trkpt>
      <trkpt lat="43.57754" lon="6.13807">
        <ele>456.8</ele>
        <time>2025-07-06T08:10:20.528Z</time>
      </trkpt>
      <trkpt lat="43.57751" lon="6.13813">
        <ele>457.2</ele>
        <time>2025-07-06T08:10:24.204Z</time>
      </trkpt>
      <trkpt lat="43.57749" lon="6.1382">
        <ele>457.6</ele>
        <time>2025-07-06T08:10:28.000Z</time>
      </trkpt>
      <trkpt lat="43.57746" lon="6.13829">
        <ele>458.1</ele>
        <time>2025-07-06T08:10:35.110Z</time>
      </trkpt>
      <trkpt lat="43.57742" lon="6.13839">
        <ele>458.6</ele>
        <time>2025-07-06T08:10:43.309Z</time>
      </trkpt>
      <trkpt lat="43.57739" lon="6.13848">
        <ele>459</ele>
        <time>2025-07-06T08:10:50.420Z</time>
      </trkpt>
      <trkpt lat="43.57735" lon="6.13857">
        <ele>459.5</ele>
        <time>2025-07-06T08:10:58.000Z</time>
      </trkpt>
      <trkpt lat="43.57732" lon="6.13866">
        <ele>459.9</ele>
        <time>2025-07-06T08:11:12.522Z</time>
      </trkpt>
      <trkpt lat="43.57728" lon="6.13875">
        <ele>460.4</ele>
        <time>2025-07-06T08:11:28.000Z</time>
      </trkpt>
      <trkpt lat="43.57726" lon="6.1388">
        <ele>460.6</ele>
        <time>2025-07-06T08:12:03.000Z</time>
      </trkpt>
      <trkpt lat="43.57723" lon="6.13887">
        <ele>460.9</ele>
        <time>2025-07-06T08:12:10.714Z</time>
      </trkpt>
      <trkpt lat="43.5772" lon="6.13893">
        <ele>461.2</ele>
        <time>2025-07-06T08:12:17.628Z</time>
      </trkpt>
      <trkpt lat="43.57716" lon="6.139">
        <ele>461.4</ele>
        <time>2025-07-06T08:12:26.084Z</time>
      </trkpt>
      <trkpt lat="43.57713" lon="6.13906">
        <ele>461.7</ele>
        <time>2025-07-06T08:12:33.000Z</time>
      </trkpt>
      <trkpt lat="43.5771" lon="6.13914">
        <ele>461.9</ele>
        <time>2025-07-06T08:12:40.214Z</time>
      </trkpt>
      <trkpt lat="43.57706" lon="6.13922">
        <ele>462.1</ele>
        <time>2025-07-06T08:12:47.999Z</time>
      </trkpt>
      <trkpt lat="43.57703" lon="6.1393">
        <ele>462.1</ele>
        <time>2025-07-06T08:12:55.214Z</time>
      </trkpt>
      <trkpt lat="43.57699" lon="6.13938">
        <ele>462</ele>
        <time>2025-07-06T08:13:03.000Z</time>
      </trkpt>
      <trkpt lat="43.57699" lon="6.13949">
        <ele>461.7</ele>
        <time>2025-07-06T08:13:10.319Z</time>
      </trkpt>
      <trkpt lat="43.57699" lon="6.13961">
        <ele>461.3</ele>
        <time>2025-07-06T08:13:18.303Z</time>
      </trkpt>
      <trkpt lat="43.57698" lon="6.13972">
        <ele>461</ele>
        <time>2025-07-06T08:13:25.680Z</time>
      </trkpt>
      <trkpt lat="43.57698" lon="6.13983">
        <ele>460.7</ele>
        <time>2025-07-06T08:13:33.000Z</time>
      </trkpt>
      <trkpt lat="43.577" lon="6.13989">
        <ele>460.5</ele>
        <time>2025-07-06T08:13:36.959Z</time>
      </trkpt>
      <trkpt lat="43.57702" lon="6.13994">
        <ele>460.4</ele>
        <time>2025-07-06T08:13:40.382Z</time>
      </trkpt>
      <trkpt lat="43.57704" lon="6.14">
        <ele>460.3</ele>
        <time>2025-07-06T08:13:44.341Z</time>
      </trkpt>
      <trkpt lat="43.57707" lon="6.14005">
        <ele>460.4</ele>
        <time>2025-07-06T08:13:48.233Z</time>
      </trkpt>
      <trkpt lat="43.57709" lon="6.14011">
        <ele>460.3</ele>
        <time>2025-07-06T08:13:52.192Z</time>
      </trkpt>
      <trkpt lat="43.57711" lon="6.14016">
        <ele>460.4</ele>
        <time>2025-07-06T08:13:55.616Z</time>
      </trkpt>
      <trkpt lat="43.57713" lon="6.14022">
        <ele>460.4</ele>
        <time>2025-07-06T08:13:59.575Z</time>
      </trkpt>
      <trkpt lat="43.57715" lon="6.14027">
        <ele>460.5</ele>
        <time>2025-07-06T08:14:03.000Z</time>
      </trkpt>
      <trkpt lat="43.57719" lon="6.14038">
        <ele>460.4</ele>
        <time>2025-07-06T08:14:10.585Z</time>
      </trkpt>
      <trkpt lat="43.57723" lon="6.14049">
        <ele>460.3</ele>
        <time>2025-07-06T08:14:18.170Z</time>
      </trkpt>
      <trkpt lat="43.57726" lon="6.1406">
        <ele>460.3</ele>
        <time>2025-07-06T08:14:25.414Z</time>
      </trkpt>
      <trkpt lat="43.5773" lon="6.14071">
        <ele>460.4</ele>
        <time>2025-07-06T08:14:33.000Z</time>
      </trkpt>
      <trkpt lat="43.57734" lon="6.14081">
        <ele>460.5</ele>
        <time>2025-07-06T08:14:40.902Z</time>
      </trkpt>
      <trkpt lat="43.57738" lon="6.1409">
        <ele>460.5</ele>
        <time>2025-07-06T08:14:48.206Z</time>
      </trkpt>
      <trkpt lat="43.57741" lon="6.141">
        <ele>460.5</ele>
        <time>2025-07-06T08:14:55.694Z</time>
      </trkpt>
      <trkpt lat="43.57745" lon="6.14109">
        <ele>460.7</ele>
        <time>2025-07-06T08:15:03.000Z</time>
      </trkpt>
      <trkpt lat="43.57747" lon="6.14115">
        <ele>460.6</ele>
        <time>2025-07-06T08:15:06.814Z</time>
      </trkpt>
      <trkpt lat="43.57749" lon="6.14121">
        <ele>460.6</ele>
        <time>2025-07-06T08:15:10.628Z</time>
      </trkpt>
      <trkpt lat="43.5775" lon="6.14127">
        <ele>460.4</ele>
        <time>2025-07-06T08:15:14.184Z</time>
      </trkpt>
      <trkpt lat="43.57752" lon="6.14133">
        <ele>460.3</ele>
        <time>2025-07-06T08:15:17.998Z</time>
      </trkpt>
      <trkpt lat="43.57754" lon="6.14139">
        <ele>460.1</ele>
        <time>2025-07-06T08:15:21.813Z</time>
      </trkpt>
      <trkpt lat="43.57756" lon="6.14145">
        <ele>460.2</ele>
        <time>2025-07-06T08:15:25.628Z</time>
      </trkpt>
      <trkpt lat="43.57757" lon="6.14151">
        <ele>460.3</ele>
        <time>2025-07-06T08:15:29.184Z</time>
      </trkpt>
      <trkpt lat="43.57759" lon="6.14157">
        <ele>460.3</ele>
        <time>2025-07-06T08:15:33.000Z</time>
      </trkpt>
      <trkpt lat="43.57761" lon="6.14163">
        <ele>460.4</ele>
        <time>2025-07-06T08:15:36.685Z</time>
      </trkpt>
      <trkpt lat="43.57763" lon="6.14169">
        <ele>460.4</ele>
        <time>2025-07-06T08:15:40.370Z</time>
      </trkpt>
      <trkpt lat="43.57765" lon="6.14175">
        <ele>460.4</ele>
        <time>2025-07-06T08:15:44.056Z</time>
      </trkpt>
      <trkpt lat="43.57767" lon="6.14182">
        <ele>460.4</ele>
        <time>2025-07-06T08:15:48.255Z</time>
      </trkpt>
      <trkpt lat="43.57769" lon="6.14188">
        <ele>460.4</ele>
        <time>2025-07-06T08:15:51.941Z</time>
      </trkpt>
      <trkpt lat="43.57771" lon="6.14194">
        <ele>460.5</ele>
        <time>2025-07-06T08:15:55.627Z</time>
      </trkpt>
      <trkpt lat="43.57773" lon="6.142">
        <ele>460.7</ele>
        <time>2025-07-06T08:15:59.313Z</time>
      </trkpt>
      <trkpt lat="43.57775" lon="6.14206">
        <ele>460.8</ele>
        <time>2025-07-06T08:16:03.000Z</time>
      </trkpt>
      <trkpt lat="43.57778" lon="6.14217">
        <ele>461</ele>
        <time>2025-07-06T08:16:10.274Z</time>
      </trkpt>
      <trkpt lat="43.5778" lon="6.14223">
        <ele>461.1</ele>
        <time>2025-07-06T08:16:14.362Z</time>
      </trkpt>
      <trkpt lat="43.57782" lon="6.14229">
        <ele>461.2</ele>
        <time>2025-07-06T08:16:18.450Z</time>
      </trkpt>
      <trkpt lat="43.57785" lon="6.1424">
        <ele>461.3</ele>
        <time>2025-07-06T08:16:25.725Z</time>
      </trkpt>
      <trkpt lat="43.57788" lon="6.14251">
        <ele>461.4</ele>
        <time>2025-07-06T08:16:33.000Z</time>
      </trkpt>
      <trkpt lat="43.5779" lon="6.14257">
        <ele>461.4</ele>
        <time>2025-07-06T08:16:36.644Z</time>
      </trkpt>
      <trkpt lat="43.57792" lon="6.14263">
        <ele>461.5</ele>
        <time>2025-07-06T08:16:40.288Z</time>
      </trkpt>
      <trkpt lat="43.57794" lon="6.14269">
        <ele>461.6</ele>
        <time>2025-07-06T08:16:43.932Z</time>
      </trkpt>
      <trkpt lat="43.57797" lon="6.14276">
        <ele>461.7</ele>
        <time>2025-07-06T08:16:48.420Z</time>
      </trkpt>
      <trkpt lat="43.57799" lon="6.14282">
        <ele>461.8</ele>
        <time>2025-07-06T08:16:52.065Z</time>
      </trkpt>
      <trkpt lat="43.57801" lon="6.14288">
        <ele>461.8</ele>
        <time>2025-07-06T08:16:55.710Z</time>
      </trkpt>
      <trkpt lat="43.57803" lon="6.14294">
        <ele>461.9</ele>
        <time>2025-07-06T08:16:59.355Z</time>
      </trkpt>
      <trkpt lat="43.57805" lon="6.143">
        <ele>462</ele>
        <time>2025-07-06T08:17:03.000Z</time>
      </trkpt>
      <trkpt lat="43.57807" lon="6.14306">
        <ele>462.1</ele>
        <time>2025-07-06T08:17:06.897Z</time>
      </trkpt>
      <trkpt lat="43.57809" lon="6.14311">
        <ele>462.1</ele>
        <time>2025-07-06T08:17:10.267Z</time>
      </trkpt>
      <trkpt lat="43.57811" lon="6.14317">
        <ele>462.2</ele>
        <time>2025-07-06T08:17:14.164Z</time>
      </trkpt>
      <trkpt lat="43.57814" lon="6.14323">
        <ele>462.3</ele>
        <time>2025-07-06T08:17:18.465Z</time>
      </trkpt>
      <trkpt lat="43.57816" lon="6.14328">
        <ele>462.4</ele>
        <time>2025-07-06T08:17:21.835Z</time>
      </trkpt>
      <trkpt lat="43.57818" lon="6.14334">
        <ele>462.4</ele>
        <time>2025-07-06T08:17:25.732Z</time>
      </trkpt>
      <trkpt lat="43.5782" lon="6.14339">
        <ele>462.4</ele>
        <time>2025-07-06T08:17:29.102Z</time>
      </trkpt>
      <trkpt lat="43.57822" lon="6.14345">
        <ele>462.3</ele>
        <time>2025-07-06T08:17:33.000Z</time>
      </trkpt>
      <trkpt lat="43.57825" lon="6.1435">
        <ele>462.3</ele>
        <time>2025-07-06T08:17:36.807Z</time>
      </trkpt>
      <trkpt lat="43.57828" lon="6.14355">
        <ele>462.2</ele>
        <time>2025-07-06T08:17:40.614Z</time>
      </trkpt>
      <trkpt lat="43.57831" lon="6.1436">
        <ele>462</ele>
        <time>2025-07-06T08:17:44.421Z</time>
      </trkpt>
      <trkpt lat="43.57834" lon="6.14365">
        <ele>462</ele>
        <time>2025-07-06T08:17:48.228Z</time>
      </trkpt>
      <trkpt lat="43.57836" lon="6.1437">
        <ele>462</ele>
        <time>2025-07-06T08:17:51.577Z</time>
      </trkpt>
      <trkpt lat="43.57839" lon="6.14375">
        <ele>462</ele>
        <time>2025-07-06T08:17:55.384Z</time>
      </trkpt>
      <trkpt lat="43.57842" lon="6.1438">
        <ele>462</ele>
        <time>2025-07-06T08:17:59.192Z</time>
      </trkpt>
      <trkpt lat="43.57845" lon="6.14385">
        <ele>462</ele>
        <time>2025-07-06T08:18:03.000Z</time>
      </trkpt>
      <trkpt lat="43.57849" lon="6.14395">
        <ele>461.9</ele>
        <time>2025-07-06T08:18:10.702Z</time>
      </trkpt>
      <trkpt lat="43.57852" lon="6.14405">
        <ele>461.8</ele>
        <time>2025-07-06T08:18:17.999Z</time>
      </trkpt>
      <trkpt lat="43.57856" lon="6.14415">
        <ele>461.8</ele>
        <time>2025-07-06T08:18:25.701Z</time>
      </trkpt>
      <trkpt lat="43.57859" lon="6.14425">
        <ele>461.6</ele>
        <time>2025-07-06T08:18:33.000Z</time>
      </trkpt>
      <trkpt lat="43.57861" lon="6.14436">
        <ele>461.3</ele>
        <time>2025-07-06T08:18:40.500Z</time>
      </trkpt>
      <trkpt lat="43.57863" lon="6.14447">
        <ele>461</ele>
        <time>2025-07-06T08:18:48.000Z</time>
      </trkpt>
      <trkpt lat="43.57865" lon="6.14458">
        <ele>461.1</ele>
        <time>2025-07-06T08:18:55.500Z</time>
      </trkpt>
      <trkpt lat="43.57867" lon="6.14469">
        <ele>461.2</ele>
        <time>2025-07-06T08:19:03.000Z</time>
      </trkpt>
      <trkpt lat="43.57869" lon="6.14481">
        <ele>461.6</ele>
        <time>2025-07-06T08:19:10.691Z</time>
      </trkpt>
      <trkpt lat="43.57871" lon="6.14493">
        <ele>462.1</ele>
        <time>2025-07-06T08:19:18.382Z</time>
      </trkpt>
      <trkpt lat="43.57872" lon="6.14504">
        <ele>462.4</ele>
        <time>2025-07-06T08:19:25.307Z</time>
      </trkpt>
      <trkpt lat="43.57874" lon="6.14516">
        <ele>462.5</ele>
        <time>2025-07-06T08:19:32.998Z</time>
      </trkpt>
      <trkpt lat="43.57876" lon="6.14528">
        <ele>462.5</ele>
        <time>2025-07-06T08:19:40.690Z</time>
      </trkpt>
      <trkpt lat="43.57878" lon="6.1454">
        <ele>462.8</ele>
        <time>2025-07-06T08:19:48.382Z</time>
      </trkpt>
      <trkpt lat="43.57879" lon="6.14551">
        <ele>462.9</ele>
        <time>2025-07-06T08:19:55.307Z</time>
      </trkpt>
      <trkpt lat="43.57881" lon="6.14563">
        <ele>462.9</ele>
        <time>2025-07-06T08:20:03.000Z</time>
      </trkpt>
      <trkpt lat="43.57882" lon="6.14574">
        <ele>462.7</ele>
        <time>2025-07-06T08:20:10.851Z</time>
      </trkpt>
      <trkpt lat="43.57883" lon="6.14584">
        <ele>462.4</ele>
        <time>2025-07-06T08:20:17.999Z</time>
      </trkpt>
      <trkpt lat="43.57884" lon="6.14595">
        <ele>462.6</ele>
        <time>2025-07-06T08:20:25.850Z</time>
      </trkpt>
      <trkpt lat="43.57885" lon="6.14605">
        <ele>462.8</ele>
        <time>2025-07-06T08:20:33.000Z</time>
      </trkpt>
      <trkpt lat="43.57888" lon="6.14611">
        <ele>463</ele>
        <time>2025-07-06T08:22:35.796Z</time>
      </trkpt>
      <trkpt lat="43.5789" lon="6.14616">
        <ele>462.8</ele>
        <time>2025-07-06T08:24:12.000Z</time>
      </trkpt>
      <trkpt lat="43.57892" lon="6.14627">
        <ele>462.4</ele>
        <time>2025-07-06T08:24:19.752Z</time>
      </trkpt>
      <trkpt lat="43.57893" lon="6.14638">
        <ele>462</ele>
        <time>2025-07-06T08:24:27.330Z</time>
      </trkpt>
      <trkpt lat="43.57895" lon="6.14648">
        <ele>461.7</ele>
        <time>2025-07-06T08:24:34.421Z</time>
      </trkpt>
      <trkpt lat="43.57896" lon="6.14659">
        <ele>461.3</ele>
        <time>2025-07-06T08:24:42.000Z</time>
      </trkpt>
      <trkpt lat="43.57898" lon="6.1467">
        <ele>461</ele>
        <time>2025-07-06T08:24:49.432Z</time>
      </trkpt>
      <trkpt lat="43.57901" lon="6.14681">
        <ele>461</ele>
        <time>2025-07-06T08:24:57.134Z</time>
      </trkpt>
      <trkpt lat="43.57903" lon="6.14692">
        <ele>461</ele>
        <time>2025-07-06T08:25:04.567Z</time>
      </trkpt>
      <trkpt lat="43.57905" lon="6.14703">
        <ele>461.2</ele>
        <time>2025-07-06T08:25:12.000Z</time>
      </trkpt>
      <trkpt lat="43.57905" lon="6.14712">
        <ele>461.4</ele>
        <time>2025-07-06T08:25:19.276Z</time>
      </trkpt>
      <trkpt lat="43.57905" lon="6.14722">
        <ele>461.6</ele>
        <time>2025-07-06T08:25:27.361Z</time>
      </trkpt>
      <trkpt lat="43.57904" lon="6.14731">
        <ele>461.7</ele>
        <time>2025-07-06T08:25:34.723Z</time>
      </trkpt>
      <trkpt lat="43.57904" lon="6.1474">
        <ele>461.8</ele>
        <time>2025-07-06T08:25:42.000Z</time>
      </trkpt>
      <trkpt lat="43.57903" lon="6.14747">
        <ele>461.9</ele>
        <time>2025-07-06T08:25:45.601Z</time>
      </trkpt>
      <trkpt lat="43.57902" lon="6.14755">
        <ele>462</ele>
        <time>2025-07-06T08:25:49.698Z</time>
      </trkpt>
      <trkpt lat="43.57901" lon="6.14762">
        <ele>462</ele>
        <time>2025-07-06T08:25:53.299Z</time>
      </trkpt>
      <trkpt lat="43.579" lon="6.14769">
        <ele>462</ele>
        <time>2025-07-06T08:25:56.900Z</time>
      </trkpt>
      <trkpt lat="43.57898" lon="6.14776">
        <ele>462</ele>
        <time>2025-07-06T08:26:00.698Z</time>
      </trkpt>
      <trkpt lat="43.57897" lon="6.14784">
        <ele>461.9</ele>
        <time>2025-07-06T08:26:04.796Z</time>
      </trkpt>
      <trkpt lat="43.57896" lon="6.14791">
        <ele>461.9</ele>
        <time>2025-07-06T08:26:08.397Z</time>
      </trkpt>
      <trkpt lat="43.57895" lon="6.14798">
        <ele>461.8</ele>
        <time>2025-07-06T08:26:12.000Z</time>
      </trkpt>
      <trkpt lat="43.57894" lon="6.14804">
        <ele>461.8</ele>
        <time>2025-07-06T08:26:15.548Z</time>
      </trkpt>
      <trkpt lat="43.57893" lon="6.14811">
        <ele>461.8</ele>
        <time>2025-07-06T08:26:19.660Z</time>
      </trkpt>
      <trkpt lat="43.57892" lon="6.14817">
        <ele>461.8</ele>
        <time>2025-07-06T08:26:23.208Z</time>
      </trkpt>
      <trkpt lat="43.57892" lon="6.14824">
        <ele>461.8</ele>
        <time>2025-07-06T08:26:27.242Z</time>
      </trkpt>
      <trkpt lat="43.57891" lon="6.1483">
        <ele>461.9</ele>
        <time>2025-07-06T08:26:30.790Z</time>
      </trkpt>
      <trkpt lat="43.5789" lon="6.14836">
        <ele>461.8</ele>
        <time>2025-07-06T08:26:34.338Z</time>
      </trkpt>
      <trkpt lat="43.57889" lon="6.14843">
        <ele>461.6</ele>
        <time>2025-07-06T08:26:38.450Z</time>
      </trkpt>
      <trkpt lat="43.57888" lon="6.14849">
        <ele>461.5</ele>
        <time>2025-07-06T08:26:42.000Z</time>
      </trkpt>
      <trkpt lat="43.57887" lon="6.14855">
        <ele>461.3</ele>
        <time>2025-07-06T08:26:45.700Z</time>
      </trkpt>
      <trkpt lat="43.57887" lon="6.14861">
        <ele>461.1</ele>
        <time>2025-07-06T08:26:49.305Z</time>
      </trkpt>
      <trkpt lat="43.57886" lon="6.14867">
        <ele>461.2</ele>
        <time>2025-07-06T08:26:53.005Z</time>
      </trkpt>
      <trkpt lat="43.57885" lon="6.14874">
        <ele>461.3</ele>
        <time>2025-07-06T08:26:57.293Z</time>
      </trkpt>
      <trkpt lat="43.57884" lon="6.1488">
        <ele>461.4</ele>
        <time>2025-07-06T08:27:00.993Z</time>
      </trkpt>
      <trkpt lat="43.57884" lon="6.14886">
        <ele>461.4</ele>
        <time>2025-07-06T08:27:04.599Z</time>
      </trkpt>
      <trkpt lat="43.57883" lon="6.14892">
        <ele>461.4</ele>
        <time>2025-07-06T08:27:08.299Z</time>
      </trkpt>
      <trkpt lat="43.57882" lon="6.14898">
        <ele>461.4</ele>
        <time>2025-07-06T08:27:12.000Z</time>
      </trkpt>
      <trkpt lat="43.57881" lon="6.14904">
        <ele>461.4</ele>
        <time>2025-07-06T08:27:15.566Z</time>
      </trkpt>
      <trkpt lat="43.57881" lon="6.14911">
        <ele>461.3</ele>
        <time>2025-07-06T08:27:19.621Z</time>
      </trkpt>
      <trkpt lat="43.5788" lon="6.14917">
        <ele>461.3</ele>
        <time>2025-07-06T08:27:23.187Z</time>
      </trkpt>
      <trkpt lat="43.5788" lon="6.14924">
        <ele>461.1</ele>
        <time>2025-07-06T08:27:27.242Z</time>
      </trkpt>
      <trkpt lat="43.57879" lon="6.1493">
        <ele>461</ele>
        <time>2025-07-06T08:27:30.809Z</time>
      </trkpt>
      <trkpt lat="43.57878" lon="6.14936">
        <ele>461</ele>
        <time>2025-07-06T08:27:34.376Z</time>
      </trkpt>
      <trkpt lat="43.57878" lon="6.14943">
        <ele>460.8</ele>
        <time>2025-07-06T08:27:38.432Z</time>
      </trkpt>
      <trkpt lat="43.57877" lon="6.14949">
        <ele>460.7</ele>
        <time>2025-07-06T08:27:42.000Z</time>
      </trkpt>
      <trkpt lat="43.57877" lon="6.14961">
        <ele>460.3</ele>
        <time>2025-07-06T08:27:49.633Z</time>
      </trkpt>
      <trkpt lat="43.57876" lon="6.14973">
        <ele>459.9</ele>
        <time>2025-07-06T08:27:57.317Z</time>
      </trkpt>
      <trkpt lat="43.57876" lon="6.14984">
        <ele>459.7</ele>
        <time>2025-07-06T08:28:04.315Z</time>
      </trkpt>
      <trkpt lat="43.57875" lon="6.14996">
        <ele>459.6</ele>
        <time>2025-07-06T08:28:12.000Z</time>
      </trkpt>
      <trkpt lat="43.57875" lon="6.15003">
        <ele>459.5</ele>
        <time>2025-07-06T08:28:15.818Z</time>
      </trkpt>
      <trkpt lat="43.57875" lon="6.1501">
        <ele>459.5</ele>
        <time>2025-07-06T08:28:19.636Z</time>
      </trkpt>
      <trkpt lat="43.57875" lon="6.15017">
        <ele>459.5</ele>
        <time>2025-07-06T08:28:23.454Z</time>
      </trkpt>
      <trkpt lat="43.57875" lon="6.15024">
        <ele>459.5</ele>
        <time>2025-07-06T08:28:27.272Z</time>
      </trkpt>
      <trkpt lat="43.57875" lon="6.1503">
        <ele>459.5</ele>
        <time>2025-07-06T08:28:30.544Z</time>
      </trkpt>
      <trkpt lat="43.57875" lon="6.15037">
        <ele>459.5</ele>
        <time>2025-07-06T08:28:34.362Z</time>
      </trkpt>
      <trkpt lat="43.57875" lon="6.15044">
        <ele>459.5</ele>
        <time>2025-07-06T08:28:38.181Z</time>
      </trkpt>
      <trkpt lat="43.57875" lon="6.15051">
        <ele>459.5</ele>
        <time>2025-07-06T08:28:42.000Z</time>
      </trkpt>
      <trkpt lat="43.57876" lon="6.15063">
        <ele>459.3</ele>
        <time>2025-07-06T08:28:49.821Z</time>
      </trkpt>
      <trkpt lat="43.57877" lon="6.15074">
        <ele>459.1</ele>
        <time>2025-07-06T08:28:56.999Z</time>
      </trkpt>
      <trkpt lat="43.57878" lon="6.15086">
        <ele>458.9</ele>
        <time>2025-07-06T08:29:04.820Z</time>
      </trkpt>
      <trkpt lat="43.57879" lon="6.15097">
        <ele>458.7</ele>
        <time>2025-07-06T08:29:12.000Z</time>
      </trkpt>
      <trkpt lat="43.57879" lon="6.15103">
        <ele>458.5</ele>
        <time>2025-07-06T08:29:15.588Z</time>
      </trkpt>
      <trkpt lat="43.57879" lon="6.1511">
        <ele>458.4</ele>
        <time>2025-07-06T08:29:19.774Z</time>
      </trkpt>
      <trkpt lat="43.57879" lon="6.15116">
        <ele>458.4</ele>
        <time>2025-07-06T08:29:23.363Z</time>
      </trkpt>
      <trkpt lat="43.57879" lon="6.15122">
        <ele>458.4</ele>
        <time>2025-07-06T08:29:26.952Z</time>
      </trkpt>
      <trkpt lat="43.57878" lon="6.15128">
        <ele>458.4</ele>
        <time>2025-07-06T08:29:30.634Z</time>
      </trkpt>
      <trkpt lat="43.57878" lon="6.15135">
        <ele>458.4</ele>
        <time>2025-07-06T08:29:34.821Z</time>
      </trkpt>
      <trkpt lat="43.57878" lon="6.15141">
        <ele>458.3</ele>
        <time>2025-07-06T08:29:38.410Z</time>
      </trkpt>
      <trkpt lat="43.57878" lon="6.15147">
        <ele>458.2</ele>
        <time>2025-07-06T08:29:42.000Z</time>
      </trkpt>
      <trkpt lat="43.57878" lon="6.15158">
        <ele>458</ele>
        <time>2025-07-06T08:29:49.659Z</time>
      </trkpt>
      <trkpt lat="43.57879" lon="6.15169">
        <ele>457.6</ele>
        <time>2025-07-06T08:29:57.378Z</time>
      </trkpt>
      <trkpt lat="43.57879" lon="6.15179">
        <ele>457.3</ele>
        <time>2025-07-06T08:30:04.340Z</time>
      </trkpt>
      <trkpt lat="43.57879" lon="6.1519">
        <ele>456.9</ele>
        <time>2025-07-06T08:30:12.000Z</time>
      </trkpt>
      <trkpt lat="43.57879" lon="6.15196">
        <ele>456.7</ele>
        <time>2025-07-06T08:30:15.600Z</time>
      </trkpt>
      <trkpt lat="43.57879" lon="6.15203">
        <ele>456.7</ele>
        <time>2025-07-06T08:30:19.800Z</time>
      </trkpt>
      <trkpt lat="43.57879" lon="6.15209">
        <ele>456.7</ele>
        <time>2025-07-06T08:30:23.400Z</time>
      </trkpt>
      <trkpt lat="43.57879" lon="6.15215">
        <ele>456.7</ele>
        <time>2025-07-06T08:30:27.000Z</time>
      </trkpt>
      <trkpt lat="43.57879" lon="6.15221">
        <ele>456.7</ele>
        <time>2025-07-06T08:30:30.600Z</time>
      </trkpt>
      <trkpt lat="43.57879" lon="6.15228">
        <ele>456.6</ele>
        <time>2025-07-06T08:30:34.800Z</time>
      </trkpt>
      <trkpt lat="43.57879" lon="6.15234">
        <ele>456.4</ele>
        <time>2025-07-06T08:30:38.400Z</time>
      </trkpt>
      <trkpt lat="43.57879" lon="6.1524">
        <ele>456.3</ele>
        <time>2025-07-06T08:30:42.000Z</time>
      </trkpt>
      <trkpt lat="43.5788" lon="6.15246">
        <ele>456.1</ele>
        <time>2025-07-06T08:30:45.568Z</time>
      </trkpt>
      <trkpt lat="43.5788" lon="6.15253">
        <ele>456</ele>
        <time>2025-07-06T08:30:49.625Z</time>
      </trkpt>
      <trkpt lat="43.57881" lon="6.15259">
        <ele>455.9</ele>
        <time>2025-07-06T08:30:53.193Z</time>
      </trkpt>
      <trkpt lat="43.57882" lon="6.15266">
        <ele>455.7</ele>
        <time>2025-07-06T08:30:57.328Z</time>
      </trkpt>
      <trkpt lat="43.57882" lon="6.15272">
        <ele>455.7</ele>
        <time>2025-07-06T08:31:00.805Z</time>
      </trkpt>
      <trkpt lat="43.57883" lon="6.15278">
        <ele>455.6</ele>
        <time>2025-07-06T08:31:04.373Z</time>
      </trkpt>
      <trkpt lat="43.57883" lon="6.15285">
        <ele>455.8</ele>
        <time>2025-07-06T08:31:08.430Z</time>
      </trkpt>
      <trkpt lat="43.57884" lon="6.15291">
        <ele>455.9</ele>
        <time>2025-07-06T08:31:12.000Z</time>
      </trkpt>
      <trkpt lat="43.57886" lon="6.15303">
        <ele>456.1</ele>
        <time>2025-07-06T08:31:19.691Z</time>
      </trkpt>
      <trkpt lat="43.57888" lon="6.15315">
        <ele>456.1</ele>
        <time>2025-07-06T08:31:27.382Z</time>
      </trkpt>
      <trkpt lat="43.57889" lon="6.15326">
        <ele>456</ele>
        <time>2025-07-06T08:31:34.307Z</time>
      </trkpt>
      <trkpt lat="43.57891" lon="6.15338">
        <ele>455.7</ele>
        <time>2025-07-06T08:31:42.000Z</time>
      </trkpt>
      <trkpt lat="43.57889" lon="6.1535">
        <ele>456</ele>
        <time>2025-07-06T08:31:49.688Z</time>
      </trkpt>
      <trkpt lat="43.57888" lon="6.15362">
        <ele>456.1</ele>
        <time>2025-07-06T08:31:57.230Z</time>
      </trkpt>
      <trkpt lat="43.57886" lon="6.15373">
        <ele>455.9</ele>
        <time>2025-07-06T08:32:04.311Z</time>
      </trkpt>
      <trkpt lat="43.57884" lon="6.15385">
        <ele>455.7</ele>
        <time>2025-07-06T08:32:12.000Z</time>
      </trkpt>
      <trkpt lat="43.57884" lon="6.15392">
        <ele>455.4</ele>
        <time>2025-07-06T08:32:15.950Z</time>
      </trkpt>
      <trkpt lat="43.57884" lon="6.15398">
        <ele>455.3</ele>
        <time>2025-07-06T08:32:19.336Z</time>
      </trkpt>
      <trkpt lat="43.57884" lon="6.15405">
        <ele>455.1</ele>
        <time>2025-07-06T08:32:23.286Z</time>
      </trkpt>
      <trkpt lat="43.57884" lon="6.15412">
        <ele>454.8</ele>
        <time>2025-07-06T08:32:27.236Z</time>
      </trkpt>
      <trkpt lat="43.57883" lon="6.15418">
        <ele>454.9</ele>
        <time>2025-07-06T08:32:30.711Z</time>
      </trkpt>
      <trkpt lat="43.57883" lon="6.15425">
        <ele>455.1</ele>
        <time>2025-07-06T08:32:34.662Z</time>
      </trkpt>
      <trkpt lat="43.57883" lon="6.15431">
        <ele>455.3</ele>
        <time>2025-07-06T08:32:38.048Z</time>
      </trkpt>
      <trkpt lat="43.57883" lon="6.15438">
        <ele>455.5</ele>
        <time>2025-07-06T08:32:42.000Z</time>
      </trkpt>
      <trkpt lat="43.57884" lon="6.15449">
        <ele>455.7</ele>
        <time>2025-07-06T08:32:49.529Z</time>
      </trkpt>
      <trkpt lat="43.57884" lon="6.1546">
        <ele>456</ele>
        <time>2025-07-06T08:32:56.999Z</time>
      </trkpt>
      <trkpt lat="43.57885" lon="6.15471">
        <ele>456.2</ele>
        <time>2025-07-06T08:33:04.528Z</time>
      </trkpt>
      <trkpt lat="43.57885" lon="6.15482">
        <ele>455.9</ele>
        <time>2025-07-06T08:33:12.000Z</time>
      </trkpt>
      <trkpt lat="43.57886" lon="6.15489">
        <ele>455.6</ele>
        <time>2025-07-06T08:33:15.767Z</time>
      </trkpt>
      <trkpt lat="43.57887" lon="6.15496">
        <ele>455.3</ele>
        <time>2025-07-06T08:33:19.534Z</time>
      </trkpt>
      <trkpt lat="43.57887" lon="6.15503">
        <ele>455</ele>
        <time>2025-07-06T08:33:23.230Z</time>
      </trkpt>
      <trkpt lat="43.57888" lon="6.1551">
        <ele>454.7</ele>
        <time>2025-07-06T08:33:26.998Z</time>
      </trkpt>
      <trkpt lat="43.57889" lon="6.15517">
        <ele>454.4</ele>
        <time>2025-07-06T08:33:30.766Z</time>
      </trkpt>
      <trkpt lat="43.5789" lon="6.15524">
        <ele>453.9</ele>
        <time>2025-07-06T08:33:34.534Z</time>
      </trkpt>
      <trkpt lat="43.5789" lon="6.15531">
        <ele>453.8</ele>
        <time>2025-07-06T08:33:38.231Z</time>
      </trkpt>
      <trkpt lat="43.57891" lon="6.15538">
        <ele>453.7</ele>
        <time>2025-07-06T08:33:42.000Z</time>
      </trkpt>
      <trkpt lat="43.57892" lon="6.15544">
        <ele>453.7</ele>
        <time>2025-07-06T08:33:45.585Z</time>
      </trkpt>
      <trkpt lat="43.57894" lon="6.1555">
        <ele>453.7</ele>
        <time>2025-07-06T08:33:49.431Z</time>
      </trkpt>
      <trkpt lat="43.57895" lon="6.15556">
        <ele>453.8</ele>
        <time>2025-07-06T08:33:53.016Z</time>
      </trkpt>
      <trkpt lat="43.57897" lon="6.15563">
        <ele>454</ele>
        <time>2025-07-06T08:33:57.397Z</time>
      </trkpt>
      <trkpt lat="43.57898" lon="6.15569">
        <ele>454.2</ele>
        <time>2025-07-06T08:34:00.982Z</time>
      </trkpt>
      <trkpt lat="43.57899" lon="6.15575">
        <ele>454.3</ele>
        <time>2025-07-06T08:34:04.567Z</time>
      </trkpt>
      <trkpt lat="43.57901" lon="6.15581">
        <ele>454.5</ele>
        <time>2025-07-06T08:34:08.413Z</time>
      </trkpt>
      <trkpt lat="43.57902" lon="6.15587">
        <ele>454.5</ele>
        <time>2025-07-06T08:34:12.000Z</time>
      </trkpt>
      <trkpt lat="43.57905" lon="6.15598">
        <ele>454.4</ele>
        <time>2025-07-06T08:34:19.651Z</time>
      </trkpt>
      <trkpt lat="43.57908" lon="6.15609">
        <ele>454.3</ele>
        <time>2025-07-06T08:34:27.302Z</time>
      </trkpt>
      <trkpt lat="43.57911" lon="6.15619">
        <ele>453.9</ele>
        <time>2025-07-06T08:34:34.348Z</time>
      </trkpt>
      <trkpt lat="43.57914" lon="6.1563">
        <ele>453.4</ele>
        <time>2025-07-06T08:34:42.000Z</time>
      </trkpt>
      <trkpt lat="43.57916" lon="6.15642">
        <ele>453</ele>
        <time>2025-07-06T08:34:49.740Z</time>
      </trkpt>
      <trkpt lat="43.57919" lon="6.15653">
        <ele>452.5</ele>
        <time>2025-07-06T08:34:57.129Z</time>
      </trkpt>
      <trkpt lat="43.57921" lon="6.15665">
        <ele>452.2</ele>
        <time>2025-07-06T08:35:04.870Z</time>
      </trkpt>
      <trkpt lat="43.57923" lon="6.15676">
        <ele>451.9</ele>
        <time>2025-07-06T08:35:12.000Z</time>
      </trkpt>
      <trkpt lat="43.57924" lon="6.15682">
        <ele>451.7</ele>
        <time>2025-07-06T08:35:15.612Z</time>
      </trkpt>
      <trkpt lat="43.57926" lon="6.15688">
        <ele>451.3</ele>
        <time>2025-07-06T08:35:19.487Z</time>
      </trkpt>
      <trkpt lat="43.57927" lon="6.15694">
        <ele>451.1</ele>
        <time>2025-07-06T08:35:23.099Z</time>
      </trkpt>
      <trkpt lat="43.57928" lon="6.15701">
        <ele>451.2</ele>
        <time>2025-07-06T08:35:27.285Z</time>
      </trkpt>
      <trkpt lat="43.57929" lon="6.15707">
        <ele>451.2</ele>
        <time>2025-07-06T08:35:30.898Z</time>
      </trkpt>
      <trkpt lat="43.57931" lon="6.15713">
        <ele>451.1</ele>
        <time>2025-07-06T08:35:34.773Z</time>
      </trkpt>
      <trkpt lat="43.57932" lon="6.15719">
        <ele>451.2</ele>
        <time>2025-07-06T08:35:38.386Z</time>
      </trkpt>
      <trkpt lat="43.57933" lon="6.15725">
        <ele>451.2</ele>
        <time>2025-07-06T08:35:42.000Z</time>
      </trkpt>
      <trkpt lat="43.57935" lon="6.15732">
        <ele>451</ele>
        <time>2025-07-06T08:35:46.082Z</time>
      </trkpt>
      <trkpt lat="43.57936" lon="6.15738">
        <ele>450.9</ele>
        <time>2025-07-06T08:35:49.422Z</time>
      </trkpt>
      <trkpt lat="43.57938" lon="6.15745">
        <ele>450.7</ele>
        <time>2025-07-06T08:35:53.505Z</time>
      </trkpt>
      <trkpt lat="43.5794" lon="6.15751">
        <ele>450.5</ele>
        <time>2025-07-06T08:35:57.088Z</time>
      </trkpt>
      <trkpt lat="43.57941" lon="6.15758">
        <ele>450.3</ele>
        <time>2025-07-06T08:36:00.959Z</time>
      </trkpt>
      <trkpt lat="43.57943" lon="6.15764">
        <ele>450.1</ele>
        <time>2025-07-06T08:36:04.543Z</time>
      </trkpt>
      <trkpt lat="43.57944" lon="6.15771">
        <ele>450</ele>
        <time>2025-07-06T08:36:08.415Z</time>
      </trkpt>
      <trkpt lat="43.57946" lon="6.15777">
        <ele>449.7</ele>
        <time>2025-07-06T08:36:12.000Z</time>
      </trkpt>
      <trkpt lat="43.5795" lon="6.15787">
        <ele>449.1</ele>
        <time>2025-07-06T08:36:19.794Z</time>
      </trkpt>
      <trkpt lat="43.57954" lon="6.15796">
        <ele>448.8</ele>
        <time>2025-07-06T08:36:26.999Z</time>
      </trkpt>
      <trkpt lat="43.57958" lon="6.15806">
        <ele>449</ele>
        <time>2025-07-06T08:36:34.794Z</time>
      </trkpt>
      <trkpt lat="43.57962" lon="6.15815">
        <ele>449.4</ele>
        <time>2025-07-06T08:36:42.000Z</time>
      </trkpt>
      <trkpt lat="43.57966" lon="6.15819">
        <ele>449.6</ele>
        <time>2025-07-06T08:36:46.000Z</time>
      </trkpt>
      <trkpt lat="43.5797" lon="6.15823">
        <ele>449.9</ele>
        <time>2025-07-06T08:36:50.000Z</time>
      </trkpt>
      <trkpt lat="43.57973" lon="6.15826">
        <ele>450.2</ele>
        <time>2025-07-06T08:36:53.000Z</time>
      </trkpt>
      <trkpt lat="43.57977" lon="6.1583">
        <ele>450.4</ele>
        <time>2025-07-06T08:36:57.000Z</time>
      </trkpt>
      <trkpt lat="43.57981" lon="6.15834">
        <ele>450.7</ele>
        <time>2025-07-06T08:37:01.000Z</time>
      </trkpt>
      <trkpt lat="43.57985" lon="6.15838">
        <ele>450.4</ele>
        <time>2025-07-06T08:37:05.000Z</time>
      </trkpt>
      <trkpt lat="43.57988" lon="6.15841">
        <ele>450.3</ele>
        <time>2025-07-06T08:37:08.000Z</time>
      </trkpt>
      <trkpt lat="43.57992" lon="6.15845">
        <ele>450.2</ele>
        <time>2025-07-06T08:37:12.000Z</time>
      </trkpt>
      <trkpt lat="43.57996" lon="6.15849">
        <ele>450.1</ele>
        <time>2025-07-06T08:37:16.032Z</time>
      </trkpt>
      <trkpt lat="43.57999" lon="6.15853">
        <ele>450</ele>
        <time>2025-07-06T08:37:19.437Z</time>
      </trkpt>
      <trkpt lat="43.58003" lon="6.15857">
        <ele>449.6</ele>
        <time>2025-07-06T08:37:23.470Z</time>
      </trkpt>
      <trkpt lat="43.58007" lon="6.15861">
        <ele>449.2</ele>
        <time>2025-07-06T08:37:27.503Z</time>
      </trkpt>
      <trkpt lat="43.5801" lon="6.15864">
        <ele>448.8</ele>
        <time>2025-07-06T08:37:30.527Z</time>
      </trkpt>
      <trkpt lat="43.58014" lon="6.15868">
        <ele>448.2</ele>
        <time>2025-07-06T08:37:34.560Z</time>
      </trkpt>
      <trkpt lat="43.58017" lon="6.15872">
        <ele>447.9</ele>
        <time>2025-07-06T08:37:37.966Z</time>
      </trkpt>
      <trkpt lat="43.58021" lon="6.15876">
        <ele>447.5</ele>
        <time>2025-07-06T08:37:42.000Z</time>
      </trkpt>
      <trkpt lat="43.58026" lon="6.15885">
        <ele>447.1</ele>
        <time>2025-07-06T08:37:49.600Z</time>
      </trkpt>
      <trkpt lat="43.58032" lon="6.15893">
        <ele>446.8</ele>
        <time>2025-07-06T08:37:57.317Z</time>
      </trkpt>
      <trkpt lat="43.58037" lon="6.15902">
        <ele>446.7</ele>
        <time>2025-07-06T08:38:04.918Z</time>
      </trkpt>
      <trkpt lat="43.58042" lon="6.1591">
        <ele>446.5</ele>
        <time>2025-07-06T08:38:12.000Z</time>
      </trkpt>
      <trkpt lat="43.58043" lon="6.15921">
        <ele>446.4</ele>
        <time>2025-07-06T08:38:19.671Z</time>
      </trkpt>
      <trkpt lat="43.58044" lon="6.15932">
        <ele>446.2</ele>
        <time>2025-07-06T08:38:27.342Z</time>
      </trkpt>
      <trkpt lat="43.58045" lon="6.15942">
        <ele>446</ele>
        <time>2025-07-06T08:38:34.327Z</time>
      </trkpt>
      <trkpt lat="43.58046" lon="6.15953">
        <ele>445.6</ele>
        <time>2025-07-06T08:38:42.000Z</time>
      </trkpt>
      <trkpt lat="43.58043" lon="6.15958">
        <ele>445.3</ele>
        <time>2025-07-06T08:38:45.803Z</time>
      </trkpt>
      <trkpt lat="43.5804" lon="6.15963">
        <ele>445</ele>
        <time>2025-07-06T08:38:49.606Z</time>
      </trkpt>
      <trkpt lat="43.58037" lon="6.15968">
        <ele>444.6</ele>
        <time>2025-07-06T08:38:53.410Z</time>
      </trkpt>
      <trkpt lat="43.58034" lon="6.15973">
        <ele>444.2</ele>
        <time>2025-07-06T08:38:57.214Z</time>
      </trkpt>
      <trkpt lat="43.58031" lon="6.15977">
        <ele>443.9</ele>
        <time>2025-07-06T08:39:00.587Z</time>
      </trkpt>
      <trkpt lat="43.58028" lon="6.15982">
        <ele>443.7</ele>
        <time>2025-07-06T08:39:04.391Z</time>
      </trkpt>
      <trkpt lat="43.58025" lon="6.15987">
        <ele>443.4</ele>
        <time>2025-07-06T08:39:08.195Z</time>
      </trkpt>
      <trkpt lat="43.58022" lon="6.15992">
        <ele>443.1</ele>
        <time>2025-07-06T08:39:12.000Z</time>
      </trkpt>
      <trkpt lat="43.58016" lon="6.15994">
        <ele>442.8</ele>
        <time>2025-07-06T08:39:16.993Z</time>
      </trkpt>
      <trkpt lat="43.58009" lon="6.15996">
        <ele>442.5</ele>
        <time>2025-07-06T08:39:22.775Z</time>
      </trkpt>
      <trkpt lat="43.58009" lon="6.15994">
        <ele>442.5</ele>
        <time>2025-07-06T08:39:23.946Z</time>
      </trkpt>
      <trkpt lat="43.58004" lon="6.15995">
        <ele>442.3</ele>
        <time>2025-07-06T08:39:28.029Z</time>
      </trkpt>
      <trkpt lat="43.57999" lon="6.15996">
        <ele>442.1</ele>
        <time>2025-07-06T08:39:32.112Z</time>
      </trkpt>
      <trkpt lat="43.57994" lon="6.15996">
        <ele>441.9</ele>
        <time>2025-07-06T08:39:36.152Z</time>
      </trkpt>
      <trkpt lat="43.57989" lon="6.15997">
        <ele>441.7</ele>
        <time>2025-07-06T08:39:40.234Z</time>
      </trkpt>
      <trkpt lat="43.57981" lon="6.16002">
        <ele>441.3</ele>
        <time>2025-07-06T08:39:47.329Z</time>
      </trkpt>
      <trkpt lat="43.57977" lon="6.16005">
        <ele>441.2</ele>
        <time>2025-07-06T08:39:51.006Z</time>
      </trkpt>
      <trkpt lat="43.57973" lon="6.16008">
        <ele>441</ele>
        <time>2025-07-06T08:39:54.683Z</time>
      </trkpt>
      <trkpt lat="43.57965" lon="6.16013">
        <ele>440.9</ele>
        <time>2025-07-06T08:40:01.776Z</time>
      </trkpt>
      <trkpt lat="43.57961" lon="6.16016">
        <ele>440.8</ele>
        <time>2025-07-06T08:40:05.452Z</time>
      </trkpt>
      <trkpt lat="43.57957" lon="6.16019">
        <ele>440.6</ele>
        <time>2025-07-06T08:40:09.128Z</time>
      </trkpt>
      <trkpt lat="43.57949" lon="6.16024">
        <ele>440.3</ele>
        <time>2025-07-06T08:40:16.219Z</time>
      </trkpt>
      <trkpt lat="43.57941" lon="6.16029">
        <ele>440</ele>
        <time>2025-07-06T08:40:23.310Z</time>
      </trkpt>
      <trkpt lat="43.57937" lon="6.16032">
        <ele>440.1</ele>
        <time>2025-07-06T08:40:26.985Z</time>
      </trkpt>
      <trkpt lat="43.57933" lon="6.16035">
        <ele>440</ele>
        <time>2025-07-06T08:40:30.660Z</time>
      </trkpt>
      <trkpt lat="43.57925" lon="6.1604">
        <ele>439.8</ele>
        <time>2025-07-06T08:40:37.749Z</time>
      </trkpt>
      <trkpt lat="43.57921" lon="6.16043">
        <ele>439.6</ele>
        <time>2025-07-06T08:40:41.664Z</time>
      </trkpt>
      <trkpt lat="43.57916" lon="6.16045">
        <ele>439.4</ele>
        <time>2025-07-06T08:40:45.579Z</time>
      </trkpt>
      <trkpt lat="43.57912" lon="6.16048">
        <ele>439.2</ele>
        <time>2025-07-06T08:40:49.253Z</time>
      </trkpt>
      <trkpt lat="43.57908" lon="6.16051">
        <ele>439</ele>
        <time>2025-07-06T08:40:52.927Z</time>
      </trkpt>
      <trkpt lat="43.579" lon="6.16056">
        <ele>438.4</ele>
        <time>2025-07-06T08:41:00.014Z</time>
      </trkpt>
      <trkpt lat="43.57896" lon="6.16059">
        <ele>438.3</ele>
        <time>2025-07-06T08:41:03.687Z</time>
      </trkpt>
      <trkpt lat="43.57892" lon="6.16062">
        <ele>438.2</ele>
        <time>2025-07-06T08:41:07.360Z</time>
      </trkpt>
      <trkpt lat="43.57884" lon="6.16067">
        <ele>437.9</ele>
        <time>2025-07-06T08:41:14.445Z</time>
      </trkpt>
      <trkpt lat="43.57876" lon="6.16072">
        <ele>437.5</ele>
        <time>2025-07-06T08:41:21.530Z</time>
      </trkpt>
      <trkpt lat="43.57872" lon="6.16075">
        <ele>437.1</ele>
        <time>2025-07-06T08:41:25.202Z</time>
      </trkpt>
      <trkpt lat="43.57868" lon="6.16078">
        <ele>436.8</ele>
        <time>2025-07-06T08:41:28.874Z</time>
      </trkpt>
      <trkpt lat="43.5786" lon="6.16083">
        <ele>436.1</ele>
        <time>2025-07-06T08:41:35.957Z</time>
      </trkpt>
      <trkpt lat="43.57854" lon="6.16088">
        <ele>436.4</ele>
        <time>2025-07-06T08:41:41.609Z</time>
      </trkpt>
      <trkpt lat="43.57849" lon="6.16094">
        <ele>436.5</ele>
        <time>2025-07-06T08:41:46.951Z</time>
      </trkpt>
      <trkpt lat="43.57843" lon="6.16099">
        <ele>436.3</ele>
        <time>2025-07-06T08:41:52.602Z</time>
      </trkpt>
      <trkpt lat="43.57837" lon="6.16104">
        <ele>435.8</ele>
        <time>2025-07-06T08:41:58.253Z</time>
      </trkpt>
      <trkpt lat="43.57832" lon="6.16101">
        <ele>435.8</ele>
        <time>2025-07-06T08:42:02.648Z</time>
      </trkpt>
      <trkpt lat="43.57827" lon="6.16098">
        <ele>436.1</ele>
        <time>2025-07-06T08:42:07.043Z</time>
      </trkpt>
      <trkpt lat="43.57822" lon="6.16094">
        <ele>436.4</ele>
        <time>2025-07-06T08:42:11.701Z</time>
      </trkpt>
      <trkpt lat="43.57817" lon="6.16091">
        <ele>436.6</ele>
        <time>2025-07-06T08:42:16.095Z</time>
      </trkpt>
      <trkpt lat="43.57813" lon="6.1609">
        <ele>436.7</ele>
        <time>2025-07-06T08:42:19.371Z</time>
      </trkpt>
      <trkpt lat="43.57808" lon="6.16088">
        <ele>436.8</ele>
        <time>2025-07-06T08:42:23.566Z</time>
      </trkpt>
      <trkpt lat="43.57803" lon="6.16081">
        <ele>436.6</ele>
        <time>2025-07-06T08:42:29.304Z</time>
      </trkpt>
      <trkpt lat="43.57798" lon="6.16074">
        <ele>435.8</ele>
        <time>2025-07-06T08:42:35.042Z</time>
      </trkpt>
      <trkpt lat="43.57792" lon="6.16067">
        <ele>434.8</ele>
        <time>2025-07-06T08:42:41.371Z</time>
      </trkpt>
      <trkpt lat="43.57787" lon="6.16061">
        <ele>434.1</ele>
        <time>2025-07-06T08:42:46.708Z</time>
      </trkpt>
      <trkpt lat="43.57782" lon="6.16054">
        <ele>433.4</ele>
        <time>2025-07-06T08:42:52.444Z</time>
      </trkpt>
      <trkpt lat="43.57777" lon="6.16047">
        <ele>433.3</ele>
        <time>2025-07-06T08:42:58.180Z</time>
      </trkpt>
      <trkpt lat="43.57771" lon="6.1604">
        <ele>433.1</ele>
        <time>2025-07-06T08:43:04.507Z</time>
      </trkpt>
      <trkpt lat="43.57766" lon="6.16033">
        <ele>433</ele>
        <time>2025-07-06T08:43:10.242Z</time>
      </trkpt>
      <trkpt lat="43.57761" lon="6.16029">
        <ele>432.7</ele>
        <time>2025-07-06T08:43:14.895Z</time>
      </trkpt>
      <trkpt lat="43.57756" lon="6.16025">
        <ele>432.6</ele>
        <time>2025-07-06T08:43:19.548Z</time>
      </trkpt>
      <trkpt lat="43.57751" lon="6.16021">
        <ele>432.6</ele>
        <time>2025-07-06T08:43:24.201Z</time>
      </trkpt>
      <trkpt lat="43.57746" lon="6.16017">
        <ele>432.8</ele>
        <time>2025-07-06T08:43:28.854Z</time>
      </trkpt>
      <trkpt lat="43.57742" lon="6.16007">
        <ele>433.1</ele>
        <time>2025-07-06T08:43:35.516Z</time>
      </trkpt>
      <trkpt lat="43.57738" lon="6.15998">
        <ele>433.2</ele>
        <time>2025-07-06T08:43:41.673Z</time>
      </trkpt>
      <trkpt lat="43.57734" lon="6.15988">
        <ele>433.3</ele>
        <time>2025-07-06T08:43:48.334Z</time>
      </trkpt>
      <trkpt lat="43.5773" lon="6.15978">
        <ele>433.4</ele>
        <time>2025-07-06T08:43:54.995Z</time>
      </trkpt>
      <trkpt lat="43.57726" lon="6.15968">
        <ele>433.5</ele>
        <time>2025-07-06T08:44:01.656Z</time>
      </trkpt>
      <trkpt lat="43.57722" lon="6.15959">
        <ele>433.5</ele>
        <time>2025-07-06T08:44:07.812Z</time>
      </trkpt>
      <trkpt lat="43.57718" lon="6.15949">
        <ele>433.5</ele>
        <time>2025-07-06T08:44:14.471Z</time>
      </trkpt>
      <trkpt lat="43.57714" lon="6.15939">
        <ele>433.7</ele>
        <time>2025-07-06T08:44:21.130Z</time>
      </trkpt>
      <trkpt lat="43.57711" lon="6.15931">
        <ele>433.8</ele>
        <time>2025-07-06T08:44:26.381Z</time>
      </trkpt>
      <trkpt lat="43.57709" lon="6.15923">
        <ele>433.9</ele>
        <time>2025-07-06T08:44:31.314Z</time>
      </trkpt>
      <trkpt lat="43.57706" lon="6.15914">
        <ele>433.5</ele>
        <time>2025-07-06T08:44:37.088Z</time>
      </trkpt>
      <trkpt lat="43.57703" lon="6.15906">
        <ele>432.6</ele>
        <time>2025-07-06T08:44:42.338Z</time>
      </trkpt>
      <trkpt lat="43.577" lon="6.15898">
        <ele>431.6</ele>
        <time>2025-07-06T08:44:47.588Z</time>
      </trkpt>
      <trkpt lat="43.57698" lon="6.1589">
        <ele>430.7</ele>
        <time>2025-07-06T08:44:52.520Z</time>
      </trkpt>
      <trkpt lat="43.57695" lon="6.15881">
        <ele>430.1</ele>
        <time>2025-07-06T08:44:58.293Z</time>
      </trkpt>
      <trkpt lat="43.57692" lon="6.15873">
        <ele>429.7</ele>
        <time>2025-07-06T08:45:03.542Z</time>
      </trkpt>
      <trkpt lat="43.57687" lon="6.15868">
        <ele>429.1</ele>
        <time>2025-07-06T08:45:08.508Z</time>
      </trkpt>
      <trkpt lat="43.57682" lon="6.15863">
        <ele>428.3</ele>
        <time>2025-07-06T08:45:13.474Z</time>
      </trkpt>
      <trkpt lat="43.57677" lon="6.15857">
        <ele>427.5</ele>
        <time>2025-07-06T08:45:18.802Z</time>
      </trkpt>
      <trkpt lat="43.57672" lon="6.15852">
        <ele>427</ele>
        <time>2025-07-06T08:45:23.767Z</time>
      </trkpt>
      <trkpt lat="43.57668" lon="6.15849">
        <ele>426.6</ele>
        <time>2025-07-06T08:45:27.427Z</time>
      </trkpt>
      <trkpt lat="43.57664" lon="6.15846">
        <ele>426.3</ele>
        <time>2025-07-06T08:45:31.087Z</time>
      </trkpt>
      <trkpt lat="43.57658" lon="6.15842">
        <ele>426</ele>
        <time>2025-07-06T08:45:36.444Z</time>
      </trkpt>
      <trkpt lat="43.57653" lon="6.15838">
        <ele>425.8</ele>
        <time>2025-07-06T08:45:41.090Z</time>
      </trkpt>
      <trkpt lat="43.57647" lon="6.15834">
        <ele>425.5</ele>
        <time>2025-07-06T08:45:46.446Z</time>
      </trkpt>
      <trkpt lat="43.57642" lon="6.15831">
        <ele>425.4</ele>
        <time>2025-07-06T08:45:50.828Z</time>
      </trkpt>
      <trkpt lat="43.57636" lon="6.15827">
        <ele>425</ele>
        <time>2025-07-06T08:45:56.183Z</time>
      </trkpt>
      <trkpt lat="43.5763" lon="6.15823">
        <ele>424.5</ele>
        <time>2025-07-06T08:46:01.538Z</time>
      </trkpt>
      <trkpt lat="43.57625" lon="6.15819">
        <ele>424</ele>
        <time>2025-07-06T08:46:06.182Z</time>
      </trkpt>
      <trkpt lat="43.57619" lon="6.15815">
        <ele>423.5</ele>
        <time>2025-07-06T08:46:11.536Z</time>
      </trkpt>
      <trkpt lat="43.57619" lon="6.15807">
        <ele>424</ele>
        <time>2025-07-06T08:46:16.192Z</time>
      </trkpt>
      <trkpt lat="43.57618" lon="6.158">
        <ele>423.6</ele>
        <time>2025-07-06T08:46:20.344Z</time>
      </trkpt>
      <trkpt lat="43.57618" lon="6.15792">
        <ele>423</ele>
        <time>2025-07-06T08:46:24.999Z</time>
      </trkpt>
      <trkpt lat="43.57617" lon="6.15784">
        <ele>422.3</ele>
        <time>2025-07-06T08:46:29.722Z</time>
      </trkpt>
      <trkpt lat="43.57617" lon="6.15776">
        <ele>421.8</ele>
        <time>2025-07-06T08:46:34.376Z</time>
      </trkpt>
      <trkpt lat="43.57616" lon="6.15769">
        <ele>421.3</ele>
        <time>2025-07-06T08:46:38.526Z</time>
      </trkpt>
      <trkpt lat="43.57616" lon="6.15761">
        <ele>421</ele>
        <time>2025-07-06T08:46:43.179Z</time>
      </trkpt>
      <trkpt lat="43.57615" lon="6.15753">
        <ele>420.5</ele>
        <time>2025-07-06T08:46:47.900Z</time>
      </trkpt>
      <trkpt lat="43.57609" lon="6.15752">
        <ele>420.1</ele>
        <time>2025-07-06T08:46:52.751Z</time>
      </trkpt>
      <trkpt lat="43.57603" lon="6.15752">
        <ele>420</ele>
        <time>2025-07-06T08:46:57.567Z</time>
      </trkpt>
      <trkpt lat="43.57597" lon="6.15751">
        <ele>420</ele>
        <time>2025-07-06T08:47:02.417Z</time>
      </trkpt>
      <trkpt lat="43.57592" lon="6.15751">
        <ele>420</ele>
        <time>2025-07-06T08:47:06.429Z</time>
      </trkpt>
      <trkpt lat="43.57586" lon="6.1575">
        <ele>420</ele>
        <time>2025-07-06T08:47:11.278Z</time>
      </trkpt>
      <trkpt lat="43.5758" lon="6.15749">
        <ele>420</ele>
        <time>2025-07-06T08:47:16.127Z</time>
      </trkpt>
      <trkpt lat="43.57574" lon="6.15749">
        <ele>419.5</ele>
        <time>2025-07-06T08:47:20.941Z</time>
      </trkpt>
      <trkpt lat="43.57568" lon="6.15748">
        <ele>419.2</ele>
        <time>2025-07-06T08:47:25.789Z</time>
      </trkpt>
      <trkpt lat="43.57563" lon="6.15745">
        <ele>419.2</ele>
        <time>2025-07-06T08:47:30.162Z</time>
      </trkpt>
      <trkpt lat="43.57558" lon="6.15741">
        <ele>419.2</ele>
        <time>2025-07-06T08:47:34.797Z</time>
      </trkpt>
      <trkpt lat="43.57553" lon="6.15738">
        <ele>419.1</ele>
        <time>2025-07-06T08:47:39.169Z</time>
      </trkpt>
      <trkpt lat="43.57548" lon="6.15735">
        <ele>419.1</ele>
        <time>2025-07-06T08:47:43.541Z</time>
      </trkpt>
      <trkpt lat="43.57543" lon="6.15731">
        <ele>419</ele>
        <time>2025-07-06T08:47:48.175Z</time>
      </trkpt>
      <trkpt lat="43.57538" lon="6.15728">
        <ele>418.7</ele>
        <time>2025-07-06T08:47:52.546Z</time>
      </trkpt>
      <trkpt lat="43.57533" lon="6.15725">
        <ele>418.4</ele>
        <time>2025-07-06T08:47:56.917Z</time>
      </trkpt>
      <trkpt lat="43.57528" lon="6.15722">
        <ele>418</ele>
        <time>2025-07-06T08:48:01.288Z</time>
      </trkpt>
      <trkpt lat="43.57522" lon="6.15718">
        <ele>418.1</ele>
        <time>2025-07-06T08:48:06.630Z</time>
      </trkpt>
      <trkpt lat="43.57517" lon="6.15715">
        <ele>418</ele>
        <time>2025-07-06T08:48:11.000Z</time>
      </trkpt>
      <trkpt lat="43.57512" lon="6.15712">
        <ele>418</ele>
        <time>2025-07-06T08:48:15.370Z</time>
      </trkpt>
      <trkpt lat="43.57507" lon="6.15708">
        <ele>417.9</ele>
        <time>2025-07-06T08:48:20.002Z</time>
      </trkpt>
      <trkpt lat="43.57502" lon="6.15705">
        <ele>417.7</ele>
        <time>2025-07-06T08:48:24.371Z</time>
      </trkpt>
      <trkpt lat="43.57497" lon="6.15702">
        <ele>417.8</ele>
        <time>2025-07-06T08:48:28.740Z</time>
      </trkpt>
      <trkpt lat="43.57492" lon="6.15698">
        <ele>417.9</ele>
        <time>2025-07-06T08:48:33.371Z</time>
      </trkpt>
      <trkpt lat="43.57487" lon="6.15695">
        <ele>418</ele>
        <time>2025-07-06T08:48:37.739Z</time>
      </trkpt>
      <trkpt lat="43.57483" lon="6.15692">
        <ele>418.1</ele>
        <time>2025-07-06T08:48:41.386Z</time>
      </trkpt>
      <trkpt lat="43.57479" lon="6.15689">
        <ele>418.1</ele>
        <time>2025-07-06T08:48:45.033Z</time>
      </trkpt>
      <trkpt lat="43.57474" lon="6.15685">
        <ele>418</ele>
        <time>2025-07-06T08:48:49.662Z</time>
      </trkpt>
      <trkpt lat="43.5747" lon="6.15682">
        <ele>418</ele>
        <time>2025-07-06T08:48:53.308Z</time>
      </trkpt>
      <trkpt lat="43.57466" lon="6.15679">
        <ele>418</ele>
        <time>2025-07-06T08:48:56.954Z</time>
      </trkpt>
      <trkpt lat="43.57462" lon="6.15676">
        <ele>417.9</ele>
        <time>2025-07-06T08:49:00.600Z</time>
      </trkpt>
      <trkpt lat="43.57458" lon="6.15673">
        <ele>417.7</ele>
        <time>2025-07-06T08:49:04.246Z</time>
      </trkpt>
      <trkpt lat="43.57454" lon="6.1567">
        <ele>417.5</ele>
        <time>2025-07-06T08:49:07.892Z</time>
      </trkpt>
      <trkpt lat="43.57449" lon="6.15666">
        <ele>417.2</ele>
        <time>2025-07-06T08:49:12.520Z</time>
      </trkpt>
      <trkpt lat="43.57445" lon="6.15663">
        <ele>417</ele>
        <time>2025-07-06T08:49:16.165Z</time>
      </trkpt>
      <trkpt lat="43.57441" lon="6.1566">
        <ele>417</ele>
        <time>2025-07-06T08:49:19.810Z</time>
      </trkpt>
      <trkpt lat="43.57437" lon="6.15657">
        <ele>416.9</ele>
        <time>2025-07-06T08:49:23.455Z</time>
      </trkpt>
      <trkpt lat="43.57433" lon="6.15654">
        <ele>416.8</ele>
        <time>2025-07-06T08:49:27.100Z</time>
      </trkpt>
      <trkpt lat="43.57428" lon="6.1565">
        <ele>416.6</ele>
        <time>2025-07-06T08:49:31.727Z</time>
      </trkpt>
      <trkpt lat="43.57424" lon="6.15647">
        <ele>416.5</ele>
        <time>2025-07-06T08:49:35.371Z</time>
      </trkpt>
      <trkpt lat="43.5742" lon="6.15644">
        <ele>416.3</ele>
        <time>2025-07-06T08:49:39.015Z</time>
      </trkpt>
      <trkpt lat="43.57413" lon="6.15639">
        <ele>416</ele>
        <time>2025-07-06T08:49:45.324Z</time>
      </trkpt>
      <trkpt lat="43.57406" lon="6.15634">
        <ele>416</ele>
        <time>2025-07-06T08:49:51.633Z</time>
      </trkpt>
      <trkpt lat="43.57399" lon="6.15629">
        <ele>416</ele>
        <time>2025-07-06T08:49:57.942Z</time>
      </trkpt>
      <trkpt lat="43.57392" lon="6.15624">
        <ele>416</ele>
        <time>2025-07-06T08:50:04.251Z</time>
      </trkpt>
      <trkpt lat="43.57385" lon="6.15619">
        <ele>415.9</ele>
        <time>2025-07-06T08:50:10.560Z</time>
      </trkpt>
      <trkpt lat="43.57378" lon="6.15614">
        <ele>415.6</ele>
        <time>2025-07-06T08:50:16.869Z</time>
      </trkpt>
      <trkpt lat="43.57371" lon="6.15609">
        <ele>415.3</ele>
        <time>2025-07-06T08:50:23.178Z</time>
      </trkpt>
      <trkpt lat="43.57364" lon="6.15604">
        <ele>415.1</ele>
        <time>2025-07-06T08:50:29.487Z</time>
      </trkpt>
      <trkpt lat="43.57357" lon="6.15599">
        <ele>415.1</ele>
        <time>2025-07-06T08:50:35.796Z</time>
      </trkpt>
      <trkpt lat="43.57351" lon="6.15593">
        <ele>415.1</ele>
        <time>2025-07-06T08:50:41.726Z</time>
      </trkpt>
      <trkpt lat="43.57344" lon="6.15588">
        <ele>415.1</ele>
        <time>2025-07-06T08:50:48.034Z</time>
      </trkpt>
      <trkpt lat="43.57338" lon="6.15583">
        <ele>415</ele>
        <time>2025-07-06T08:50:53.643Z</time>
      </trkpt>
      <trkpt lat="43.57331" lon="6.15577">
        <ele>414.8</ele>
        <time>2025-07-06T08:51:00.237Z</time>
      </trkpt>
      <trkpt lat="43.57325" lon="6.15572">
        <ele>414.6</ele>
        <time>2025-07-06T08:51:05.845Z</time>
      </trkpt>
      <trkpt lat="43.57318" lon="6.15567">
        <ele>414.4</ele>
        <time>2025-07-06T08:51:12.151Z</time>
      </trkpt>
      <trkpt lat="43.57312" lon="6.15562">
        <ele>414.2</ele>
        <time>2025-07-06T08:51:17.758Z</time>
      </trkpt>
      <trkpt lat="43.57305" lon="6.15556">
        <ele>414</ele>
        <time>2025-07-06T08:51:24.349Z</time>
      </trkpt>
      <trkpt lat="43.57298" lon="6.15551">
        <ele>413.6</ele>
        <time>2025-07-06T08:51:30.653Z</time>
      </trkpt>
      <trkpt lat="43.57292" lon="6.15546">
        <ele>413.3</ele>
        <time>2025-07-06T08:51:36.258Z</time>
      </trkpt>
      <trkpt lat="43.57285" lon="6.1554">
        <ele>413.1</ele>
        <time>2025-07-06T08:51:42.847Z</time>
      </trkpt>
      <trkpt lat="43.57279" lon="6.15535">
        <ele>413</ele>
        <time>2025-07-06T08:51:48.451Z</time>
      </trkpt>
      <trkpt lat="43.57272" lon="6.1553">
        <ele>412.8</ele>
        <time>2025-07-06T08:51:54.753Z</time>
      </trkpt>
      <trkpt lat="43.57266" lon="6.15524">
        <ele>412.6</ele>
        <time>2025-07-06T08:52:00.677Z</time>
      </trkpt>
      <trkpt lat="43.57259" lon="6.15519">
        <ele>412.5</ele>
        <time>2025-07-06T08:52:06.978Z</time>
      </trkpt>
      <trkpt lat="43.57254" lon="6.15516">
        <ele>412.5</ele>
        <time>2025-07-06T08:52:11.336Z</time>
      </trkpt>
      <trkpt lat="43.57249" lon="6.15514">
        <ele>412.5</ele>
        <time>2025-07-06T08:52:15.497Z</time>
      </trkpt>
      <trkpt lat="43.57244" lon="6.15511">
        <ele>412.6</ele>
        <time>2025-07-06T08:52:19.854Z</time>
      </trkpt>
      <trkpt lat="43.57239" lon="6.15509">
        <ele>412.7</ele>
        <time>2025-07-06T08:52:24.014Z</time>
      </trkpt>
      <trkpt lat="43.57233" lon="6.15506">
        <ele>412.8</ele>
        <time>2025-07-06T08:52:29.113Z</time>
      </trkpt>
      <trkpt lat="43.57228" lon="6.15503">
        <ele>412.9</ele>
        <time>2025-07-06T08:52:33.469Z</time>
      </trkpt>
      <trkpt lat="43.57223" lon="6.15501">
        <ele>413</ele>
        <time>2025-07-06T08:52:37.628Z</time>
      </trkpt>
      <trkpt lat="43.57218" lon="6.15498">
        <ele>413.2</ele>
        <time>2025-07-06T08:52:41.983Z</time>
      </trkpt>
      <trkpt lat="43.57213" lon="6.15499">
        <ele>413.1</ele>
        <time>2025-07-06T08:52:46.018Z</time>
      </trkpt>
      <trkpt lat="43.57207" lon="6.15501">
        <ele>413</ele>
        <time>2025-07-06T08:52:50.947Z</time>
      </trkpt>
      <trkpt lat="43.57202" lon="6.15502">
        <ele>412.9</ele>
        <time>2025-07-06T08:52:54.981Z</time>
      </trkpt>
      <trkpt lat="43.57196" lon="6.15503">
        <ele>412.9</ele>
        <time>2025-07-06T08:52:59.806Z</time>
      </trkpt>
      <trkpt lat="43.57191" lon="6.15504">
        <ele>413.1</ele>
        <time>2025-07-06T08:53:03.839Z</time>
      </trkpt>
      <trkpt lat="43.57185" lon="6.15506">
        <ele>413.4</ele>
        <time>2025-07-06T08:53:08.766Z</time>
      </trkpt>
      <trkpt lat="43.5718" lon="6.15507">
        <ele>413.7</ele>
        <time>2025-07-06T08:53:12.798Z</time>
      </trkpt>
      <trkpt lat="43.57174" lon="6.15508">
        <ele>414</ele>
        <time>2025-07-06T08:53:17.621Z</time>
      </trkpt>
      <trkpt lat="43.5717" lon="6.15514">
        <ele>413.8</ele>
        <time>2025-07-06T08:53:22.335Z</time>
      </trkpt>
      <trkpt lat="43.57166" lon="6.1552">
        <ele>413.7</ele>
        <time>2025-07-06T08:53:27.049Z</time>
      </trkpt>
      <trkpt lat="43.57161" lon="6.15526">
        <ele>414</ele>
        <time>2025-07-06T08:53:32.336Z</time>
      </trkpt>
      <trkpt lat="43.57157" lon="6.15532">
        <ele>414</ele>
        <time>2025-07-06T08:53:37.049Z</time>
      </trkpt>
      <trkpt lat="43.57149" lon="6.15531">
        <ele>415.1</ele>
        <time>2025-07-06T08:53:43.457Z</time>
      </trkpt>
      <trkpt lat="43.57142" lon="6.15531">
        <ele>415.9</ele>
        <time>2025-07-06T08:53:49.041Z</time>
      </trkpt>
      <trkpt lat="43.57134" lon="6.1553">
        <ele>416.2</ele>
        <time>2025-07-06T08:53:55.448Z</time>
      </trkpt>
      <trkpt lat="43.57126" lon="6.15529">
        <ele>415.8</ele>
        <time>2025-07-06T08:54:01.855Z</time>
      </trkpt>
      <trkpt lat="43.57121" lon="6.15525">
        <ele>416.2</ele>
        <time>2025-07-06T08:54:06.464Z</time>
      </trkpt>
      <trkpt lat="43.57116" lon="6.15521">
        <ele>416.7</ele>
        <time>2025-07-06T08:54:11.073Z</time>
      </trkpt>
      <trkpt lat="43.5711" lon="6.15516">
        <ele>417.6</ele>
        <time>2025-07-06T08:54:16.662Z</time>
      </trkpt>
      <trkpt lat="43.57105" lon="6.15512">
        <ele>418.5</ele>
        <time>2025-07-06T08:54:21.270Z</time>
      </trkpt>
      <trkpt lat="43.57097" lon="6.15514">
        <ele>418.2</ele>
        <time>2025-07-06T08:54:27.752Z</time>
      </trkpt>
      <trkpt lat="43.57089" lon="6.15516">
        <ele>417.9</ele>
        <time>2025-07-06T08:54:34.234Z</time>
      </trkpt>
      <trkpt lat="43.57081" lon="6.15518">
        <ele>417.5</ele>
        <time>2025-07-06T08:54:40.716Z</time>
      </trkpt>
      <trkpt lat="43.57073" lon="6.1552">
        <ele>417.3</ele>
        <time>2025-07-06T08:54:47.198Z</time>
      </trkpt>
      <trkpt lat="43.57069" lon="6.15519">
        <ele>417.6</ele>
        <time>2025-07-06T08:54:50.439Z</time>
      </trkpt>
      <trkpt lat="43.57064" lon="6.15518">
        <ele>417.9</ele>
        <time>2025-07-06T08:54:54.467Z</time>
      </trkpt>
      <trkpt lat="43.5706" lon="6.15516">
        <ele>418.2</ele>
        <time>2025-07-06T08:54:57.858Z</time>
      </trkpt>
      <trkpt lat="43.57055" lon="6.15515">
        <ele>418.3</ele>
        <time>2025-07-06T08:55:01.884Z</time>
      </trkpt>
      <trkpt lat="43.57051" lon="6.15514">
        <ele>418</ele>
        <time>2025-07-06T08:55:05.123Z</time>
      </trkpt>
      <trkpt lat="43.57046" lon="6.15513">
        <ele>417.6</ele>
        <time>2025-07-06T08:55:09.148Z</time>
      </trkpt>
      <trkpt lat="43.57042" lon="6.15511">
        <ele>417.3</ele>
        <time>2025-07-06T08:55:12.537Z</time>
      </trkpt>
      <trkpt lat="43.57037" lon="6.1551">
        <ele>416.9</ele>
        <time>2025-07-06T08:55:16.561Z</time>
      </trkpt>
      <trkpt lat="43.57029" lon="6.15505">
        <ele>416.6</ele>
        <time>2025-07-06T08:55:23.555Z</time>
      </trkpt>
      <trkpt lat="43.57028" lon="6.15508">
        <ele>416.2</ele>
        <time>2025-07-06T08:55:25.460Z</time>
      </trkpt>
      <trkpt lat="43.57029" lon="6.15505">
        <ele>416.6</ele>
        <time>2025-07-06T08:55:27.365Z</time>
      </trkpt>
      <trkpt lat="43.57024" lon="6.15501">
        <ele>416.6</ele>
        <time>2025-07-06T08:55:31.966Z</time>
      </trkpt>
      <trkpt lat="43.57019" lon="6.15498">
        <ele>416.5</ele>
        <time>2025-07-06T08:55:36.306Z</time>
      </trkpt>
      <trkpt lat="43.57014" lon="6.15494">
        <ele>416.3</ele>
        <time>2025-07-06T08:55:40.906Z</time>
      </trkpt>
      <trkpt lat="43.57009" lon="6.1549">
        <ele>416.1</ele>
        <time>2025-07-06T08:55:45.506Z</time>
      </trkpt>
      <trkpt lat="43.57004" lon="6.15499">
        <ele>415.3</ele>
        <time>2025-07-06T08:55:52.046Z</time>
      </trkpt>
      <trkpt lat="43.56999" lon="6.15507">
        <ele>414.2</ele>
        <time>2025-07-06T08:55:58.138Z</time>
      </trkpt>
      <trkpt lat="43.56994" lon="6.15516">
        <ele>413</ele>
        <time>2025-07-06T08:56:04.677Z</time>
      </trkpt>
      <trkpt lat="43.5699" lon="6.15524">
        <ele>412</ele>
        <time>2025-07-06T08:56:10.281Z</time>
      </trkpt>
      <trkpt lat="43.56985" lon="6.15533">
        <ele>411.1</ele>
        <time>2025-07-06T08:56:16.819Z</time>
      </trkpt>
      <trkpt lat="43.5698" lon="6.15541">
        <ele>410.3</ele>
        <time>2025-07-06T08:56:22.909Z</time>
      </trkpt>
      <trkpt lat="43.56975" lon="6.1555">
        <ele>409.5</ele>
        <time>2025-07-06T08:56:29.446Z</time>
      </trkpt>
      <trkpt lat="43.5697" lon="6.15558">
        <ele>408.8</ele>
        <time>2025-07-06T08:56:35.535Z</time>
      </trkpt>
      <trkpt lat="43.56967" lon="6.15565">
        <ele>408.3</ele>
        <time>2025-07-06T08:56:40.222Z</time>
      </trkpt>
      <trkpt lat="43.56963" lon="6.15571">
        <ele>407.9</ele>
        <time>2025-07-06T08:56:44.920Z</time>
      </trkpt>
      <trkpt lat="43.56955" lon="6.15573">
        <ele>407.9</ele>
        <time>2025-07-06T08:56:51.385Z</time>
      </trkpt>
      <trkpt lat="43.56951" lon="6.15574">
        <ele>407.9</ele>
        <time>2025-07-06T08:56:55.009Z</time>
      </trkpt>
      <trkpt lat="43.56946" lon="6.15575">
        <ele>408</ele>
        <time>2025-07-06T08:56:58.633Z</time>
      </trkpt>
      <trkpt lat="43.56942" lon="6.15572">
        <ele>407.9</ele>
        <time>2025-07-06T08:57:02.252Z</time>
      </trkpt>
      <trkpt lat="43.56937" lon="6.15569">
        <ele>407.6</ele>
        <time>2025-07-06T08:57:06.586Z</time>
      </trkpt>
      <trkpt lat="43.56932" lon="6.15567">
        <ele>407.4</ele>
        <time>2025-07-06T08:57:10.724Z</time>
      </trkpt>
      <trkpt lat="43.56926" lon="6.15564">
        <ele>407.1</ele>
        <time>2025-07-06T08:57:15.796Z</time>
      </trkpt>
      <trkpt lat="43.56921" lon="6.15562">
        <ele>407</ele>
        <time>2025-07-06T08:57:19.933Z</time>
      </trkpt>
      <trkpt lat="43.56916" lon="6.15559">
        <ele>406.8</ele>
        <time>2025-07-06T08:57:24.265Z</time>
      </trkpt>
      <trkpt lat="43.5691" lon="6.15557">
        <ele>406.5</ele>
        <time>2025-07-06T08:57:29.169Z</time>
      </trkpt>
      <trkpt lat="43.56905" lon="6.15554">
        <ele>406.2</ele>
        <time>2025-07-06T08:57:33.500Z</time>
      </trkpt>
      <trkpt lat="43.569" lon="6.15552">
        <ele>405.9</ele>
        <time>2025-07-06T08:57:37.635Z</time>
      </trkpt>
      <trkpt lat="43.56895" lon="6.1555">
        <ele>405.6</ele>
        <time>2025-07-06T08:57:41.770Z</time>
      </trkpt>
      <trkpt lat="43.56889" lon="6.15547">
        <ele>405.3</ele>
        <time>2025-07-06T08:57:46.838Z</time>
      </trkpt>
      <trkpt lat="43.56884" lon="6.15545">
        <ele>405.1</ele>
        <time>2025-07-06T08:57:50.972Z</time>
      </trkpt>
      <trkpt lat="43.56879" lon="6.15542">
        <ele>405</ele>
        <time>2025-07-06T08:57:55.301Z</time>
      </trkpt>
      <trkpt lat="43.56873" lon="6.1554">
        <ele>404.7</ele>
        <time>2025-07-06T08:58:00.202Z</time>
      </trkpt>
      <trkpt lat="43.56868" lon="6.15537">
        <ele>404.4</ele>
        <time>2025-07-06T08:58:04.530Z</time>
      </trkpt>
      <trkpt lat="43.56863" lon="6.15535">
        <ele>404.1</ele>
        <time>2025-07-06T08:58:08.662Z</time>
      </trkpt>
      <trkpt lat="43.56857" lon="6.15532">
        <ele>403.9</ele>
        <time>2025-07-06T08:58:13.727Z</time>
      </trkpt>
      <trkpt lat="43.56852" lon="6.1553">
        <ele>403.7</ele>
        <time>2025-07-06T08:58:17.858Z</time>
      </trkpt>
      <trkpt lat="43.56848" lon="6.15527">
        <ele>403.5</ele>
        <time>2025-07-06T08:58:21.470Z</time>
      </trkpt>
      <trkpt lat="43.56843" lon="6.15524">
        <ele>403.4</ele>
        <time>2025-07-06T08:58:25.795Z</time>
      </trkpt>
      <trkpt lat="43.56839" lon="6.15521">
        <ele>403.3</ele>
        <time>2025-07-06T08:58:29.406Z</time>
      </trkpt>
      <trkpt lat="43.56834" lon="6.15518">
        <ele>403</ele>
        <time>2025-07-06T08:58:33.730Z</time>
      </trkpt>
      <trkpt lat="43.56831" lon="6.1551">
        <ele>402.7</ele>
        <time>2025-07-06T08:58:38.906Z</time>
      </trkpt>
      <trkpt lat="43.56828" lon="6.15503">
        <ele>402.4</ele>
        <time>2025-07-06T08:58:43.579Z</time>
      </trkpt>
      <trkpt lat="43.56825" lon="6.15495">
        <ele>402.5</ele>
        <time>2025-07-06T08:58:48.754Z</time>
      </trkpt>
      <trkpt lat="43.56822" lon="6.15487">
        <ele>402.7</ele>
        <time>2025-07-06T08:58:53.929Z</time>
      </trkpt>
      <trkpt lat="43.56817" lon="6.15484">
        <ele>402.4</ele>
        <time>2025-07-06T08:58:58.251Z</time>
      </trkpt>
      <trkpt lat="43.56813" lon="6.15481">
        <ele>402.2</ele>
        <time>2025-07-06T08:59:01.859Z</time>
      </trkpt>
      <trkpt lat="43.56808" lon="6.15478">
        <ele>401.8</ele>
        <time>2025-07-06T08:59:06.179Z</time>
      </trkpt>
      <trkpt lat="43.56804" lon="6.15475">
        <ele>401.6</ele>
        <time>2025-07-06T08:59:09.786Z</time>
      </trkpt>
      <trkpt lat="43.56799" lon="6.15472">
        <ele>401.3</ele>
        <time>2025-07-06T08:59:14.105Z</time>
      </trkpt>
      <trkpt lat="43.56794" lon="6.15469">
        <ele>400.8</ele>
        <time>2025-07-06T08:59:18.424Z</time>
      </trkpt>
      <trkpt lat="43.5679" lon="6.15466">
        <ele>400.3</ele>
        <time>2025-07-06T08:59:22.030Z</time>
      </trkpt>
      <trkpt lat="43.56785" lon="6.15463">
        <ele>399.8</ele>
        <time>2025-07-06T08:59:26.348Z</time>
      </trkpt>
      <trkpt lat="43.56781" lon="6.15459">
        <ele>399.3</ele>
        <time>2025-07-06T08:59:30.260Z</time>
      </trkpt>
      <trkpt lat="43.56776" lon="6.15454">
        <ele>398.9</ele>
        <time>2025-07-06T08:59:35.150Z</time>
      </trkpt>
      <trkpt lat="43.56772" lon="6.15447">
        <ele>398.6</ele>
        <time>2025-07-06T08:59:40.265Z</time>
      </trkpt>
      <trkpt lat="43.56767" lon="6.1544">
        <ele>398.2</ele>
        <time>2025-07-06T08:59:45.904Z</time>
      </trkpt>
      <trkpt lat="43.56769" lon="6.1543">
        <ele>398.4</ele>
        <time>2025-07-06T08:59:51.855Z</time>
      </trkpt>
      <trkpt lat="43.56771" lon="6.15421">
        <ele>398.5</ele>
        <time>2025-07-06T08:59:57.255Z</time>
      </trkpt>
      <trkpt lat="43.56772" lon="6.15411">
        <ele>398.6</ele>
        <time>2025-07-06T09:00:03.045Z</time>
      </trkpt>
      <trkpt lat="43.56774" lon="6.15401">
        <ele>398.7</ele>
        <time>2025-07-06T09:00:08.995Z</time>
      </trkpt>
    </trkseg>
  </trk>
</gpx>